<?xml version="1.0" encoding="UTF-8" standalone="no" ?>
<gpx xmlns="http://www.topografix.com/GPX/1/1" xmlns:xsi="http://www.w3.org/2001/XMLSchema-instance" xsi:schemaLocation="http://www.topografix.com/GPX/1/1 http://www.topografix.com/GPX/1/1/gpx.xsd" version="1.1" creator="VisuGPX - https://www.visugpx.com">
  <metadata>
    <name>Tour du Viso</name>
    <desc><![CDATA[Tour du Viso en 4 jours
J1 l'Echalp - col Lacroix - Rifugio Granero
J2 Rifugio Granero - col Seillierino - tunnel de la Traversette - Rifugio Giacoletti - Rifugio Quintino Sella
J3 Rifugio Quintino Sella - Passo Galarino (petit détour sur la bosse adjacente) - Passo di san Chiaffredo - Rifugio Vallanta
J4 Rifugio Vallanta - col de Valante - l'Echalp]]></desc>
  </metadata>
  <trk>
    <name><![CDATA[Tour du Viso]]></name>
    <trkseg>
      <trkpt lat="44.75891" lon="6.99275">
        <ele>1703.59</ele>
        <time>2022-08-18T05:16:22Z</time>
      </trkpt>
      <trkpt lat="44.75883" lon="6.99312">
        <ele>1706.96</ele>
        <time>2022-08-18T05:16:58Z</time>
      </trkpt>
      <trkpt lat="44.75898" lon="6.99343">
        <ele>1711.28</ele>
        <time>2022-08-18T05:17:39Z</time>
      </trkpt>
      <trkpt lat="44.75888" lon="6.9938">
        <ele>1716.57</ele>
        <time>2022-08-18T05:18:25Z</time>
      </trkpt>
      <trkpt lat="44.75885" lon="6.99418">
        <ele>1721.86</ele>
        <time>2022-08-18T05:19:03Z</time>
      </trkpt>
      <trkpt lat="44.75879" lon="6.99459">
        <ele>1727.15</ele>
        <time>2022-08-18T05:19:47Z</time>
      </trkpt>
      <trkpt lat="44.75876" lon="6.99491">
        <ele>1734.36</ele>
        <time>2022-08-18T05:20:36Z</time>
      </trkpt>
      <trkpt lat="44.75878" lon="6.99532">
        <ele>1743.49</ele>
        <time>2022-08-18T05:21:35Z</time>
      </trkpt>
      <trkpt lat="44.75909" lon="6.99557">
        <ele>1756.47</ele>
        <time>2022-08-18T05:23:39Z</time>
      </trkpt>
      <trkpt lat="44.75924" lon="6.99608">
        <ele>1772.81</ele>
        <time>2022-08-18T05:25:35Z</time>
      </trkpt>
      <trkpt lat="44.75921" lon="6.9964">
        <ele>1783.86</ele>
        <time>2022-08-18T05:26:51Z</time>
      </trkpt>
      <trkpt lat="44.75947" lon="6.9964">
        <ele>1789.15</ele>
        <time>2022-08-18T05:27:28Z</time>
      </trkpt>
      <trkpt lat="44.75971" lon="6.99646">
        <ele>1793.96</ele>
        <time>2022-08-18T05:28:04Z</time>
      </trkpt>
      <trkpt lat="44.76012" lon="6.99683">
        <ele>1807.9</ele>
        <time>2022-08-18T05:29:31Z</time>
      </trkpt>
      <trkpt lat="44.76036" lon="6.99701">
        <ele>1814.63</ele>
        <time>2022-08-18T05:30:18Z</time>
      </trkpt>
      <trkpt lat="44.76083" lon="6.99712">
        <ele>1828.08</ele>
        <time>2022-08-18T05:31:55Z</time>
      </trkpt>
      <trkpt lat="44.76104" lon="6.99741">
        <ele>1843.47</ele>
        <time>2022-08-18T05:33:34Z</time>
      </trkpt>
      <trkpt lat="44.76094" lon="6.99772">
        <ele>1853.08</ele>
        <time>2022-08-18T05:34:32Z</time>
      </trkpt>
      <trkpt lat="44.76074" lon="6.99793">
        <ele>1855.48</ele>
        <time>2022-08-18T05:35:31Z</time>
      </trkpt>
      <trkpt lat="44.76065" lon="6.99844">
        <ele>1874.23</ele>
        <time>2022-08-18T05:37:28Z</time>
      </trkpt>
      <trkpt lat="44.76042" lon="6.99854">
        <ele>1880.96</ele>
        <time>2022-08-18T05:38:10Z</time>
      </trkpt>
      <trkpt lat="44.76081" lon="6.99891">
        <ele>1900.18</ele>
        <time>2022-08-18T05:40:13Z</time>
      </trkpt>
      <trkpt lat="44.76108" lon="6.99902">
        <ele>1904.99</ele>
        <time>2022-08-18T05:40:53Z</time>
      </trkpt>
      <trkpt lat="44.76126" lon="6.99922">
        <ele>1910.76</ele>
        <time>2022-08-18T05:41:26Z</time>
      </trkpt>
      <trkpt lat="44.76134" lon="6.99952">
        <ele>1918.93</ele>
        <time>2022-08-18T05:42:30Z</time>
      </trkpt>
      <trkpt lat="44.7615" lon="6.99981">
        <ele>1929.5</ele>
        <time>2022-08-18T05:43:34Z</time>
      </trkpt>
      <trkpt lat="44.7616" lon="7.0001">
        <ele>1939.12</ele>
        <time>2022-08-18T05:44:32Z</time>
      </trkpt>
      <trkpt lat="44.76168" lon="7.00046">
        <ele>1948.25</ele>
        <time>2022-08-18T05:45:33Z</time>
      </trkpt>
      <trkpt lat="44.76184" lon="7.0007">
        <ele>1958.82</ele>
        <time>2022-08-18T05:46:34Z</time>
      </trkpt>
      <trkpt lat="44.76223" lon="7.00067">
        <ele>1967.48</ele>
        <time>2022-08-18T05:49:22Z</time>
      </trkpt>
      <trkpt lat="44.76258" lon="7.00112">
        <ele>1978.05</ele>
        <time>2022-08-18T05:52:00Z</time>
      </trkpt>
      <trkpt lat="44.76282" lon="7.00141">
        <ele>1986.7</ele>
        <time>2022-08-18T05:52:44Z</time>
      </trkpt>
      <trkpt lat="44.76287" lon="7.00173">
        <ele>1991.99</ele>
        <time>2022-08-18T05:53:21Z</time>
      </trkpt>
      <trkpt lat="44.76285" lon="7.00213">
        <ele>1999.2</ele>
        <time>2022-08-18T05:54:05Z</time>
      </trkpt>
      <trkpt lat="44.76275" lon="7.00244">
        <ele>2005.45</ele>
        <time>2022-08-18T05:54:42Z</time>
      </trkpt>
      <trkpt lat="44.76272" lon="7.00275">
        <ele>2011.22</ele>
        <time>2022-08-18T05:55:24Z</time>
      </trkpt>
      <trkpt lat="44.76277" lon="7.00308">
        <ele>2014.1</ele>
        <time>2022-08-18T05:55:49Z</time>
      </trkpt>
      <trkpt lat="44.76288" lon="7.00349">
        <ele>2019.87</ele>
        <time>2022-08-18T05:56:28Z</time>
      </trkpt>
      <trkpt lat="44.7631" lon="7.00369">
        <ele>2019.87</ele>
        <time>2022-08-18T05:56:55Z</time>
      </trkpt>
      <trkpt lat="44.76331" lon="7.00378">
        <ele>2021.79</ele>
        <time>2022-08-18T05:57:20Z</time>
      </trkpt>
      <trkpt lat="44.7636" lon="7.00376">
        <ele>2027.56</ele>
        <time>2022-08-18T05:57:58Z</time>
      </trkpt>
      <trkpt lat="44.76385" lon="7.00362">
        <ele>2037.65</ele>
        <time>2022-08-18T05:58:59Z</time>
      </trkpt>
      <trkpt lat="44.76421" lon="7.0032">
        <ele>2053.03</ele>
        <time>2022-08-18T06:01:02Z</time>
      </trkpt>
      <trkpt lat="44.76463" lon="7.00341">
        <ele>2067.93</ele>
        <time>2022-08-18T06:02:47Z</time>
      </trkpt>
      <trkpt lat="44.7648" lon="7.00377">
        <ele>2072.26</ele>
        <time>2022-08-18T06:03:28Z</time>
      </trkpt>
      <trkpt lat="44.76492" lon="7.00412">
        <ele>2079.47</ele>
        <time>2022-08-18T06:04:12Z</time>
      </trkpt>
      <trkpt lat="44.76499" lon="7.00443">
        <ele>2082.83</ele>
        <time>2022-08-18T06:04:41Z</time>
      </trkpt>
      <trkpt lat="44.76507" lon="7.00479">
        <ele>2088.6</ele>
        <time>2022-08-18T06:05:20Z</time>
      </trkpt>
      <trkpt lat="44.76515" lon="7.00509">
        <ele>2092.45</ele>
        <time>2022-08-18T06:05:55Z</time>
      </trkpt>
      <trkpt lat="44.76527" lon="7.00546">
        <ele>2094.37</ele>
        <time>2022-08-18T06:06:22Z</time>
      </trkpt>
      <trkpt lat="44.76538" lon="7.00577">
        <ele>2097.73</ele>
        <time>2022-08-18T06:06:50Z</time>
      </trkpt>
      <trkpt lat="44.76544" lon="7.0061">
        <ele>2101.58</ele>
        <time>2022-08-18T06:07:24Z</time>
      </trkpt>
      <trkpt lat="44.76553" lon="7.00642">
        <ele>2103.5</ele>
        <time>2022-08-18T06:07:46Z</time>
      </trkpt>
      <trkpt lat="44.76564" lon="7.00685">
        <ele>2107.35</ele>
        <time>2022-08-18T06:08:22Z</time>
      </trkpt>
      <trkpt lat="44.76571" lon="7.00715">
        <ele>2109.75</ele>
        <time>2022-08-18T06:08:47Z</time>
      </trkpt>
      <trkpt lat="44.76579" lon="7.00751">
        <ele>2115.52</ele>
        <time>2022-08-18T06:09:25Z</time>
      </trkpt>
      <trkpt lat="44.76586" lon="7.00787">
        <ele>2120.32</ele>
        <time>2022-08-18T06:10:03Z</time>
      </trkpt>
      <trkpt lat="44.76586" lon="7.00832">
        <ele>2126.57</ele>
        <time>2022-08-18T06:10:50Z</time>
      </trkpt>
      <trkpt lat="44.76587" lon="7.00867">
        <ele>2130.9</ele>
        <time>2022-08-18T06:11:22Z</time>
      </trkpt>
      <trkpt lat="44.76594" lon="7.00911">
        <ele>2136.19</ele>
        <time>2022-08-18T06:12:03Z</time>
      </trkpt>
      <trkpt lat="44.766" lon="7.00951">
        <ele>2140.03</ele>
        <time>2022-08-18T06:12:39Z</time>
      </trkpt>
      <trkpt lat="44.76589" lon="7.00996">
        <ele>2147.24</ele>
        <time>2022-08-18T06:13:25Z</time>
      </trkpt>
      <trkpt lat="44.76582" lon="7.01031">
        <ele>2151.57</ele>
        <time>2022-08-18T06:13:58Z</time>
      </trkpt>
      <trkpt lat="44.76579" lon="7.01072">
        <ele>2156.86</ele>
        <time>2022-08-18T06:14:35Z</time>
      </trkpt>
      <trkpt lat="44.7657" lon="7.01104">
        <ele>2163.1</ele>
        <time>2022-08-18T06:15:15Z</time>
      </trkpt>
      <trkpt lat="44.76558" lon="7.01167">
        <ele>2171.76</ele>
        <time>2022-08-18T06:16:57Z</time>
      </trkpt>
      <trkpt lat="44.7655" lon="7.01199">
        <ele>2174.64</ele>
        <time>2022-08-18T06:17:22Z</time>
      </trkpt>
      <trkpt lat="44.76536" lon="7.01235">
        <ele>2178</ele>
        <time>2022-08-18T06:17:52Z</time>
      </trkpt>
      <trkpt lat="44.76525" lon="7.01271">
        <ele>2182.33</ele>
        <time>2022-08-18T06:18:22Z</time>
      </trkpt>
      <trkpt lat="44.7651" lon="7.01304">
        <ele>2186.18</ele>
        <time>2022-08-18T06:18:51Z</time>
      </trkpt>
      <trkpt lat="44.76497" lon="7.01351">
        <ele>2191.46</ele>
        <time>2022-08-18T06:19:31Z</time>
      </trkpt>
      <trkpt lat="44.76487" lon="7.0138">
        <ele>2194.35</ele>
        <time>2022-08-18T06:19:55Z</time>
      </trkpt>
      <trkpt lat="44.76472" lon="7.01418">
        <ele>2199.63</ele>
        <time>2022-08-18T06:20:34Z</time>
      </trkpt>
      <trkpt lat="44.76461" lon="7.01453">
        <ele>2203</ele>
        <time>2022-08-18T06:21:10Z</time>
      </trkpt>
      <trkpt lat="44.76451" lon="7.01483">
        <ele>2208.29</ele>
        <time>2022-08-18T06:21:46Z</time>
      </trkpt>
      <trkpt lat="44.7644" lon="7.01516">
        <ele>2210.21</ele>
        <time>2022-08-18T06:22:15Z</time>
      </trkpt>
      <trkpt lat="44.76428" lon="7.01546">
        <ele>2215.01</ele>
        <time>2022-08-18T06:22:49Z</time>
      </trkpt>
      <trkpt lat="44.76421" lon="7.01582">
        <ele>2217.9</ele>
        <time>2022-08-18T06:23:22Z</time>
      </trkpt>
      <trkpt lat="44.76406" lon="7.0162">
        <ele>2221.26</ele>
        <time>2022-08-18T06:23:56Z</time>
      </trkpt>
      <trkpt lat="44.76386" lon="7.0165">
        <ele>2222.22</ele>
        <time>2022-08-18T06:24:28Z</time>
      </trkpt>
      <trkpt lat="44.76374" lon="7.01681">
        <ele>2227.99</ele>
        <time>2022-08-18T06:25:06Z</time>
      </trkpt>
      <trkpt lat="44.76368" lon="7.01715">
        <ele>2235.68</ele>
        <time>2022-08-18T06:25:54Z</time>
      </trkpt>
      <trkpt lat="44.76356" lon="7.01754">
        <ele>2240.01</ele>
        <time>2022-08-18T06:26:34Z</time>
      </trkpt>
      <trkpt lat="44.76343" lon="7.01782">
        <ele>2244.33</ele>
        <time>2022-08-18T06:27:09Z</time>
      </trkpt>
      <trkpt lat="44.76325" lon="7.01808">
        <ele>2249.62</ele>
        <time>2022-08-18T06:27:43Z</time>
      </trkpt>
      <trkpt lat="44.76305" lon="7.01828">
        <ele>2253.95</ele>
        <time>2022-08-18T06:28:16Z</time>
      </trkpt>
      <trkpt lat="44.76281" lon="7.01847">
        <ele>2256.83</ele>
        <time>2022-08-18T06:28:54Z</time>
      </trkpt>
      <trkpt lat="44.7625" lon="7.019">
        <ele>2264.04</ele>
        <time>2022-08-18T06:30:07Z</time>
      </trkpt>
      <trkpt lat="44.7625" lon="7.01946">
        <ele>2265.96</ele>
        <time>2022-08-18T06:30:42Z</time>
      </trkpt>
      <trkpt lat="44.76265" lon="7.01998">
        <ele>2269.33</ele>
        <time>2022-08-18T06:31:39Z</time>
      </trkpt>
      <trkpt lat="44.76276" lon="7.02028">
        <ele>2273.66</ele>
        <time>2022-08-18T06:32:09Z</time>
      </trkpt>
      <trkpt lat="44.76284" lon="7.0207">
        <ele>2276.54</ele>
        <time>2022-08-18T06:32:41Z</time>
      </trkpt>
      <trkpt lat="44.76297" lon="7.02099">
        <ele>2278.46</ele>
        <time>2022-08-18T06:33:06Z</time>
      </trkpt>
      <trkpt lat="44.76309" lon="7.02135">
        <ele>2281.35</ele>
        <time>2022-08-18T06:33:40Z</time>
      </trkpt>
      <trkpt lat="44.76326" lon="7.02157">
        <ele>2284.23</ele>
        <time>2022-08-18T06:34:08Z</time>
      </trkpt>
      <trkpt lat="44.76342" lon="7.0218">
        <ele>2289.04</ele>
        <time>2022-08-18T06:34:40Z</time>
      </trkpt>
      <trkpt lat="44.76367" lon="7.022">
        <ele>2291.92</ele>
        <time>2022-08-18T06:35:19Z</time>
      </trkpt>
      <trkpt lat="44.76385" lon="7.02235">
        <ele>2294.8</ele>
        <time>2022-08-18T06:35:48Z</time>
      </trkpt>
      <trkpt lat="44.76401" lon="7.02259">
        <ele>2295.77</ele>
        <time>2022-08-18T06:36:09Z</time>
      </trkpt>
      <trkpt lat="44.76421" lon="7.02286">
        <ele>2298.17</ele>
        <time>2022-08-18T06:36:35Z</time>
      </trkpt>
      <trkpt lat="44.76445" lon="7.02314">
        <ele>2301.53</ele>
        <time>2022-08-18T06:37:07Z</time>
      </trkpt>
      <trkpt lat="44.76474" lon="7.02351">
        <ele>2299.61</ele>
        <time>2022-08-18T06:42:04Z</time>
      </trkpt>
      <trkpt lat="44.76497" lon="7.0237">
        <ele>2292.88</ele>
        <time>2022-08-18T06:43:39Z</time>
      </trkpt>
      <trkpt lat="44.7652" lon="7.02395">
        <ele>2285.67</ele>
        <time>2022-08-18T06:44:14Z</time>
      </trkpt>
      <trkpt lat="44.76542" lon="7.02413">
        <ele>2279.9</ele>
        <time>2022-08-18T06:44:43Z</time>
      </trkpt>
      <trkpt lat="44.76565" lon="7.02428">
        <ele>2276.06</ele>
        <time>2022-08-18T06:45:08Z</time>
      </trkpt>
      <trkpt lat="44.76584" lon="7.02455">
        <ele>2273.17</ele>
        <time>2022-08-18T06:45:33Z</time>
      </trkpt>
      <trkpt lat="44.76604" lon="7.0248">
        <ele>2267.89</ele>
        <time>2022-08-18T06:46:00Z</time>
      </trkpt>
      <trkpt lat="44.7663" lon="7.02509">
        <ele>2264.52</ele>
        <time>2022-08-18T06:46:32Z</time>
      </trkpt>
      <trkpt lat="44.76655" lon="7.02513">
        <ele>2259.72</ele>
        <time>2022-08-18T06:47:01Z</time>
      </trkpt>
      <trkpt lat="44.76662" lon="7.02548">
        <ele>2254.91</ele>
        <time>2022-08-18T06:47:34Z</time>
      </trkpt>
      <trkpt lat="44.76688" lon="7.02556">
        <ele>2244.33</ele>
        <time>2022-08-18T06:48:32Z</time>
      </trkpt>
      <trkpt lat="44.7671" lon="7.0256">
        <ele>2239.53</ele>
        <time>2022-08-18T06:49:00Z</time>
      </trkpt>
      <trkpt lat="44.76735" lon="7.02588">
        <ele>2233.76</ele>
        <time>2022-08-18T06:49:35Z</time>
      </trkpt>
      <trkpt lat="44.76753" lon="7.02617">
        <ele>2228.47</ele>
        <time>2022-08-18T06:50:42Z</time>
      </trkpt>
      <trkpt lat="44.76771" lon="7.02654">
        <ele>2222.22</ele>
        <time>2022-08-18T06:51:19Z</time>
      </trkpt>
      <trkpt lat="44.76778" lon="7.02685">
        <ele>2215.98</ele>
        <time>2022-08-18T06:51:50Z</time>
      </trkpt>
      <trkpt lat="44.76791" lon="7.02725">
        <ele>2206.84</ele>
        <time>2022-08-18T06:52:27Z</time>
      </trkpt>
      <trkpt lat="44.768" lon="7.02759">
        <ele>2200.59</ele>
        <time>2022-08-18T06:52:58Z</time>
      </trkpt>
      <trkpt lat="44.76809" lon="7.02788">
        <ele>2193.87</ele>
        <time>2022-08-18T06:53:27Z</time>
      </trkpt>
      <trkpt lat="44.76822" lon="7.02824">
        <ele>2187.62</ele>
        <time>2022-08-18T06:53:59Z</time>
      </trkpt>
      <trkpt lat="44.76829" lon="7.0286">
        <ele>2182.81</ele>
        <time>2022-08-18T06:54:25Z</time>
      </trkpt>
      <trkpt lat="44.76842" lon="7.02896">
        <ele>2178.97</ele>
        <time>2022-08-18T06:54:54Z</time>
      </trkpt>
      <trkpt lat="44.76853" lon="7.02926">
        <ele>2178.97</ele>
        <time>2022-08-18T06:55:23Z</time>
      </trkpt>
      <trkpt lat="44.76858" lon="7.02957">
        <ele>2181.37</ele>
        <time>2022-08-18T06:56:21Z</time>
      </trkpt>
      <trkpt lat="44.76894" lon="7.02996">
        <ele>2171.76</ele>
        <time>2022-08-18T06:57:58Z</time>
      </trkpt>
      <trkpt lat="44.76905" lon="7.03027">
        <ele>2164.55</ele>
        <time>2022-08-18T06:58:39Z</time>
      </trkpt>
      <trkpt lat="44.76922" lon="7.03055">
        <ele>2156.37</ele>
        <time>2022-08-18T06:59:14Z</time>
      </trkpt>
      <trkpt lat="44.76926" lon="7.03022">
        <ele>2148.2</ele>
        <time>2022-08-18T06:59:55Z</time>
      </trkpt>
      <trkpt lat="44.76949" lon="7.03031">
        <ele>2138.11</ele>
        <time>2022-08-18T07:00:40Z</time>
      </trkpt>
      <trkpt lat="44.76955" lon="7.03074">
        <ele>2135.71</ele>
        <time>2022-08-18T07:01:12Z</time>
      </trkpt>
      <trkpt lat="44.76977" lon="7.03059">
        <ele>2120.81</ele>
        <time>2022-08-18T07:02:26Z</time>
      </trkpt>
      <trkpt lat="44.77006" lon="7.03071">
        <ele>2104.46</ele>
        <time>2022-08-18T07:04:18Z</time>
      </trkpt>
      <trkpt lat="44.76999" lon="7.03111">
        <ele>2100.14</ele>
        <time>2022-08-18T07:04:46Z</time>
      </trkpt>
      <trkpt lat="44.77021" lon="7.03133">
        <ele>2079.47</ele>
        <time>2022-08-18T07:06:16Z</time>
      </trkpt>
      <trkpt lat="44.77047" lon="7.0311">
        <ele>2070.34</ele>
        <time>2022-08-18T07:07:00Z</time>
      </trkpt>
      <trkpt lat="44.77054" lon="7.03143">
        <ele>2058.8</ele>
        <time>2022-08-18T07:07:57Z</time>
      </trkpt>
      <trkpt lat="44.77093" lon="7.03121">
        <ele>2043.9</ele>
        <time>2022-08-18T07:09:13Z</time>
      </trkpt>
      <trkpt lat="44.77089" lon="7.03158">
        <ele>2038.13</ele>
        <time>2022-08-18T07:09:47Z</time>
      </trkpt>
      <trkpt lat="44.77072" lon="7.03188">
        <ele>2030.92</ele>
        <time>2022-08-18T07:10:25Z</time>
      </trkpt>
      <trkpt lat="44.77066" lon="7.03213">
        <ele>2017.46</ele>
        <time>2022-08-18T07:12:44Z</time>
      </trkpt>
      <trkpt lat="44.7709" lon="7.03207">
        <ele>2007.85</ele>
        <time>2022-08-18T07:13:34Z</time>
      </trkpt>
      <trkpt lat="44.7712" lon="7.03207">
        <ele>1989.1</ele>
        <time>2022-08-18T07:15:01Z</time>
      </trkpt>
      <trkpt lat="44.77135" lon="7.03178">
        <ele>1977.57</ele>
        <time>2022-08-18T07:15:49Z</time>
      </trkpt>
      <trkpt lat="44.77175" lon="7.03186">
        <ele>1965.55</ele>
        <time>2022-08-18T07:18:10Z</time>
      </trkpt>
      <trkpt lat="44.77201" lon="7.03193">
        <ele>1960.75</ele>
        <time>2022-08-18T07:18:37Z</time>
      </trkpt>
      <trkpt lat="44.77225" lon="7.03217">
        <ele>1957.38</ele>
        <time>2022-08-18T07:19:06Z</time>
      </trkpt>
      <trkpt lat="44.77252" lon="7.03235">
        <ele>1943.92</ele>
        <time>2022-08-18T07:20:09Z</time>
      </trkpt>
      <trkpt lat="44.77245" lon="7.0328">
        <ele>1926.14</ele>
        <time>2022-08-18T07:21:27Z</time>
      </trkpt>
      <trkpt lat="44.77228" lon="7.03321">
        <ele>1910.28</ele>
        <time>2022-08-18T07:22:42Z</time>
      </trkpt>
      <trkpt lat="44.77243" lon="7.03353">
        <ele>1898.74</ele>
        <time>2022-08-18T07:23:43Z</time>
      </trkpt>
      <trkpt lat="44.77255" lon="7.03395">
        <ele>1887.69</ele>
        <time>2022-08-18T07:24:46Z</time>
      </trkpt>
      <trkpt lat="44.77242" lon="7.03426">
        <ele>1881.44</ele>
        <time>2022-08-18T07:25:23Z</time>
      </trkpt>
      <trkpt lat="44.77228" lon="7.03451">
        <ele>1875.67</ele>
        <time>2022-08-18T07:25:48Z</time>
      </trkpt>
      <trkpt lat="44.77268" lon="7.03493">
        <ele>1862.21</ele>
        <time>2022-08-18T07:27:14Z</time>
      </trkpt>
      <trkpt lat="44.77267" lon="7.03533">
        <ele>1844.91</ele>
        <time>2022-08-18T07:28:42Z</time>
      </trkpt>
      <trkpt lat="44.7728" lon="7.03568">
        <ele>1829.05</ele>
        <time>2022-08-18T07:30:03Z</time>
      </trkpt>
      <trkpt lat="44.77249" lon="7.03608">
        <ele>1813.66</ele>
        <time>2022-08-18T07:31:18Z</time>
      </trkpt>
      <trkpt lat="44.77268" lon="7.03649">
        <ele>1794.92</ele>
        <time>2022-08-18T07:33:08Z</time>
      </trkpt>
      <trkpt lat="44.77251" lon="7.03682">
        <ele>1780.5</ele>
        <time>2022-08-18T07:34:35Z</time>
      </trkpt>
      <trkpt lat="44.772" lon="7.03685">
        <ele>1766.08</ele>
        <time>2022-08-18T07:36:00Z</time>
      </trkpt>
      <trkpt lat="44.77174" lon="7.03677">
        <ele>1758.39</ele>
        <time>2022-08-18T07:36:40Z</time>
      </trkpt>
      <trkpt lat="44.77198" lon="7.03691">
        <ele>1755.99</ele>
        <time>2022-08-18T07:37:05Z</time>
      </trkpt>
      <trkpt lat="44.77215" lon="7.03719">
        <ele>1753.1</ele>
        <time>2022-08-18T07:37:36Z</time>
      </trkpt>
      <trkpt lat="44.77161" lon="7.03723">
        <ele>1744.93</ele>
        <time>2022-08-18T07:40:42Z</time>
      </trkpt>
      <trkpt lat="44.77137" lon="7.03717">
        <ele>1742.05</ele>
        <time>2022-08-18T07:41:09Z</time>
      </trkpt>
      <trkpt lat="44.77101" lon="7.03716">
        <ele>1739.16</ele>
        <time>2022-08-18T07:41:42Z</time>
      </trkpt>
      <trkpt lat="44.77074" lon="7.03751">
        <ele>1736.28</ele>
        <time>2022-08-18T07:42:16Z</time>
      </trkpt>
      <trkpt lat="44.77045" lon="7.0378">
        <ele>1733.39</ele>
        <time>2022-08-18T07:42:50Z</time>
      </trkpt>
      <trkpt lat="44.77024" lon="7.03801">
        <ele>1732.43</ele>
        <time>2022-08-18T07:43:12Z</time>
      </trkpt>
      <trkpt lat="44.76989" lon="7.03812">
        <ele>1729.55</ele>
        <time>2022-08-18T07:43:44Z</time>
      </trkpt>
      <trkpt lat="44.76946" lon="7.03822">
        <ele>1727.15</ele>
        <time>2022-08-18T07:44:21Z</time>
      </trkpt>
      <trkpt lat="44.76906" lon="7.03832">
        <ele>1724.74</ele>
        <time>2022-08-18T07:44:54Z</time>
      </trkpt>
      <trkpt lat="44.76878" lon="7.03836">
        <ele>1724.26</ele>
        <time>2022-08-18T07:45:17Z</time>
      </trkpt>
      <trkpt lat="44.76833" lon="7.03834">
        <ele>1722.34</ele>
        <time>2022-08-18T07:45:55Z</time>
      </trkpt>
      <trkpt lat="44.76806" lon="7.03833">
        <ele>1721.86</ele>
        <time>2022-08-18T07:46:16Z</time>
      </trkpt>
      <trkpt lat="44.76765" lon="7.03838">
        <ele>1720.9</ele>
        <time>2022-08-18T07:46:50Z</time>
      </trkpt>
      <trkpt lat="44.76722" lon="7.0384">
        <ele>1720.42</ele>
        <time>2022-08-18T07:47:25Z</time>
      </trkpt>
      <trkpt lat="44.76699" lon="7.03836">
        <ele>1721.86</ele>
        <time>2022-08-18T07:47:44Z</time>
      </trkpt>
      <trkpt lat="44.76659" lon="7.0383">
        <ele>1723.3</ele>
        <time>2022-08-18T07:48:20Z</time>
      </trkpt>
      <trkpt lat="44.76616" lon="7.03819">
        <ele>1724.26</ele>
        <time>2022-08-18T07:48:57Z</time>
      </trkpt>
      <trkpt lat="44.76588" lon="7.03803">
        <ele>1724.26</ele>
        <time>2022-08-18T07:49:21Z</time>
      </trkpt>
      <trkpt lat="44.76549" lon="7.03796">
        <ele>1723.78</ele>
        <time>2022-08-18T07:49:53Z</time>
      </trkpt>
      <trkpt lat="44.76523" lon="7.03799">
        <ele>1723.78</ele>
        <time>2022-08-18T07:50:15Z</time>
      </trkpt>
      <trkpt lat="44.76499" lon="7.03798">
        <ele>1724.26</ele>
        <time>2022-08-18T07:50:35Z</time>
      </trkpt>
      <trkpt lat="44.76475" lon="7.03803">
        <ele>1723.78</ele>
        <time>2022-08-18T07:50:54Z</time>
      </trkpt>
      <trkpt lat="44.76452" lon="7.03807">
        <ele>1723.78</ele>
        <time>2022-08-18T07:51:14Z</time>
      </trkpt>
      <trkpt lat="44.7642" lon="7.0381">
        <ele>1724.26</ele>
        <time>2022-08-18T07:51:41Z</time>
      </trkpt>
      <trkpt lat="44.76383" lon="7.03833">
        <ele>1724.74</ele>
        <time>2022-08-18T07:52:15Z</time>
      </trkpt>
      <trkpt lat="44.76347" lon="7.0386">
        <ele>1725.7</ele>
        <time>2022-08-18T07:52:50Z</time>
      </trkpt>
      <trkpt lat="44.76324" lon="7.03866">
        <ele>1727.15</ele>
        <time>2022-08-18T07:53:09Z</time>
      </trkpt>
      <trkpt lat="44.76282" lon="7.03866">
        <ele>1728.11</ele>
        <time>2022-08-18T07:53:46Z</time>
      </trkpt>
      <trkpt lat="44.76238" lon="7.03861">
        <ele>1729.07</ele>
        <time>2022-08-18T07:54:24Z</time>
      </trkpt>
      <trkpt lat="44.76199" lon="7.03848">
        <ele>1729.07</ele>
        <time>2022-08-18T07:54:57Z</time>
      </trkpt>
      <trkpt lat="44.76177" lon="7.03834">
        <ele>1729.07</ele>
        <time>2022-08-18T07:55:16Z</time>
      </trkpt>
      <trkpt lat="44.76141" lon="7.03837">
        <ele>1729.07</ele>
        <time>2022-08-18T07:55:46Z</time>
      </trkpt>
      <trkpt lat="44.76114" lon="7.03829">
        <ele>1729.55</ele>
        <time>2022-08-18T07:56:09Z</time>
      </trkpt>
      <trkpt lat="44.76075" lon="7.03825">
        <ele>1730.51</ele>
        <time>2022-08-18T07:56:42Z</time>
      </trkpt>
      <trkpt lat="44.76051" lon="7.03823">
        <ele>1730.51</ele>
        <time>2022-08-18T07:57:02Z</time>
      </trkpt>
      <trkpt lat="44.76013" lon="7.03815">
        <ele>1731.95</ele>
        <time>2022-08-18T07:57:37Z</time>
      </trkpt>
      <trkpt lat="44.75976" lon="7.03811">
        <ele>1732.91</ele>
        <time>2022-08-18T07:58:10Z</time>
      </trkpt>
      <trkpt lat="44.75935" lon="7.03808">
        <ele>1734.36</ele>
        <time>2022-08-18T07:58:46Z</time>
      </trkpt>
      <trkpt lat="44.75894" lon="7.03825">
        <ele>1734.36</ele>
        <time>2022-08-18T07:59:21Z</time>
      </trkpt>
      <trkpt lat="44.75874" lon="7.03839">
        <ele>1734.36</ele>
        <time>2022-08-18T07:59:39Z</time>
      </trkpt>
      <trkpt lat="44.75836" lon="7.03859">
        <ele>1735.8</ele>
        <time>2022-08-18T08:00:14Z</time>
      </trkpt>
      <trkpt lat="44.75799" lon="7.03868">
        <ele>1738.2</ele>
        <time>2022-08-18T08:00:48Z</time>
      </trkpt>
      <trkpt lat="44.75775" lon="7.03876">
        <ele>1738.68</ele>
        <time>2022-08-18T08:01:11Z</time>
      </trkpt>
      <trkpt lat="44.75749" lon="7.03888">
        <ele>1740.6</ele>
        <time>2022-08-18T08:01:37Z</time>
      </trkpt>
      <trkpt lat="44.75712" lon="7.03899">
        <ele>1741.08</ele>
        <time>2022-08-18T08:02:10Z</time>
      </trkpt>
      <trkpt lat="44.75678" lon="7.03916">
        <ele>1742.05</ele>
        <time>2022-08-18T08:02:42Z</time>
      </trkpt>
      <trkpt lat="44.7564" lon="7.03929">
        <ele>1743.49</ele>
        <time>2022-08-18T08:03:16Z</time>
      </trkpt>
      <trkpt lat="44.75604" lon="7.03934">
        <ele>1745.41</ele>
        <time>2022-08-18T08:03:49Z</time>
      </trkpt>
      <trkpt lat="44.75578" lon="7.03937">
        <ele>1745.89</ele>
        <time>2022-08-18T08:04:11Z</time>
      </trkpt>
      <trkpt lat="44.75542" lon="7.03925">
        <ele>1746.85</ele>
        <time>2022-08-18T08:04:43Z</time>
      </trkpt>
      <trkpt lat="44.75503" lon="7.03929">
        <ele>1747.81</ele>
        <time>2022-08-18T08:05:17Z</time>
      </trkpt>
      <trkpt lat="44.75474" lon="7.03928">
        <ele>1747.81</ele>
        <time>2022-08-18T08:05:42Z</time>
      </trkpt>
      <trkpt lat="44.75446" lon="7.03921">
        <ele>1748.29</ele>
        <time>2022-08-18T08:06:07Z</time>
      </trkpt>
      <trkpt lat="44.75418" lon="7.03913">
        <ele>1748.29</ele>
        <time>2022-08-18T08:06:31Z</time>
      </trkpt>
      <trkpt lat="44.75384" lon="7.03897">
        <ele>1748.29</ele>
        <time>2022-08-18T08:07:03Z</time>
      </trkpt>
      <trkpt lat="44.75357" lon="7.03885">
        <ele>1748.78</ele>
        <time>2022-08-18T08:07:30Z</time>
      </trkpt>
      <trkpt lat="44.75316" lon="7.03891">
        <ele>1748.78</ele>
        <time>2022-08-18T08:11:20Z</time>
      </trkpt>
      <trkpt lat="44.75284" lon="7.03899">
        <ele>1746.85</ele>
        <time>2022-08-18T08:12:16Z</time>
      </trkpt>
      <trkpt lat="44.75247" lon="7.0392">
        <ele>1747.81</ele>
        <time>2022-08-18T08:13:10Z</time>
      </trkpt>
      <trkpt lat="44.75214" lon="7.03952">
        <ele>1748.29</ele>
        <time>2022-08-18T08:13:44Z</time>
      </trkpt>
      <trkpt lat="44.75193" lon="7.03976">
        <ele>1748.78</ele>
        <time>2022-08-18T08:14:09Z</time>
      </trkpt>
      <trkpt lat="44.75162" lon="7.03982">
        <ele>1749.26</ele>
        <time>2022-08-18T08:14:40Z</time>
      </trkpt>
      <trkpt lat="44.75133" lon="7.04001">
        <ele>1750.22</ele>
        <time>2022-08-18T08:15:10Z</time>
      </trkpt>
      <trkpt lat="44.7512" lon="7.04032">
        <ele>1750.22</ele>
        <time>2022-08-18T08:15:36Z</time>
      </trkpt>
      <trkpt lat="44.75112" lon="7.04061">
        <ele>1751.66</ele>
        <time>2022-08-18T08:15:58Z</time>
      </trkpt>
      <trkpt lat="44.75093" lon="7.0409">
        <ele>1753.1</ele>
        <time>2022-08-18T08:16:25Z</time>
      </trkpt>
      <trkpt lat="44.75067" lon="7.04092">
        <ele>1754.06</ele>
        <time>2022-08-18T08:17:00Z</time>
      </trkpt>
      <trkpt lat="44.75009" lon="7.04095">
        <ele>1756.47</ele>
        <time>2022-08-18T08:18:40Z</time>
      </trkpt>
      <trkpt lat="44.74977" lon="7.04096">
        <ele>1757.43</ele>
        <time>2022-08-18T08:19:10Z</time>
      </trkpt>
      <trkpt lat="44.74941" lon="7.04084">
        <ele>1761.27</ele>
        <time>2022-08-18T08:19:43Z</time>
      </trkpt>
      <trkpt lat="44.74917" lon="7.04064">
        <ele>1764.16</ele>
        <time>2022-08-18T08:20:14Z</time>
      </trkpt>
      <trkpt lat="44.74881" lon="7.0406">
        <ele>1766.56</ele>
        <time>2022-08-18T08:20:48Z</time>
      </trkpt>
      <trkpt lat="44.74852" lon="7.04051">
        <ele>1769.92</ele>
        <time>2022-08-18T08:21:19Z</time>
      </trkpt>
      <trkpt lat="44.74827" lon="7.04064">
        <ele>1772.33</ele>
        <time>2022-08-18T08:21:50Z</time>
      </trkpt>
      <trkpt lat="44.74804" lon="7.04063">
        <ele>1777.13</ele>
        <time>2022-08-18T08:22:23Z</time>
      </trkpt>
      <trkpt lat="44.74779" lon="7.04063">
        <ele>1780.02</ele>
        <time>2022-08-18T08:22:53Z</time>
      </trkpt>
      <trkpt lat="44.74753" lon="7.04068">
        <ele>1782.9</ele>
        <time>2022-08-18T08:23:21Z</time>
      </trkpt>
      <trkpt lat="44.74724" lon="7.0405">
        <ele>1787.23</ele>
        <time>2022-08-18T08:23:57Z</time>
      </trkpt>
      <trkpt lat="44.74702" lon="7.04037">
        <ele>1788.19</ele>
        <time>2022-08-18T08:24:20Z</time>
      </trkpt>
      <trkpt lat="44.74677" lon="7.04025">
        <ele>1791.07</ele>
        <time>2022-08-18T08:24:48Z</time>
      </trkpt>
      <trkpt lat="44.74651" lon="7.04003">
        <ele>1795.88</ele>
        <time>2022-08-18T08:25:28Z</time>
      </trkpt>
      <trkpt lat="44.74625" lon="7.04004">
        <ele>1802.13</ele>
        <time>2022-08-18T08:26:13Z</time>
      </trkpt>
      <trkpt lat="44.74598" lon="7.03958">
        <ele>1817.51</ele>
        <time>2022-08-18T08:28:09Z</time>
      </trkpt>
      <trkpt lat="44.74559" lon="7.03957">
        <ele>1834.81</ele>
        <time>2022-08-18T08:29:37Z</time>
      </trkpt>
      <trkpt lat="44.74547" lon="7.03985">
        <ele>1842.02</ele>
        <time>2022-08-18T08:30:15Z</time>
      </trkpt>
      <trkpt lat="44.74511" lon="7.03967">
        <ele>1857.89</ele>
        <time>2022-08-18T08:31:45Z</time>
      </trkpt>
      <trkpt lat="44.74474" lon="7.03941">
        <ele>1872.3</ele>
        <time>2022-08-18T08:33:16Z</time>
      </trkpt>
      <trkpt lat="44.74454" lon="7.03923">
        <ele>1880.96</ele>
        <time>2022-08-18T08:34:08Z</time>
      </trkpt>
      <trkpt lat="44.74427" lon="7.03954">
        <ele>1897.78</ele>
        <time>2022-08-18T08:36:09Z</time>
      </trkpt>
      <trkpt lat="44.74388" lon="7.0396">
        <ele>1916.04</ele>
        <time>2022-08-18T08:38:11Z</time>
      </trkpt>
      <trkpt lat="44.74352" lon="7.0397">
        <ele>1931.43</ele>
        <time>2022-08-18T08:39:53Z</time>
      </trkpt>
      <trkpt lat="44.74315" lon="7.03971">
        <ele>1946.33</ele>
        <time>2022-08-18T08:41:47Z</time>
      </trkpt>
      <trkpt lat="44.74287" lon="7.04004">
        <ele>1963.15</ele>
        <time>2022-08-18T08:43:58Z</time>
      </trkpt>
      <trkpt lat="44.74264" lon="7.04006">
        <ele>1969.4</ele>
        <time>2022-08-18T08:44:41Z</time>
      </trkpt>
      <trkpt lat="44.74235" lon="7.03997">
        <ele>1974.2</ele>
        <time>2022-08-18T08:45:21Z</time>
      </trkpt>
      <trkpt lat="44.74212" lon="7.03975">
        <ele>1979.01</ele>
        <time>2022-08-18T08:46:05Z</time>
      </trkpt>
      <trkpt lat="44.74185" lon="7.03979">
        <ele>1984.3</ele>
        <time>2022-08-18T08:46:46Z</time>
      </trkpt>
      <trkpt lat="44.74158" lon="7.03991">
        <ele>1990.07</ele>
        <time>2022-08-18T08:47:25Z</time>
      </trkpt>
      <trkpt lat="44.74135" lon="7.03998">
        <ele>1999.2</ele>
        <time>2022-08-18T08:48:20Z</time>
      </trkpt>
      <trkpt lat="44.74111" lon="7.03998">
        <ele>2003.52</ele>
        <time>2022-08-18T08:48:48Z</time>
      </trkpt>
      <trkpt lat="44.74065" lon="7.03993">
        <ele>2009.77</ele>
        <time>2022-08-18T08:49:45Z</time>
      </trkpt>
      <trkpt lat="44.74033" lon="7.0399">
        <ele>2014.58</ele>
        <time>2022-08-18T08:50:25Z</time>
      </trkpt>
      <trkpt lat="44.74005" lon="7.03983">
        <ele>2021.31</ele>
        <time>2022-08-18T08:51:04Z</time>
      </trkpt>
      <trkpt lat="44.73982" lon="7.03971">
        <ele>2025.64</ele>
        <time>2022-08-18T08:51:41Z</time>
      </trkpt>
      <trkpt lat="44.73957" lon="7.03959">
        <ele>2030.92</ele>
        <time>2022-08-18T08:52:21Z</time>
      </trkpt>
      <trkpt lat="44.73933" lon="7.03959">
        <ele>2036.21</ele>
        <time>2022-08-18T08:52:56Z</time>
      </trkpt>
      <trkpt lat="44.73912" lon="7.0397">
        <ele>2041.02</ele>
        <time>2022-08-18T08:53:28Z</time>
      </trkpt>
      <trkpt lat="44.73878" lon="7.0398">
        <ele>2044.86</ele>
        <time>2022-08-18T08:54:10Z</time>
      </trkpt>
      <trkpt lat="44.73847" lon="7.04003">
        <ele>2047.75</ele>
        <time>2022-08-18T08:54:47Z</time>
      </trkpt>
      <trkpt lat="44.73822" lon="7.04012">
        <ele>2051.11</ele>
        <time>2022-08-18T08:55:15Z</time>
      </trkpt>
      <trkpt lat="44.73791" lon="7.04029">
        <ele>2054.47</ele>
        <time>2022-08-18T08:55:52Z</time>
      </trkpt>
      <trkpt lat="44.73771" lon="7.04054">
        <ele>2059.28</ele>
        <time>2022-08-18T08:56:32Z</time>
      </trkpt>
      <trkpt lat="44.73756" lon="7.04088">
        <ele>2059.28</ele>
        <time>2022-08-18T08:57:03Z</time>
      </trkpt>
      <trkpt lat="44.73726" lon="7.04095">
        <ele>2060.72</ele>
        <time>2022-08-18T09:00:24Z</time>
      </trkpt>
      <trkpt lat="44.73696" lon="7.04112">
        <ele>2061.2</ele>
        <time>2022-08-18T09:00:57Z</time>
      </trkpt>
      <trkpt lat="44.7367" lon="7.04098">
        <ele>2062.17</ele>
        <time>2022-08-18T09:01:38Z</time>
      </trkpt>
      <trkpt lat="44.7364" lon="7.04089">
        <ele>2066.49</ele>
        <time>2022-08-18T09:02:09Z</time>
      </trkpt>
      <trkpt lat="44.73615" lon="7.04073">
        <ele>2070.82</ele>
        <time>2022-08-18T09:02:46Z</time>
      </trkpt>
      <trkpt lat="44.73586" lon="7.04054">
        <ele>2075.14</ele>
        <time>2022-08-18T09:03:23Z</time>
      </trkpt>
      <trkpt lat="44.73559" lon="7.04043">
        <ele>2078.51</ele>
        <time>2022-08-18T09:03:57Z</time>
      </trkpt>
      <trkpt lat="44.73539" lon="7.04029">
        <ele>2082.35</ele>
        <time>2022-08-18T09:04:25Z</time>
      </trkpt>
      <trkpt lat="44.73515" lon="7.04013">
        <ele>2086.68</ele>
        <time>2022-08-18T09:05:05Z</time>
      </trkpt>
      <trkpt lat="44.73491" lon="7.04016">
        <ele>2088.12</ele>
        <time>2022-08-18T09:05:32Z</time>
      </trkpt>
      <trkpt lat="44.73468" lon="7.04018">
        <ele>2088.6</ele>
        <time>2022-08-18T09:05:59Z</time>
      </trkpt>
      <trkpt lat="44.73437" lon="7.0404">
        <ele>2104.46</ele>
        <time>2022-08-18T09:08:02Z</time>
      </trkpt>
      <trkpt lat="44.73416" lon="7.04024">
        <ele>2109.75</ele>
        <time>2022-08-18T09:08:43Z</time>
      </trkpt>
      <trkpt lat="44.73396" lon="7.04012">
        <ele>2118.4</ele>
        <time>2022-08-18T09:09:40Z</time>
      </trkpt>
      <trkpt lat="44.73369" lon="7.04007">
        <ele>2123.21</ele>
        <time>2022-08-18T09:10:19Z</time>
      </trkpt>
      <trkpt lat="44.73345" lon="7.03993">
        <ele>2128.5</ele>
        <time>2022-08-18T09:10:57Z</time>
      </trkpt>
      <trkpt lat="44.73325" lon="7.03975">
        <ele>2135.23</ele>
        <time>2022-08-18T09:11:46Z</time>
      </trkpt>
      <trkpt lat="44.73301" lon="7.03963">
        <ele>2148.68</ele>
        <time>2022-08-18T09:13:32Z</time>
      </trkpt>
      <trkpt lat="44.7326" lon="7.0396">
        <ele>2161.18</ele>
        <time>2022-08-18T09:15:00Z</time>
      </trkpt>
      <trkpt lat="44.73255" lon="7.03996">
        <ele>2169.83</ele>
        <time>2022-08-18T09:16:02Z</time>
      </trkpt>
      <trkpt lat="44.73226" lon="7.04018">
        <ele>2182.81</ele>
        <time>2022-08-18T09:17:39Z</time>
      </trkpt>
      <trkpt lat="44.73207" lon="7.03999">
        <ele>2187.14</ele>
        <time>2022-08-18T09:18:17Z</time>
      </trkpt>
      <trkpt lat="44.73183" lon="7.03995">
        <ele>2195.31</ele>
        <time>2022-08-18T09:19:19Z</time>
      </trkpt>
      <trkpt lat="44.73161" lon="7.04008">
        <ele>2203.96</ele>
        <time>2022-08-18T09:20:22Z</time>
      </trkpt>
      <trkpt lat="44.73139" lon="7.04016">
        <ele>2210.69</ele>
        <time>2022-08-18T09:21:13Z</time>
      </trkpt>
      <trkpt lat="44.73118" lon="7.04029">
        <ele>2217.9</ele>
        <time>2022-08-18T09:22:00Z</time>
      </trkpt>
      <trkpt lat="44.73095" lon="7.04036">
        <ele>2224.15</ele>
        <time>2022-08-18T09:22:51Z</time>
      </trkpt>
      <trkpt lat="44.7307" lon="7.04042">
        <ele>2232.8</ele>
        <time>2022-08-18T09:23:51Z</time>
      </trkpt>
      <trkpt lat="44.73023" lon="7.04071">
        <ele>2246.26</ele>
        <time>2022-08-18T09:25:30Z</time>
      </trkpt>
      <trkpt lat="44.73001" lon="7.04084">
        <ele>2251.06</ele>
        <time>2022-08-18T09:26:07Z</time>
      </trkpt>
      <trkpt lat="44.72978" lon="7.04091">
        <ele>2255.39</ele>
        <time>2022-08-18T09:26:44Z</time>
      </trkpt>
      <trkpt lat="44.72952" lon="7.04104">
        <ele>2263.56</ele>
        <time>2022-08-18T09:27:43Z</time>
      </trkpt>
      <trkpt lat="44.72929" lon="7.04111">
        <ele>2271.25</ele>
        <time>2022-08-18T09:28:45Z</time>
      </trkpt>
      <trkpt lat="44.72949" lon="7.04145">
        <ele>2282.79</ele>
        <time>2022-08-18T09:30:23Z</time>
      </trkpt>
      <trkpt lat="44.72974" lon="7.04164">
        <ele>2288.56</ele>
        <time>2022-08-18T09:31:05Z</time>
      </trkpt>
      <trkpt lat="44.72998" lon="7.04179">
        <ele>2293.36</ele>
        <time>2022-08-18T09:31:43Z</time>
      </trkpt>
      <trkpt lat="44.72985" lon="7.04206">
        <ele>2299.13</ele>
        <time>2022-08-18T09:32:19Z</time>
      </trkpt>
      <trkpt lat="44.72969" lon="7.04229">
        <ele>2303.94</ele>
        <time>2022-08-18T09:32:59Z</time>
      </trkpt>
      <trkpt lat="44.72957" lon="7.04256">
        <ele>2313.55</ele>
        <time>2022-08-18T09:34:01Z</time>
      </trkpt>
      <trkpt lat="44.72923" lon="7.04293">
        <ele>2330.85</ele>
        <time>2022-08-18T09:36:05Z</time>
      </trkpt>
      <trkpt lat="44.72903" lon="7.0431">
        <ele>2338.54</ele>
        <time>2022-08-18T09:37:04Z</time>
      </trkpt>
      <trkpt lat="44.72864" lon="7.04339">
        <ele>2359.21</ele>
        <time>2022-08-18T09:39:29Z</time>
      </trkpt>
      <trkpt lat="44.72846" lon="7.04365">
        <ele>2363.54</ele>
        <time>2022-08-18T09:40:07Z</time>
      </trkpt>
      <trkpt lat="44.7285" lon="7.04398">
        <ele>2366.42</ele>
        <time>2022-08-18T09:40:46Z</time>
      </trkpt>
      <trkpt lat="44.72845" lon="7.04432">
        <ele>2367.86</ele>
        <time>2022-08-18T09:41:23Z</time>
      </trkpt>
      <trkpt lat="44.72844" lon="7.04471">
        <ele>2370.27</ele>
        <time>2022-08-18T09:42:02Z</time>
      </trkpt>
      <trkpt lat="44.72828" lon="7.04507">
        <ele>2370.75</ele>
        <time>2022-08-18T09:42:42Z</time>
      </trkpt>
      <trkpt lat="44.72817" lon="7.04541">
        <ele>2369.79</ele>
        <time>2022-08-18T09:43:14Z</time>
      </trkpt>
      <trkpt lat="44.72794" lon="7.04555">
        <ele>2286.63</ele>
        <time>2022-08-19T05:54:03Z</time>
      </trkpt>
      <trkpt lat="44.72769" lon="7.04564">
        <ele>2290.96</ele>
        <time>2022-08-19T05:54:32Z</time>
      </trkpt>
      <trkpt lat="44.7274" lon="7.04512">
        <ele>2291.44</ele>
        <time>2022-08-19T05:56:04Z</time>
      </trkpt>
      <trkpt lat="44.72747" lon="7.04481">
        <ele>2286.15</ele>
        <time>2022-08-19T05:56:35Z</time>
      </trkpt>
      <trkpt lat="44.72742" lon="7.04442">
        <ele>2277.5</ele>
        <time>2022-08-19T05:57:30Z</time>
      </trkpt>
      <trkpt lat="44.72685" lon="7.0443">
        <ele>2285.19</ele>
        <time>2022-08-19T05:58:45Z</time>
      </trkpt>
      <trkpt lat="44.72658" lon="7.04423">
        <ele>2287.59</ele>
        <time>2022-08-19T05:59:14Z</time>
      </trkpt>
      <trkpt lat="44.72632" lon="7.04434">
        <ele>2292.88</ele>
        <time>2022-08-19T05:59:43Z</time>
      </trkpt>
      <trkpt lat="44.72603" lon="7.04431">
        <ele>2300.09</ele>
        <time>2022-08-19T06:00:23Z</time>
      </trkpt>
      <trkpt lat="44.72589" lon="7.04407">
        <ele>2307.3</ele>
        <time>2022-08-19T06:01:03Z</time>
      </trkpt>
      <trkpt lat="44.72567" lon="7.04409">
        <ele>2314.03</ele>
        <time>2022-08-19T06:01:40Z</time>
      </trkpt>
      <trkpt lat="44.72547" lon="7.04424">
        <ele>2325.09</ele>
        <time>2022-08-19T06:03:11Z</time>
      </trkpt>
      <trkpt lat="44.7253" lon="7.04446">
        <ele>2330.37</ele>
        <time>2022-08-19T06:03:40Z</time>
      </trkpt>
      <trkpt lat="44.72508" lon="7.04468">
        <ele>2336.62</ele>
        <time>2022-08-19T06:04:21Z</time>
      </trkpt>
      <trkpt lat="44.72495" lon="7.04496">
        <ele>2346.72</ele>
        <time>2022-08-19T06:05:12Z</time>
      </trkpt>
      <trkpt lat="44.72483" lon="7.04533">
        <ele>2356.33</ele>
        <time>2022-08-19T06:06:03Z</time>
      </trkpt>
      <trkpt lat="44.72468" lon="7.04567">
        <ele>2362.1</ele>
        <time>2022-08-19T06:06:53Z</time>
      </trkpt>
      <trkpt lat="44.72449" lon="7.04591">
        <ele>2371.23</ele>
        <time>2022-08-19T06:08:04Z</time>
      </trkpt>
      <trkpt lat="44.72427" lon="7.04631">
        <ele>2401.03</ele>
        <time>2022-08-19T06:11:21Z</time>
      </trkpt>
      <trkpt lat="44.72404" lon="7.04663">
        <ele>2426.02</ele>
        <time>2022-08-19T06:15:59Z</time>
      </trkpt>
      <trkpt lat="44.72362" lon="7.04685">
        <ele>2451.5</ele>
        <time>2022-08-19T06:18:19Z</time>
      </trkpt>
      <trkpt lat="44.72321" lon="7.04707">
        <ele>2476.49</ele>
        <time>2022-08-19T06:20:43Z</time>
      </trkpt>
      <trkpt lat="44.72291" lon="7.04735">
        <ele>2496.68</ele>
        <time>2022-08-19T06:23:42Z</time>
      </trkpt>
      <trkpt lat="44.7226" lon="7.04739">
        <ele>2501.49</ele>
        <time>2022-08-19T06:24:26Z</time>
      </trkpt>
      <trkpt lat="44.72239" lon="7.04755">
        <ele>2504.85</ele>
        <time>2022-08-19T06:25:03Z</time>
      </trkpt>
      <trkpt lat="44.72196" lon="7.04778">
        <ele>2522.64</ele>
        <time>2022-08-19T06:26:50Z</time>
      </trkpt>
      <trkpt lat="44.72156" lon="7.04809">
        <ele>2535.61</ele>
        <time>2022-08-19T06:28:14Z</time>
      </trkpt>
      <trkpt lat="44.72134" lon="7.04829">
        <ele>2541.86</ele>
        <time>2022-08-19T06:29:16Z</time>
      </trkpt>
      <trkpt lat="44.72113" lon="7.04857">
        <ele>2546.19</ele>
        <time>2022-08-19T06:30:13Z</time>
      </trkpt>
      <trkpt lat="44.72091" lon="7.04878">
        <ele>2555.8</ele>
        <time>2022-08-19T06:31:26Z</time>
      </trkpt>
      <trkpt lat="44.72069" lon="7.04895">
        <ele>2565.42</ele>
        <time>2022-08-19T06:32:24Z</time>
      </trkpt>
      <trkpt lat="44.72048" lon="7.04919">
        <ele>2572.14</ele>
        <time>2022-08-19T06:33:12Z</time>
      </trkpt>
      <trkpt lat="44.7203" lon="7.04943">
        <ele>2576.95</ele>
        <time>2022-08-19T06:33:57Z</time>
      </trkpt>
      <trkpt lat="44.72013" lon="7.04968">
        <ele>2580.8</ele>
        <time>2022-08-19T06:34:34Z</time>
      </trkpt>
      <trkpt lat="44.72005" lon="7.05003">
        <ele>2583.2</ele>
        <time>2022-08-19T06:35:08Z</time>
      </trkpt>
      <trkpt lat="44.71988" lon="7.05034">
        <ele>2588.97</ele>
        <time>2022-08-19T06:36:04Z</time>
      </trkpt>
      <trkpt lat="44.71976" lon="7.05061">
        <ele>2595.7</ele>
        <time>2022-08-19T06:36:49Z</time>
      </trkpt>
      <trkpt lat="44.71963" lon="7.05094">
        <ele>2598.58</ele>
        <time>2022-08-19T06:37:32Z</time>
      </trkpt>
      <trkpt lat="44.71954" lon="7.05129">
        <ele>2605.31</ele>
        <time>2022-08-19T06:38:43Z</time>
      </trkpt>
      <trkpt lat="44.71947" lon="7.05164">
        <ele>2613.96</ele>
        <time>2022-08-19T06:39:45Z</time>
      </trkpt>
      <trkpt lat="44.71932" lon="7.05192">
        <ele>2620.69</ele>
        <time>2022-08-19T06:40:39Z</time>
      </trkpt>
      <trkpt lat="44.71916" lon="7.05216">
        <ele>2629.34</ele>
        <time>2022-08-19T06:41:37Z</time>
      </trkpt>
      <trkpt lat="44.71897" lon="7.05235">
        <ele>2638.96</ele>
        <time>2022-08-19T06:42:46Z</time>
      </trkpt>
      <trkpt lat="44.71882" lon="7.0526">
        <ele>2647.61</ele>
        <time>2022-08-19T06:43:53Z</time>
      </trkpt>
      <trkpt lat="44.7187" lon="7.05291">
        <ele>2656.26</ele>
        <time>2022-08-19T06:44:57Z</time>
      </trkpt>
      <trkpt lat="44.7188" lon="7.05339">
        <ele>2676.45</ele>
        <time>2022-08-19T06:47:55Z</time>
      </trkpt>
      <trkpt lat="44.719" lon="7.05357">
        <ele>2675.97</ele>
        <time>2022-08-19T06:48:47Z</time>
      </trkpt>
      <trkpt lat="44.71902" lon="7.05389">
        <ele>2686.54</ele>
        <time>2022-08-19T06:50:08Z</time>
      </trkpt>
      <trkpt lat="44.71886" lon="7.05428">
        <ele>2706.73</ele>
        <time>2022-08-19T06:53:00Z</time>
      </trkpt>
      <trkpt lat="44.71885" lon="7.0546">
        <ele>2715.86</ele>
        <time>2022-08-19T06:54:32Z</time>
      </trkpt>
      <trkpt lat="44.71856" lon="7.05501">
        <ele>2732.68</ele>
        <time>2022-08-19T06:56:57Z</time>
      </trkpt>
      <trkpt lat="44.71828" lon="7.0552">
        <ele>2737.97</ele>
        <time>2022-08-19T07:01:19Z</time>
      </trkpt>
      <trkpt lat="44.7179" lon="7.05564">
        <ele>2749.51</ele>
        <time>2022-08-19T07:02:54Z</time>
      </trkpt>
      <trkpt lat="44.71767" lon="7.05608">
        <ele>2758.64</ele>
        <time>2022-08-19T07:05:48Z</time>
      </trkpt>
      <trkpt lat="44.71764" lon="7.05654">
        <ele>2756.72</ele>
        <time>2022-08-19T07:06:35Z</time>
      </trkpt>
      <trkpt lat="44.71732" lon="7.05692">
        <ele>2771.62</ele>
        <time>2022-08-19T07:08:54Z</time>
      </trkpt>
      <trkpt lat="44.71696" lon="7.05723">
        <ele>2786.52</ele>
        <time>2022-08-19T07:11:11Z</time>
      </trkpt>
      <trkpt lat="44.71695" lon="7.05755">
        <ele>2796.13</ele>
        <time>2022-08-19T07:12:29Z</time>
      </trkpt>
      <trkpt lat="44.71684" lon="7.05784">
        <ele>2802.38</ele>
        <time>2022-08-19T07:13:40Z</time>
      </trkpt>
      <trkpt lat="44.71683" lon="7.05824">
        <ele>2811.51</ele>
        <time>2022-08-19T07:14:42Z</time>
      </trkpt>
      <trkpt lat="44.71664" lon="7.05844">
        <ele>2817.28</ele>
        <time>2022-08-19T07:15:37Z</time>
      </trkpt>
      <trkpt lat="44.71624" lon="7.05853">
        <ele>2829.3</ele>
        <time>2022-08-19T07:18:25Z</time>
      </trkpt>
      <trkpt lat="44.71602" lon="7.05838">
        <ele>2831.22</ele>
        <time>2022-08-19T07:20:09Z</time>
      </trkpt>
      <trkpt lat="44.71558" lon="7.05843">
        <ele>2837.95</ele>
        <time>2022-08-19T07:21:28Z</time>
      </trkpt>
      <trkpt lat="44.71536" lon="7.05831">
        <ele>2843.24</ele>
        <time>2022-08-19T07:22:18Z</time>
      </trkpt>
      <trkpt lat="44.71501" lon="7.05812">
        <ele>2861.02</ele>
        <time>2022-08-19T07:24:54Z</time>
      </trkpt>
      <trkpt lat="44.71478" lon="7.05816">
        <ele>2878.81</ele>
        <time>2022-08-19T07:31:32Z</time>
      </trkpt>
      <trkpt lat="44.71445" lon="7.05805">
        <ele>2867.75</ele>
        <time>2022-08-19T07:35:27Z</time>
      </trkpt>
      <trkpt lat="44.7142" lon="7.05778">
        <ele>2845.64</ele>
        <time>2022-08-19T07:38:14Z</time>
      </trkpt>
      <trkpt lat="44.71403" lon="7.05803">
        <ele>2839.39</ele>
        <time>2022-08-19T07:39:03Z</time>
      </trkpt>
      <trkpt lat="44.71379" lon="7.05809">
        <ele>2826.41</ele>
        <time>2022-08-19T07:40:50Z</time>
      </trkpt>
      <trkpt lat="44.71346" lon="7.05807">
        <ele>2798.05</ele>
        <time>2022-08-19T07:44:29Z</time>
      </trkpt>
      <trkpt lat="44.71349" lon="7.0585">
        <ele>2785.56</ele>
        <time>2022-08-19T07:46:44Z</time>
      </trkpt>
      <trkpt lat="44.71365" lon="7.05898">
        <ele>2793.25</ele>
        <time>2022-08-19T07:49:23Z</time>
      </trkpt>
      <trkpt lat="44.71364" lon="7.05931">
        <ele>2798.54</ele>
        <time>2022-08-19T07:50:02Z</time>
      </trkpt>
      <trkpt lat="44.71372" lon="7.05968">
        <ele>2808.63</ele>
        <time>2022-08-19T07:51:03Z</time>
      </trkpt>
      <trkpt lat="44.71375" lon="7.06007">
        <ele>2812.47</ele>
        <time>2022-08-19T07:51:38Z</time>
      </trkpt>
      <trkpt lat="44.71373" lon="7.06041">
        <ele>2818.24</ele>
        <time>2022-08-19T07:52:16Z</time>
      </trkpt>
      <trkpt lat="44.71372" lon="7.06074">
        <ele>2824.49</ele>
        <time>2022-08-19T07:53:03Z</time>
      </trkpt>
      <trkpt lat="44.71365" lon="7.06109">
        <ele>2831.7</ele>
        <time>2022-08-19T07:53:52Z</time>
      </trkpt>
      <trkpt lat="44.71354" lon="7.06141">
        <ele>2833.62</ele>
        <time>2022-08-19T07:54:52Z</time>
      </trkpt>
      <trkpt lat="44.71355" lon="7.06203">
        <ele>2845.16</ele>
        <time>2022-08-19T07:56:13Z</time>
      </trkpt>
      <trkpt lat="44.71359" lon="7.06237">
        <ele>2854.77</ele>
        <time>2022-08-19T07:57:16Z</time>
      </trkpt>
      <trkpt lat="44.71354" lon="7.06271">
        <ele>2862.94</ele>
        <time>2022-08-19T07:58:16Z</time>
      </trkpt>
      <trkpt lat="44.7135" lon="7.06307">
        <ele>2868.23</ele>
        <time>2022-08-19T07:59:02Z</time>
      </trkpt>
      <trkpt lat="44.71342" lon="7.06336">
        <ele>2871.6</ele>
        <time>2022-08-19T07:59:35Z</time>
      </trkpt>
      <trkpt lat="44.7133" lon="7.06369">
        <ele>2874.48</ele>
        <time>2022-08-19T08:00:09Z</time>
      </trkpt>
      <trkpt lat="44.71314" lon="7.06397">
        <ele>2877.36</ele>
        <time>2022-08-19T08:00:47Z</time>
      </trkpt>
      <trkpt lat="44.71292" lon="7.06421">
        <ele>2872.08</ele>
        <time>2022-08-19T08:01:44Z</time>
      </trkpt>
      <trkpt lat="44.71276" lon="7.06452">
        <ele>2873.52</ele>
        <time>2022-08-19T08:02:18Z</time>
      </trkpt>
      <trkpt lat="44.71254" lon="7.06469">
        <ele>2870.15</ele>
        <time>2022-08-19T08:02:49Z</time>
      </trkpt>
      <trkpt lat="44.71216" lon="7.06497">
        <ele>2876.88</ele>
        <time>2022-08-19T08:06:10Z</time>
      </trkpt>
      <trkpt lat="44.71209" lon="7.06542">
        <ele>2890.34</ele>
        <time>2022-08-19T08:07:49Z</time>
      </trkpt>
      <trkpt lat="44.71229" lon="7.0664">
        <ele>2882.17</ele>
        <time>2022-08-19T08:18:11Z</time>
      </trkpt>
      <trkpt lat="44.71218" lon="7.06694">
        <ele>2881.69</ele>
        <time>2022-08-19T08:18:32Z</time>
      </trkpt>
      <trkpt lat="44.71224" lon="7.06664">
        <ele>2883.61</ele>
        <time>2022-08-19T08:21:32Z</time>
      </trkpt>
      <trkpt lat="44.71209" lon="7.06693">
        <ele>2860.06</ele>
        <time>2022-08-19T08:24:38Z</time>
      </trkpt>
      <trkpt lat="44.71237" lon="7.06699">
        <ele>2845.16</ele>
        <time>2022-08-19T08:25:57Z</time>
      </trkpt>
      <trkpt lat="44.71241" lon="7.06725">
        <ele>2831.22</ele>
        <time>2022-08-19T08:27:31Z</time>
      </trkpt>
      <trkpt lat="44.71263" lon="7.06768">
        <ele>2817.76</ele>
        <time>2022-08-19T08:28:44Z</time>
      </trkpt>
      <trkpt lat="44.71286" lon="7.06776">
        <ele>2813.44</ele>
        <time>2022-08-19T08:29:17Z</time>
      </trkpt>
      <trkpt lat="44.71274" lon="7.06792">
        <ele>2809.59</ele>
        <time>2022-08-19T08:31:31Z</time>
      </trkpt>
      <trkpt lat="44.71248" lon="7.06814">
        <ele>2808.63</ele>
        <time>2022-08-19T08:33:35Z</time>
      </trkpt>
      <trkpt lat="44.71245" lon="7.06802">
        <ele>2800.46</ele>
        <time>2022-08-19T08:35:23Z</time>
      </trkpt>
      <trkpt lat="44.71265" lon="7.06839">
        <ele>2786.04</ele>
        <time>2022-08-19T08:36:37Z</time>
      </trkpt>
      <trkpt lat="44.71253" lon="7.06882">
        <ele>2764.89</ele>
        <time>2022-08-19T08:38:26Z</time>
      </trkpt>
      <trkpt lat="44.71233" lon="7.06921">
        <ele>2748.07</ele>
        <time>2022-08-19T08:40:13Z</time>
      </trkpt>
      <trkpt lat="44.71224" lon="7.06965">
        <ele>2731.72</ele>
        <time>2022-08-19T08:41:36Z</time>
      </trkpt>
      <trkpt lat="44.71205" lon="7.07023">
        <ele>2729.32</ele>
        <time>2022-08-19T08:42:56Z</time>
      </trkpt>
      <trkpt lat="44.71192" lon="7.07052">
        <ele>2727.4</ele>
        <time>2022-08-19T08:43:22Z</time>
      </trkpt>
      <trkpt lat="44.71175" lon="7.07074">
        <ele>2722.59</ele>
        <time>2022-08-19T08:43:51Z</time>
      </trkpt>
      <trkpt lat="44.71157" lon="7.07101">
        <ele>2721.63</ele>
        <time>2022-08-19T08:44:26Z</time>
      </trkpt>
      <trkpt lat="44.71137" lon="7.07159">
        <ele>2722.59</ele>
        <time>2022-08-19T08:45:27Z</time>
      </trkpt>
      <trkpt lat="44.71126" lon="7.07192">
        <ele>2723.07</ele>
        <time>2022-08-19T08:45:57Z</time>
      </trkpt>
      <trkpt lat="44.71105" lon="7.07214">
        <ele>2724.03</ele>
        <time>2022-08-19T08:46:34Z</time>
      </trkpt>
      <trkpt lat="44.7108" lon="7.07231">
        <ele>2719.71</ele>
        <time>2022-08-19T08:47:03Z</time>
      </trkpt>
      <trkpt lat="44.71052" lon="7.07244">
        <ele>2718.27</ele>
        <time>2022-08-19T08:47:37Z</time>
      </trkpt>
      <trkpt lat="44.71024" lon="7.07257">
        <ele>2711.54</ele>
        <time>2022-08-19T08:52:00Z</time>
      </trkpt>
      <trkpt lat="44.70996" lon="7.07244">
        <ele>2712.5</ele>
        <time>2022-08-19T08:52:33Z</time>
      </trkpt>
      <trkpt lat="44.70985" lon="7.07211">
        <ele>2712.02</ele>
        <time>2022-08-19T08:52:57Z</time>
      </trkpt>
      <trkpt lat="44.70973" lon="7.0718">
        <ele>2711.06</ele>
        <time>2022-08-19T08:53:21Z</time>
      </trkpt>
      <trkpt lat="44.70949" lon="7.07143">
        <ele>2707.21</ele>
        <time>2022-08-19T08:53:59Z</time>
      </trkpt>
      <trkpt lat="44.70934" lon="7.07115">
        <ele>2702.4</ele>
        <time>2022-08-19T08:54:29Z</time>
      </trkpt>
      <trkpt lat="44.70908" lon="7.07075">
        <ele>2686.06</ele>
        <time>2022-08-19T08:55:57Z</time>
      </trkpt>
      <trkpt lat="44.70883" lon="7.07077">
        <ele>2680.29</ele>
        <time>2022-08-19T08:56:37Z</time>
      </trkpt>
      <trkpt lat="44.70857" lon="7.07064">
        <ele>2673.08</ele>
        <time>2022-08-19T08:57:29Z</time>
      </trkpt>
      <trkpt lat="44.70838" lon="7.07088">
        <ele>2664.43</ele>
        <time>2022-08-19T08:58:19Z</time>
      </trkpt>
      <trkpt lat="44.70821" lon="7.07112">
        <ele>2657.7</ele>
        <time>2022-08-19T08:58:57Z</time>
      </trkpt>
      <trkpt lat="44.70812" lon="7.07143">
        <ele>2648.09</ele>
        <time>2022-08-19T08:59:47Z</time>
      </trkpt>
      <trkpt lat="44.70795" lon="7.07193">
        <ele>2631.75</ele>
        <time>2022-08-19T09:01:24Z</time>
      </trkpt>
      <trkpt lat="44.70787" lon="7.07223">
        <ele>2628.86</ele>
        <time>2022-08-19T09:01:50Z</time>
      </trkpt>
      <trkpt lat="44.70756" lon="7.07249">
        <ele>2612.04</ele>
        <time>2022-08-19T09:03:36Z</time>
      </trkpt>
      <trkpt lat="44.70736" lon="7.07281">
        <ele>2593.29</ele>
        <time>2022-08-19T09:05:20Z</time>
      </trkpt>
      <trkpt lat="44.70694" lon="7.07252">
        <ele>2595.7</ele>
        <time>2022-08-19T09:10:02Z</time>
      </trkpt>
      <trkpt lat="44.70674" lon="7.07232">
        <ele>2600.98</ele>
        <time>2022-08-19T09:10:45Z</time>
      </trkpt>
      <trkpt lat="44.70649" lon="7.07216">
        <ele>2606.75</ele>
        <time>2022-08-19T09:11:32Z</time>
      </trkpt>
      <trkpt lat="44.70625" lon="7.07211">
        <ele>2609.64</ele>
        <time>2022-08-19T09:12:15Z</time>
      </trkpt>
      <trkpt lat="44.70603" lon="7.07223">
        <ele>2606.27</ele>
        <time>2022-08-19T09:12:50Z</time>
      </trkpt>
      <trkpt lat="44.70586" lon="7.07248">
        <ele>2601.95</ele>
        <time>2022-08-19T09:13:47Z</time>
      </trkpt>
      <trkpt lat="44.70564" lon="7.07265">
        <ele>2600.02</ele>
        <time>2022-08-19T09:14:32Z</time>
      </trkpt>
      <trkpt lat="44.70519" lon="7.07276">
        <ele>2601.95</ele>
        <time>2022-08-19T09:15:36Z</time>
      </trkpt>
      <trkpt lat="44.70499" lon="7.07291">
        <ele>2599.06</ele>
        <time>2022-08-19T09:16:11Z</time>
      </trkpt>
      <trkpt lat="44.70474" lon="7.07299">
        <ele>2596.18</ele>
        <time>2022-08-19T09:16:50Z</time>
      </trkpt>
      <trkpt lat="44.70447" lon="7.07318">
        <ele>2591.37</ele>
        <time>2022-08-19T09:17:27Z</time>
      </trkpt>
      <trkpt lat="44.70425" lon="7.07333">
        <ele>2594.25</ele>
        <time>2022-08-19T09:17:59Z</time>
      </trkpt>
      <trkpt lat="44.70405" lon="7.0737">
        <ele>2576.95</ele>
        <time>2022-08-19T09:19:34Z</time>
      </trkpt>
      <trkpt lat="44.7036" lon="7.07391">
        <ele>2566.86</ele>
        <time>2022-08-19T09:20:54Z</time>
      </trkpt>
      <trkpt lat="44.70329" lon="7.07438">
        <ele>2558.69</ele>
        <time>2022-08-19T09:23:02Z</time>
      </trkpt>
      <trkpt lat="44.70324" lon="7.0747">
        <ele>2561.57</ele>
        <time>2022-08-19T09:23:46Z</time>
      </trkpt>
      <trkpt lat="44.70293" lon="7.07514">
        <ele>2562.05</ele>
        <time>2022-08-19T09:25:20Z</time>
      </trkpt>
      <trkpt lat="44.7027" lon="7.07537">
        <ele>2555.32</ele>
        <time>2022-08-19T09:26:26Z</time>
      </trkpt>
      <trkpt lat="44.70248" lon="7.07543">
        <ele>2552.44</ele>
        <time>2022-08-19T09:26:51Z</time>
      </trkpt>
      <trkpt lat="44.70231" lon="7.07569">
        <ele>2556.76</ele>
        <time>2022-08-19T09:27:25Z</time>
      </trkpt>
      <trkpt lat="44.70211" lon="7.07599">
        <ele>2549.07</ele>
        <time>2022-08-19T09:28:06Z</time>
      </trkpt>
      <trkpt lat="44.70179" lon="7.07635">
        <ele>2526.96</ele>
        <time>2022-08-19T09:30:21Z</time>
      </trkpt>
      <trkpt lat="44.70145" lon="7.07638">
        <ele>2545.71</ele>
        <time>2022-08-19T09:33:29Z</time>
      </trkpt>
      <trkpt lat="44.70128" lon="7.07663">
        <ele>2563.97</ele>
        <time>2022-08-19T09:36:19Z</time>
      </trkpt>
      <trkpt lat="44.70096" lon="7.07655">
        <ele>2588.01</ele>
        <time>2022-08-19T09:39:24Z</time>
      </trkpt>
      <trkpt lat="44.70076" lon="7.07684">
        <ele>2594.25</ele>
        <time>2022-08-19T09:40:21Z</time>
      </trkpt>
      <trkpt lat="44.70053" lon="7.07694">
        <ele>2605.79</ele>
        <time>2022-08-19T09:41:46Z</time>
      </trkpt>
      <trkpt lat="44.70021" lon="7.07701">
        <ele>2620.21</ele>
        <time>2022-08-19T09:43:46Z</time>
      </trkpt>
      <trkpt lat="44.69986" lon="7.07668">
        <ele>2630.79</ele>
        <time>2022-08-19T09:47:50Z</time>
      </trkpt>
      <trkpt lat="44.69952" lon="7.07624">
        <ele>2650.97</ele>
        <time>2022-08-19T09:50:18Z</time>
      </trkpt>
      <trkpt lat="44.69935" lon="7.07602">
        <ele>2662.99</ele>
        <time>2022-08-19T09:51:57Z</time>
      </trkpt>
      <trkpt lat="44.699" lon="7.076">
        <ele>2682.7</ele>
        <time>2022-08-19T09:54:24Z</time>
      </trkpt>
      <trkpt lat="44.6986" lon="7.07591">
        <ele>2700</ele>
        <time>2022-08-19T09:56:24Z</time>
      </trkpt>
      <trkpt lat="44.69836" lon="7.07614">
        <ele>2721.63</ele>
        <time>2022-08-19T09:58:46Z</time>
      </trkpt>
      <trkpt lat="44.69797" lon="7.07624">
        <ele>2733.17</ele>
        <time>2022-08-19T10:00:31Z</time>
      </trkpt>
      <trkpt lat="44.69771" lon="7.07636">
        <ele>2735.57</ele>
        <time>2022-08-19T10:01:10Z</time>
      </trkpt>
      <trkpt lat="44.69747" lon="7.07638">
        <ele>2742.78</ele>
        <time>2022-08-19T10:01:55Z</time>
      </trkpt>
      <trkpt lat="44.69699" lon="7.07617">
        <ele>2742.3</ele>
        <time>2022-08-19T10:03:26Z</time>
      </trkpt>
      <trkpt lat="44.69672" lon="7.07606">
        <ele>2739.41</ele>
        <time>2022-08-19T10:04:05Z</time>
      </trkpt>
      <trkpt lat="44.69663" lon="7.07633">
        <ele>2737.97</ele>
        <time>2022-08-19T10:13:17Z</time>
      </trkpt>
      <trkpt lat="44.69646" lon="7.07669">
        <ele>2738.45</ele>
        <time>2022-08-19T10:13:52Z</time>
      </trkpt>
      <trkpt lat="44.6964" lon="7.07705">
        <ele>2742.78</ele>
        <time>2022-08-19T10:14:30Z</time>
      </trkpt>
      <trkpt lat="44.69623" lon="7.07728">
        <ele>2740.86</ele>
        <time>2022-08-19T10:15:12Z</time>
      </trkpt>
      <trkpt lat="44.69582" lon="7.07754">
        <ele>2739.89</ele>
        <time>2022-08-19T10:17:11Z</time>
      </trkpt>
      <trkpt lat="44.69547" lon="7.07754">
        <ele>2731.72</ele>
        <time>2022-08-19T10:18:38Z</time>
      </trkpt>
      <trkpt lat="44.69548" lon="7.07788">
        <ele>2724.51</ele>
        <time>2022-08-19T10:19:18Z</time>
      </trkpt>
      <trkpt lat="44.69531" lon="7.07851">
        <ele>2721.15</ele>
        <time>2022-08-19T10:20:08Z</time>
      </trkpt>
      <trkpt lat="44.69516" lon="7.07881">
        <ele>2715.86</ele>
        <time>2022-08-19T10:20:38Z</time>
      </trkpt>
      <trkpt lat="44.69506" lon="7.07915">
        <ele>2713.46</ele>
        <time>2022-08-19T10:21:08Z</time>
      </trkpt>
      <trkpt lat="44.69485" lon="7.07932">
        <ele>2710.09</ele>
        <time>2022-08-19T10:21:44Z</time>
      </trkpt>
      <trkpt lat="44.69439" lon="7.07933">
        <ele>2702.4</ele>
        <time>2022-08-19T10:22:57Z</time>
      </trkpt>
      <trkpt lat="44.69412" lon="7.0793">
        <ele>2699.04</ele>
        <time>2022-08-19T10:23:25Z</time>
      </trkpt>
      <trkpt lat="44.69395" lon="7.07908">
        <ele>2695.67</ele>
        <time>2022-08-19T10:23:59Z</time>
      </trkpt>
      <trkpt lat="44.69372" lon="7.07884">
        <ele>2688.94</ele>
        <time>2022-08-19T10:24:41Z</time>
      </trkpt>
      <trkpt lat="44.69347" lon="7.079">
        <ele>2671.16</ele>
        <time>2022-08-19T10:26:16Z</time>
      </trkpt>
      <trkpt lat="44.69325" lon="7.07894">
        <ele>2661.55</ele>
        <time>2022-08-19T10:27:13Z</time>
      </trkpt>
      <trkpt lat="44.69309" lon="7.07922">
        <ele>2644.72</ele>
        <time>2022-08-19T10:29:10Z</time>
      </trkpt>
      <trkpt lat="44.69328" lon="7.07951">
        <ele>2629.34</ele>
        <time>2022-08-19T10:30:39Z</time>
      </trkpt>
      <trkpt lat="44.69337" lon="7.07989">
        <ele>2614.92</ele>
        <time>2022-08-19T10:32:00Z</time>
      </trkpt>
      <trkpt lat="44.69314" lon="7.07985">
        <ele>2608.67</ele>
        <time>2022-08-19T10:32:37Z</time>
      </trkpt>
      <trkpt lat="44.69329" lon="7.0801">
        <ele>2603.39</ele>
        <time>2022-08-19T10:33:14Z</time>
      </trkpt>
      <trkpt lat="44.69306" lon="7.08006">
        <ele>2594.74</ele>
        <time>2022-08-19T10:33:49Z</time>
      </trkpt>
      <trkpt lat="44.69285" lon="7.0806">
        <ele>2578.87</ele>
        <time>2022-08-19T10:35:26Z</time>
      </trkpt>
      <trkpt lat="44.69271" lon="7.08089">
        <ele>2575.51</ele>
        <time>2022-08-19T10:36:03Z</time>
      </trkpt>
      <trkpt lat="44.69257" lon="7.08115">
        <ele>2570.22</ele>
        <time>2022-08-19T10:36:41Z</time>
      </trkpt>
      <trkpt lat="44.69248" lon="7.08151">
        <ele>2563.01</ele>
        <time>2022-08-19T10:37:23Z</time>
      </trkpt>
      <trkpt lat="44.69246" lon="7.08184">
        <ele>2560.61</ele>
        <time>2022-08-19T10:37:55Z</time>
      </trkpt>
      <trkpt lat="44.69234" lon="7.08216">
        <ele>2564.93</ele>
        <time>2022-08-19T10:38:37Z</time>
      </trkpt>
      <trkpt lat="44.6922" lon="7.08253">
        <ele>2553.88</ele>
        <time>2022-08-19T10:42:16Z</time>
      </trkpt>
      <trkpt lat="44.69228" lon="7.08286">
        <ele>2546.19</ele>
        <time>2022-08-19T10:48:33Z</time>
      </trkpt>
      <trkpt lat="44.69245" lon="7.08308">
        <ele>2542.34</ele>
        <time>2022-08-19T11:19:25Z</time>
      </trkpt>
      <trkpt lat="44.69219" lon="7.0832">
        <ele>2531.29</ele>
        <time>2022-08-19T11:20:25Z</time>
      </trkpt>
      <trkpt lat="44.69234" lon="7.08348">
        <ele>2524.56</ele>
        <time>2022-08-19T11:21:05Z</time>
      </trkpt>
      <trkpt lat="44.69203" lon="7.08375">
        <ele>2511.58</ele>
        <time>2022-08-19T11:22:21Z</time>
      </trkpt>
      <trkpt lat="44.69185" lon="7.08402">
        <ele>2506.29</ele>
        <time>2022-08-19T11:22:54Z</time>
      </trkpt>
      <trkpt lat="44.69175" lon="7.08435">
        <ele>2492.36</ele>
        <time>2022-08-19T11:24:04Z</time>
      </trkpt>
      <trkpt lat="44.69167" lon="7.08464">
        <ele>2477.45</ele>
        <time>2022-08-19T11:25:20Z</time>
      </trkpt>
      <trkpt lat="44.69175" lon="7.08492">
        <ele>2462.07</ele>
        <time>2022-08-19T11:26:45Z</time>
      </trkpt>
      <trkpt lat="44.69197" lon="7.08502">
        <ele>2454.86</ele>
        <time>2022-08-19T11:27:25Z</time>
      </trkpt>
      <trkpt lat="44.69176" lon="7.0852">
        <ele>2448.13</ele>
        <time>2022-08-19T11:28:01Z</time>
      </trkpt>
      <trkpt lat="44.6915" lon="7.08546">
        <ele>2440.92</ele>
        <time>2022-08-19T11:28:43Z</time>
      </trkpt>
      <trkpt lat="44.69132" lon="7.08567">
        <ele>2438.04</ele>
        <time>2022-08-19T11:29:09Z</time>
      </trkpt>
      <trkpt lat="44.69112" lon="7.08583">
        <ele>2434.68</ele>
        <time>2022-08-19T11:29:38Z</time>
      </trkpt>
      <trkpt lat="44.69086" lon="7.0859">
        <ele>2428.43</ele>
        <time>2022-08-19T11:30:21Z</time>
      </trkpt>
      <trkpt lat="44.69068" lon="7.0862">
        <ele>2424.1</ele>
        <time>2022-08-19T11:31:10Z</time>
      </trkpt>
      <trkpt lat="44.69045" lon="7.08633">
        <ele>2418.33</ele>
        <time>2022-08-19T11:31:50Z</time>
      </trkpt>
      <trkpt lat="44.69023" lon="7.08643">
        <ele>2413.05</ele>
        <time>2022-08-19T11:32:15Z</time>
      </trkpt>
      <trkpt lat="44.68995" lon="7.08659">
        <ele>2405.36</ele>
        <time>2022-08-19T11:32:56Z</time>
      </trkpt>
      <trkpt lat="44.6897" lon="7.08686">
        <ele>2401.51</ele>
        <time>2022-08-19T11:33:31Z</time>
      </trkpt>
      <trkpt lat="44.68953" lon="7.08709">
        <ele>2396.22</ele>
        <time>2022-08-19T11:34:00Z</time>
      </trkpt>
      <trkpt lat="44.68946" lon="7.08752">
        <ele>2392.86</ele>
        <time>2022-08-19T11:34:31Z</time>
      </trkpt>
      <trkpt lat="44.68944" lon="7.08785">
        <ele>2389.01</ele>
        <time>2022-08-19T11:34:59Z</time>
      </trkpt>
      <trkpt lat="44.68943" lon="7.08828">
        <ele>2379.88</ele>
        <time>2022-08-19T11:35:39Z</time>
      </trkpt>
      <trkpt lat="44.68935" lon="7.08867">
        <ele>2375.55</ele>
        <time>2022-08-19T11:36:16Z</time>
      </trkpt>
      <trkpt lat="44.68938" lon="7.08901">
        <ele>2377</ele>
        <time>2022-08-19T11:36:51Z</time>
      </trkpt>
      <trkpt lat="44.68947" lon="7.08947">
        <ele>2380.36</ele>
        <time>2022-08-19T11:37:23Z</time>
      </trkpt>
      <trkpt lat="44.68937" lon="7.08983">
        <ele>2380.84</ele>
        <time>2022-08-19T11:37:55Z</time>
      </trkpt>
      <trkpt lat="44.68912" lon="7.09001">
        <ele>2382.28</ele>
        <time>2022-08-19T11:38:28Z</time>
      </trkpt>
      <trkpt lat="44.68886" lon="7.09023">
        <ele>2388.53</ele>
        <time>2022-08-19T11:39:23Z</time>
      </trkpt>
      <trkpt lat="44.68854" lon="7.09061">
        <ele>2396.7</ele>
        <time>2022-08-19T11:40:38Z</time>
      </trkpt>
      <trkpt lat="44.68816" lon="7.09102">
        <ele>2401.51</ele>
        <time>2022-08-19T11:41:40Z</time>
      </trkpt>
      <trkpt lat="44.68779" lon="7.09105">
        <ele>2394.78</ele>
        <time>2022-08-19T11:42:19Z</time>
      </trkpt>
      <trkpt lat="44.68757" lon="7.09133">
        <ele>2387.57</ele>
        <time>2022-08-19T11:42:57Z</time>
      </trkpt>
      <trkpt lat="44.68749" lon="7.09163">
        <ele>2382.28</ele>
        <time>2022-08-19T11:43:23Z</time>
      </trkpt>
      <trkpt lat="44.68743" lon="7.09199">
        <ele>2377.96</ele>
        <time>2022-08-19T11:43:53Z</time>
      </trkpt>
      <trkpt lat="44.68741" lon="7.09241">
        <ele>2376.04</ele>
        <time>2022-08-19T11:44:21Z</time>
      </trkpt>
      <trkpt lat="44.68718" lon="7.09307">
        <ele>2377.48</ele>
        <time>2022-08-19T11:45:18Z</time>
      </trkpt>
      <trkpt lat="44.68703" lon="7.09331">
        <ele>2379.4</ele>
        <time>2022-08-19T11:45:46Z</time>
      </trkpt>
      <trkpt lat="44.687" lon="7.09371">
        <ele>2380.84</ele>
        <time>2022-08-19T11:46:19Z</time>
      </trkpt>
      <trkpt lat="44.68716" lon="7.09396">
        <ele>2382.76</ele>
        <time>2022-08-19T11:46:43Z</time>
      </trkpt>
      <trkpt lat="44.68733" lon="7.09424">
        <ele>2379.88</ele>
        <time>2022-08-19T11:47:26Z</time>
      </trkpt>
      <trkpt lat="44.68737" lon="7.09461">
        <ele>2371.71</ele>
        <time>2022-08-19T11:48:14Z</time>
      </trkpt>
      <trkpt lat="44.6873" lon="7.09499">
        <ele>2368.83</ele>
        <time>2022-08-19T11:48:44Z</time>
      </trkpt>
      <trkpt lat="44.68708" lon="7.09506">
        <ele>2364.5</ele>
        <time>2022-08-19T11:49:14Z</time>
      </trkpt>
      <trkpt lat="44.68664" lon="7.09492">
        <ele>2351.52</ele>
        <time>2022-08-19T11:52:47Z</time>
      </trkpt>
      <trkpt lat="44.68642" lon="7.09475">
        <ele>2344.31</ele>
        <time>2022-08-19T11:53:34Z</time>
      </trkpt>
      <trkpt lat="44.68619" lon="7.09455">
        <ele>2339.02</ele>
        <time>2022-08-19T11:54:04Z</time>
      </trkpt>
      <trkpt lat="44.68595" lon="7.09444">
        <ele>2331.81</ele>
        <time>2022-08-19T11:54:37Z</time>
      </trkpt>
      <trkpt lat="44.68569" lon="7.09449">
        <ele>2323.64</ele>
        <time>2022-08-19T11:55:17Z</time>
      </trkpt>
      <trkpt lat="44.68545" lon="7.09456">
        <ele>2314.51</ele>
        <time>2022-08-19T11:55:57Z</time>
      </trkpt>
      <trkpt lat="44.68509" lon="7.09469">
        <ele>2305.86</ele>
        <time>2022-08-19T11:56:47Z</time>
      </trkpt>
      <trkpt lat="44.6848" lon="7.09475">
        <ele>2306.82</ele>
        <time>2022-08-19T11:57:23Z</time>
      </trkpt>
      <trkpt lat="44.68457" lon="7.09471">
        <ele>2306.34</ele>
        <time>2022-08-19T11:57:58Z</time>
      </trkpt>
      <trkpt lat="44.68435" lon="7.0946">
        <ele>2308.74</ele>
        <time>2022-08-19T11:58:42Z</time>
      </trkpt>
      <trkpt lat="44.68424" lon="7.09431">
        <ele>2311.63</ele>
        <time>2022-08-19T11:59:18Z</time>
      </trkpt>
      <trkpt lat="44.68409" lon="7.09402">
        <ele>2311.63</ele>
        <time>2022-08-19T11:59:45Z</time>
      </trkpt>
      <trkpt lat="44.68388" lon="7.09353">
        <ele>2313.55</ele>
        <time>2022-08-19T12:01:27Z</time>
      </trkpt>
      <trkpt lat="44.68365" lon="7.09329">
        <ele>2314.03</ele>
        <time>2022-08-19T12:02:08Z</time>
      </trkpt>
      <trkpt lat="44.68323" lon="7.09317">
        <ele>2327.01</ele>
        <time>2022-08-19T12:03:55Z</time>
      </trkpt>
      <trkpt lat="44.68278" lon="7.09324">
        <ele>2343.35</ele>
        <time>2022-08-19T12:05:57Z</time>
      </trkpt>
      <trkpt lat="44.68258" lon="7.0934">
        <ele>2347.2</ele>
        <time>2022-08-19T12:06:30Z</time>
      </trkpt>
      <trkpt lat="44.68238" lon="7.09357">
        <ele>2351.04</ele>
        <time>2022-08-19T12:07:00Z</time>
      </trkpt>
      <trkpt lat="44.68213" lon="7.09374">
        <ele>2355.85</ele>
        <time>2022-08-19T12:07:38Z</time>
      </trkpt>
      <trkpt lat="44.68187" lon="7.09392">
        <ele>2359.21</ele>
        <time>2022-08-19T12:08:17Z</time>
      </trkpt>
      <trkpt lat="44.68151" lon="7.09429">
        <ele>2367.38</ele>
        <time>2022-08-19T12:09:28Z</time>
      </trkpt>
      <trkpt lat="44.6814" lon="7.09461">
        <ele>2369.31</ele>
        <time>2022-08-19T12:10:09Z</time>
      </trkpt>
      <trkpt lat="44.6813" lon="7.09494">
        <ele>2373.15</ele>
        <time>2022-08-19T12:10:46Z</time>
      </trkpt>
      <trkpt lat="44.68087" lon="7.09526">
        <ele>2377.96</ele>
        <time>2022-08-19T12:11:53Z</time>
      </trkpt>
      <trkpt lat="44.68073" lon="7.09586">
        <ele>2379.88</ele>
        <time>2022-08-19T12:13:03Z</time>
      </trkpt>
      <trkpt lat="44.68068" lon="7.09622">
        <ele>2384.21</ele>
        <time>2022-08-19T12:13:46Z</time>
      </trkpt>
      <trkpt lat="44.68063" lon="7.09654">
        <ele>2385.65</ele>
        <time>2022-08-19T12:14:20Z</time>
      </trkpt>
      <trkpt lat="44.68057" lon="7.09695">
        <ele>2390.94</ele>
        <time>2022-08-19T12:15:01Z</time>
      </trkpt>
      <trkpt lat="44.68052" lon="7.09736">
        <ele>2395.26</ele>
        <time>2022-08-19T12:15:41Z</time>
      </trkpt>
      <trkpt lat="44.6805" lon="7.0977">
        <ele>2397.67</ele>
        <time>2022-08-19T12:16:08Z</time>
      </trkpt>
      <trkpt lat="44.68043" lon="7.09805">
        <ele>2399.59</ele>
        <time>2022-08-19T12:16:40Z</time>
      </trkpt>
      <trkpt lat="44.6805" lon="7.0984">
        <ele>2400.07</ele>
        <time>2022-08-19T12:17:19Z</time>
      </trkpt>
      <trkpt lat="44.6806" lon="7.09881">
        <ele>2408.24</ele>
        <time>2022-08-19T12:18:24Z</time>
      </trkpt>
      <trkpt lat="44.68067" lon="7.09917">
        <ele>2409.2</ele>
        <time>2022-08-19T12:19:02Z</time>
      </trkpt>
      <trkpt lat="44.6808" lon="7.0995">
        <ele>2415.93</ele>
        <time>2022-08-19T12:19:52Z</time>
      </trkpt>
      <trkpt lat="44.68093" lon="7.09982">
        <ele>2422.18</ele>
        <time>2022-08-19T12:20:30Z</time>
      </trkpt>
      <trkpt lat="44.6809" lon="7.10016">
        <ele>2422.18</ele>
        <time>2022-08-19T12:20:59Z</time>
      </trkpt>
      <trkpt lat="44.68095" lon="7.1006">
        <ele>2425.54</ele>
        <time>2022-08-19T12:21:35Z</time>
      </trkpt>
      <trkpt lat="44.68094" lon="7.10096">
        <ele>2429.87</ele>
        <time>2022-08-19T12:22:10Z</time>
      </trkpt>
      <trkpt lat="44.68085" lon="7.10131">
        <ele>2433.71</ele>
        <time>2022-08-19T12:22:50Z</time>
      </trkpt>
      <trkpt lat="44.68058" lon="7.10148">
        <ele>2443.81</ele>
        <time>2022-08-19T12:24:21Z</time>
      </trkpt>
      <trkpt lat="44.6806" lon="7.10181">
        <ele>2451.02</ele>
        <time>2022-08-19T12:25:10Z</time>
      </trkpt>
      <trkpt lat="44.68033" lon="7.10214">
        <ele>2461.11</ele>
        <time>2022-08-19T12:26:38Z</time>
      </trkpt>
      <trkpt lat="44.68008" lon="7.10209">
        <ele>2465.44</ele>
        <time>2022-08-19T12:27:28Z</time>
      </trkpt>
      <trkpt lat="44.67988" lon="7.10217">
        <ele>2478.9</ele>
        <time>2022-08-19T12:29:06Z</time>
      </trkpt>
      <trkpt lat="44.6796" lon="7.1024">
        <ele>2487.55</ele>
        <time>2022-08-19T12:30:48Z</time>
      </trkpt>
      <trkpt lat="44.67938" lon="7.10266">
        <ele>2492.84</ele>
        <time>2022-08-19T12:31:35Z</time>
      </trkpt>
      <trkpt lat="44.67958" lon="7.10299">
        <ele>2501.97</ele>
        <time>2022-08-19T12:33:23Z</time>
      </trkpt>
      <trkpt lat="44.67942" lon="7.1034">
        <ele>2510.62</ele>
        <time>2022-08-19T12:34:49Z</time>
      </trkpt>
      <trkpt lat="44.67924" lon="7.1036">
        <ele>2519.27</ele>
        <time>2022-08-19T12:35:59Z</time>
      </trkpt>
      <trkpt lat="44.679" lon="7.10347">
        <ele>2523.12</ele>
        <time>2022-08-19T12:36:53Z</time>
      </trkpt>
      <trkpt lat="44.67873" lon="7.10337">
        <ele>2525.52</ele>
        <time>2022-08-19T12:37:50Z</time>
      </trkpt>
      <trkpt lat="44.67851" lon="7.10339">
        <ele>2529.37</ele>
        <time>2022-08-19T12:38:34Z</time>
      </trkpt>
      <trkpt lat="44.67823" lon="7.10325">
        <ele>2531.29</ele>
        <time>2022-08-19T12:39:14Z</time>
      </trkpt>
      <trkpt lat="44.678" lon="7.10309">
        <ele>2533.69</ele>
        <time>2022-08-19T12:39:53Z</time>
      </trkpt>
      <trkpt lat="44.678" lon="7.10277">
        <ele>2535.61</ele>
        <time>2022-08-19T12:40:36Z</time>
      </trkpt>
      <trkpt lat="44.67778" lon="7.10276">
        <ele>2549.55</ele>
        <time>2022-08-19T12:42:45Z</time>
      </trkpt>
      <trkpt lat="44.67745" lon="7.1027">
        <ele>2558.21</ele>
        <time>2022-08-19T12:47:56Z</time>
      </trkpt>
      <trkpt lat="44.67721" lon="7.10262">
        <ele>2562.05</ele>
        <time>2022-08-19T12:48:48Z</time>
      </trkpt>
      <trkpt lat="44.67701" lon="7.10243">
        <ele>2565.42</ele>
        <time>2022-08-19T12:49:41Z</time>
      </trkpt>
      <trkpt lat="44.67654" lon="7.10231">
        <ele>2573.11</ele>
        <time>2022-08-19T12:52:06Z</time>
      </trkpt>
      <trkpt lat="44.6764" lon="7.10205">
        <ele>2578.87</ele>
        <time>2022-08-19T12:52:53Z</time>
      </trkpt>
      <trkpt lat="44.67615" lon="7.10193">
        <ele>2581.76</ele>
        <time>2022-08-19T12:53:37Z</time>
      </trkpt>
      <trkpt lat="44.67595" lon="7.10172">
        <ele>2585.6</ele>
        <time>2022-08-19T12:54:22Z</time>
      </trkpt>
      <trkpt lat="44.67587" lon="7.1014">
        <ele>2584.16</ele>
        <time>2022-08-19T12:54:59Z</time>
      </trkpt>
      <trkpt lat="44.67567" lon="7.10124">
        <ele>2585.12</ele>
        <time>2022-08-19T12:55:31Z</time>
      </trkpt>
      <trkpt lat="44.67545" lon="7.10108">
        <ele>2588.01</ele>
        <time>2022-08-19T12:56:17Z</time>
      </trkpt>
      <trkpt lat="44.67522" lon="7.10105">
        <ele>2595.7</ele>
        <time>2022-08-19T12:57:08Z</time>
      </trkpt>
      <trkpt lat="44.67502" lon="7.10085">
        <ele>2596.66</ele>
        <time>2022-08-19T12:57:55Z</time>
      </trkpt>
      <trkpt lat="44.67477" lon="7.10079">
        <ele>2600.02</ele>
        <time>2022-08-19T12:58:45Z</time>
      </trkpt>
      <trkpt lat="44.67454" lon="7.10082">
        <ele>2608.67</ele>
        <time>2022-08-19T12:59:55Z</time>
      </trkpt>
      <trkpt lat="44.67429" lon="7.1009">
        <ele>2613</ele>
        <time>2022-08-19T13:00:55Z</time>
      </trkpt>
      <trkpt lat="44.67405" lon="7.10096">
        <ele>2615.88</ele>
        <time>2022-08-19T13:01:42Z</time>
      </trkpt>
      <trkpt lat="44.67384" lon="7.10113">
        <ele>2613.96</ele>
        <time>2022-08-19T13:02:37Z</time>
      </trkpt>
      <trkpt lat="44.67355" lon="7.10115">
        <ele>2613.96</ele>
        <time>2022-08-19T13:03:15Z</time>
      </trkpt>
      <trkpt lat="44.6733" lon="7.10145">
        <ele>2613.48</ele>
        <time>2022-08-19T13:04:07Z</time>
      </trkpt>
      <trkpt lat="44.67312" lon="7.10211">
        <ele>2622.61</ele>
        <time>2022-08-19T13:05:41Z</time>
      </trkpt>
      <trkpt lat="44.67283" lon="7.10235">
        <ele>2631.75</ele>
        <time>2022-08-19T13:06:34Z</time>
      </trkpt>
      <trkpt lat="44.6727" lon="7.10263">
        <ele>2627.42</ele>
        <time>2022-08-19T13:07:05Z</time>
      </trkpt>
      <trkpt lat="44.67255" lon="7.10288">
        <ele>2629.34</ele>
        <time>2022-08-19T13:07:44Z</time>
      </trkpt>
      <trkpt lat="44.67241" lon="7.10328">
        <ele>2640.88</ele>
        <time>2022-08-19T13:09:40Z</time>
      </trkpt>
      <trkpt lat="44.67207" lon="7.10357">
        <ele>2651.93</ele>
        <time>2022-08-19T13:11:20Z</time>
      </trkpt>
      <trkpt lat="44.67186" lon="7.10373">
        <ele>2649.53</ele>
        <time>2022-08-19T13:11:49Z</time>
      </trkpt>
      <trkpt lat="44.67166" lon="7.10388">
        <ele>2650.49</ele>
        <time>2022-08-19T13:12:20Z</time>
      </trkpt>
      <trkpt lat="44.6714" lon="7.10391">
        <ele>2653.86</ele>
        <time>2022-08-19T13:13:09Z</time>
      </trkpt>
      <trkpt lat="44.67116" lon="7.10394">
        <ele>2657.22</ele>
        <time>2022-08-19T13:13:54Z</time>
      </trkpt>
      <trkpt lat="44.67097" lon="7.10419">
        <ele>2656.26</ele>
        <time>2022-08-19T13:14:29Z</time>
      </trkpt>
      <trkpt lat="44.67075" lon="7.10431">
        <ele>2652.9</ele>
        <time>2022-08-19T13:14:58Z</time>
      </trkpt>
      <trkpt lat="44.67056" lon="7.1046">
        <ele>2648.57</ele>
        <time>2022-08-19T13:15:38Z</time>
      </trkpt>
      <trkpt lat="44.67033" lon="7.10483">
        <ele>2646.17</ele>
        <time>2022-08-19T13:16:14Z</time>
      </trkpt>
      <trkpt lat="44.67012" lon="7.10495">
        <ele>2644.72</ele>
        <time>2022-08-19T13:16:41Z</time>
      </trkpt>
      <trkpt lat="44.6699" lon="7.10506">
        <ele>2641.36</ele>
        <time>2022-08-19T13:17:12Z</time>
      </trkpt>
      <trkpt lat="44.66959" lon="7.10514">
        <ele>2639.44</ele>
        <time>2022-08-19T13:17:48Z</time>
      </trkpt>
      <trkpt lat="44.66909" lon="7.105">
        <ele>2637.99</ele>
        <time>2022-08-19T13:18:54Z</time>
      </trkpt>
      <trkpt lat="44.66859" lon="7.10496">
        <ele>2642.32</ele>
        <time>2022-08-19T13:20:04Z</time>
      </trkpt>
      <trkpt lat="44.66837" lon="7.10504">
        <ele>2644.24</ele>
        <time>2022-08-19T13:20:36Z</time>
      </trkpt>
      <trkpt lat="44.66793" lon="7.10481">
        <ele>2650.97</ele>
        <time>2022-08-19T13:21:39Z</time>
      </trkpt>
      <trkpt lat="44.66785" lon="7.10511">
        <ele>2648.09</ele>
        <time>2022-08-19T13:22:26Z</time>
      </trkpt>
      <trkpt lat="44.66779" lon="7.10544">
        <ele>2643.28</ele>
        <time>2022-08-19T13:22:55Z</time>
      </trkpt>
      <trkpt lat="44.6678" lon="7.10578">
        <ele>2638.96</ele>
        <time>2022-08-19T13:23:27Z</time>
      </trkpt>
      <trkpt lat="44.6678" lon="7.10613">
        <ele>2635.11</ele>
        <time>2022-08-19T13:24:10Z</time>
      </trkpt>
      <trkpt lat="44.6677" lon="7.1065">
        <ele>2631.27</ele>
        <time>2022-08-19T13:24:40Z</time>
      </trkpt>
      <trkpt lat="44.66747" lon="7.1068">
        <ele>2626.94</ele>
        <time>2022-08-19T13:25:16Z</time>
      </trkpt>
      <trkpt lat="44.6673" lon="7.10713">
        <ele>2625.98</ele>
        <time>2022-08-19T13:25:44Z</time>
      </trkpt>
      <trkpt lat="44.66706" lon="7.10744">
        <ele>2624.06</ele>
        <time>2022-08-19T13:26:15Z</time>
      </trkpt>
      <trkpt lat="44.66682" lon="7.10772">
        <ele>2624.54</ele>
        <time>2022-08-19T13:26:50Z</time>
      </trkpt>
      <trkpt lat="44.66659" lon="7.10799">
        <ele>2626.94</ele>
        <time>2022-08-19T13:27:24Z</time>
      </trkpt>
      <trkpt lat="44.66652" lon="7.1083">
        <ele>2628.86</ele>
        <time>2022-08-19T13:27:53Z</time>
      </trkpt>
      <trkpt lat="44.66651" lon="7.10865">
        <ele>2629.34</ele>
        <time>2022-08-19T13:28:20Z</time>
      </trkpt>
      <trkpt lat="44.66635" lon="7.109">
        <ele>2630.3</ele>
        <time>2022-08-19T13:28:51Z</time>
      </trkpt>
      <trkpt lat="44.66609" lon="7.10913">
        <ele>2633.67</ele>
        <time>2022-08-19T13:29:30Z</time>
      </trkpt>
      <trkpt lat="44.66589" lon="7.10938">
        <ele>2634.63</ele>
        <time>2022-08-19T13:30:07Z</time>
      </trkpt>
      <trkpt lat="44.66581" lon="7.10974">
        <ele>2636.55</ele>
        <time>2022-08-19T13:30:47Z</time>
      </trkpt>
      <trkpt lat="44.66545" lon="7.10993">
        <ele>2638.48</ele>
        <time>2022-08-20T06:01:42Z</time>
      </trkpt>
      <trkpt lat="44.66505" lon="7.10978">
        <ele>2632.23</ele>
        <time>2022-08-20T06:03:35Z</time>
      </trkpt>
      <trkpt lat="44.6648" lon="7.10987">
        <ele>2628.86</ele>
        <time>2022-08-20T06:04:04Z</time>
      </trkpt>
      <trkpt lat="44.66454" lon="7.10993">
        <ele>2625.98</ele>
        <time>2022-08-20T06:04:41Z</time>
      </trkpt>
      <trkpt lat="44.66424" lon="7.10995">
        <ele>2620.69</ele>
        <time>2022-08-20T06:05:28Z</time>
      </trkpt>
      <trkpt lat="44.66398" lon="7.10994">
        <ele>2617.33</ele>
        <time>2022-08-20T06:06:05Z</time>
      </trkpt>
      <trkpt lat="44.66368" lon="7.1099">
        <ele>2616.85</ele>
        <time>2022-08-20T06:06:33Z</time>
      </trkpt>
      <trkpt lat="44.66342" lon="7.10984">
        <ele>2613</ele>
        <time>2022-08-20T06:07:11Z</time>
      </trkpt>
      <trkpt lat="44.66322" lon="7.10963">
        <ele>2609.64</ele>
        <time>2022-08-20T06:07:51Z</time>
      </trkpt>
      <trkpt lat="44.66303" lon="7.10943">
        <ele>2607.71</ele>
        <time>2022-08-20T06:08:22Z</time>
      </trkpt>
      <trkpt lat="44.66276" lon="7.10941">
        <ele>2606.75</ele>
        <time>2022-08-20T06:08:52Z</time>
      </trkpt>
      <trkpt lat="44.66251" lon="7.10943">
        <ele>2606.27</ele>
        <time>2022-08-20T06:09:19Z</time>
      </trkpt>
      <trkpt lat="44.66227" lon="7.10925">
        <ele>2604.83</ele>
        <time>2022-08-20T06:09:49Z</time>
      </trkpt>
      <trkpt lat="44.66204" lon="7.10913">
        <ele>2602.43</ele>
        <time>2022-08-20T06:10:17Z</time>
      </trkpt>
      <trkpt lat="44.6618" lon="7.1093">
        <ele>2602.43</ele>
        <time>2022-08-20T06:10:44Z</time>
      </trkpt>
      <trkpt lat="44.66144" lon="7.10947">
        <ele>2598.1</ele>
        <time>2022-08-20T06:11:21Z</time>
      </trkpt>
      <trkpt lat="44.66116" lon="7.10952">
        <ele>2594.74</ele>
        <time>2022-08-20T06:11:48Z</time>
      </trkpt>
      <trkpt lat="44.66087" lon="7.10948">
        <ele>2594.25</ele>
        <time>2022-08-20T06:12:26Z</time>
      </trkpt>
      <trkpt lat="44.66066" lon="7.10938">
        <ele>2591.85</ele>
        <time>2022-08-20T06:12:55Z</time>
      </trkpt>
      <trkpt lat="44.66028" lon="7.10924">
        <ele>2591.37</ele>
        <time>2022-08-20T06:14:31Z</time>
      </trkpt>
      <trkpt lat="44.66008" lon="7.10903">
        <ele>2592.33</ele>
        <time>2022-08-20T06:15:00Z</time>
      </trkpt>
      <trkpt lat="44.65985" lon="7.109">
        <ele>2589.93</ele>
        <time>2022-08-20T06:15:23Z</time>
      </trkpt>
      <trkpt lat="44.65955" lon="7.1088">
        <ele>2588.97</ele>
        <time>2022-08-20T06:16:00Z</time>
      </trkpt>
      <trkpt lat="44.65917" lon="7.10869">
        <ele>2591.85</ele>
        <time>2022-08-20T06:16:40Z</time>
      </trkpt>
      <trkpt lat="44.65892" lon="7.10858">
        <ele>2591.85</ele>
        <time>2022-08-20T06:17:06Z</time>
      </trkpt>
      <trkpt lat="44.65861" lon="7.10855">
        <ele>2590.41</ele>
        <time>2022-08-20T06:17:37Z</time>
      </trkpt>
      <trkpt lat="44.65836" lon="7.10848">
        <ele>2591.85</ele>
        <time>2022-08-20T06:18:04Z</time>
      </trkpt>
      <trkpt lat="44.65812" lon="7.10852">
        <ele>2594.74</ele>
        <time>2022-08-20T06:18:32Z</time>
      </trkpt>
      <trkpt lat="44.6579" lon="7.10839">
        <ele>2591.37</ele>
        <time>2022-08-20T06:19:03Z</time>
      </trkpt>
      <trkpt lat="44.65769" lon="7.10826">
        <ele>2588.01</ele>
        <time>2022-08-20T06:19:28Z</time>
      </trkpt>
      <trkpt lat="44.65748" lon="7.10794">
        <ele>2583.68</ele>
        <time>2022-08-20T06:20:02Z</time>
      </trkpt>
      <trkpt lat="44.6572" lon="7.1077">
        <ele>2584.16</ele>
        <time>2022-08-20T06:20:35Z</time>
      </trkpt>
      <trkpt lat="44.65698" lon="7.10783">
        <ele>2583.2</ele>
        <time>2022-08-20T06:21:17Z</time>
      </trkpt>
      <trkpt lat="44.65673" lon="7.10799">
        <ele>2584.64</ele>
        <time>2022-08-20T06:21:51Z</time>
      </trkpt>
      <trkpt lat="44.6565" lon="7.10806">
        <ele>2585.6</ele>
        <time>2022-08-20T06:22:18Z</time>
      </trkpt>
      <trkpt lat="44.65623" lon="7.10833">
        <ele>2586.56</ele>
        <time>2022-08-20T06:22:52Z</time>
      </trkpt>
      <trkpt lat="44.65585" lon="7.10853">
        <ele>2590.89</ele>
        <time>2022-08-20T06:23:57Z</time>
      </trkpt>
      <trkpt lat="44.6557" lon="7.10887">
        <ele>2592.33</ele>
        <time>2022-08-20T06:24:31Z</time>
      </trkpt>
      <trkpt lat="44.65556" lon="7.10912">
        <ele>2591.85</ele>
        <time>2022-08-20T06:25:10Z</time>
      </trkpt>
      <trkpt lat="44.65541" lon="7.10947">
        <ele>2591.37</ele>
        <time>2022-08-20T06:25:38Z</time>
      </trkpt>
      <trkpt lat="44.65521" lon="7.10966">
        <ele>2591.37</ele>
        <time>2022-08-20T06:26:03Z</time>
      </trkpt>
      <trkpt lat="44.65496" lon="7.10963">
        <ele>2590.89</ele>
        <time>2022-08-20T06:26:32Z</time>
      </trkpt>
      <trkpt lat="44.65474" lon="7.10953">
        <ele>2589.45</ele>
        <time>2022-08-20T06:26:57Z</time>
      </trkpt>
      <trkpt lat="44.65449" lon="7.10967">
        <ele>2586.56</ele>
        <time>2022-08-20T06:27:35Z</time>
      </trkpt>
      <trkpt lat="44.65434" lon="7.10918">
        <ele>2582.24</ele>
        <time>2022-08-20T06:28:51Z</time>
      </trkpt>
      <trkpt lat="44.65411" lon="7.10914">
        <ele>2582.24</ele>
        <time>2022-08-20T06:29:17Z</time>
      </trkpt>
      <trkpt lat="44.6539" lon="7.10931">
        <ele>2581.28</ele>
        <time>2022-08-20T06:29:53Z</time>
      </trkpt>
      <trkpt lat="44.65366" lon="7.10932">
        <ele>2583.2</ele>
        <time>2022-08-20T06:30:24Z</time>
      </trkpt>
      <trkpt lat="44.65346" lon="7.10951">
        <ele>2584.16</ele>
        <time>2022-08-20T06:30:58Z</time>
      </trkpt>
      <trkpt lat="44.65331" lon="7.1098">
        <ele>2581.76</ele>
        <time>2022-08-20T06:31:29Z</time>
      </trkpt>
      <trkpt lat="44.65309" lon="7.11003">
        <ele>2582.72</ele>
        <time>2022-08-20T06:31:58Z</time>
      </trkpt>
      <trkpt lat="44.65283" lon="7.11028">
        <ele>2583.2</ele>
        <time>2022-08-20T06:32:37Z</time>
      </trkpt>
      <trkpt lat="44.65259" lon="7.11036">
        <ele>2583.2</ele>
        <time>2022-08-20T06:33:06Z</time>
      </trkpt>
      <trkpt lat="44.65237" lon="7.11051">
        <ele>2581.76</ele>
        <time>2022-08-20T06:33:38Z</time>
      </trkpt>
      <trkpt lat="44.65215" lon="7.11072">
        <ele>2583.68</ele>
        <time>2022-08-20T06:34:14Z</time>
      </trkpt>
      <trkpt lat="44.65189" lon="7.11086">
        <ele>2583.68</ele>
        <time>2022-08-20T06:34:50Z</time>
      </trkpt>
      <trkpt lat="44.65167" lon="7.11116">
        <ele>2582.24</ele>
        <time>2022-08-20T06:35:29Z</time>
      </trkpt>
      <trkpt lat="44.65156" lon="7.11145">
        <ele>2584.16</ele>
        <time>2022-08-20T06:36:00Z</time>
      </trkpt>
      <trkpt lat="44.6513" lon="7.11151">
        <ele>2583.2</ele>
        <time>2022-08-20T06:36:31Z</time>
      </trkpt>
      <trkpt lat="44.65109" lon="7.11209">
        <ele>2588.49</ele>
        <time>2022-08-20T06:37:37Z</time>
      </trkpt>
      <trkpt lat="44.65086" lon="7.11221">
        <ele>2591.85</ele>
        <time>2022-08-20T06:38:12Z</time>
      </trkpt>
      <trkpt lat="44.65051" lon="7.11252">
        <ele>2597.62</ele>
        <time>2022-08-20T06:39:20Z</time>
      </trkpt>
      <trkpt lat="44.65026" lon="7.11264">
        <ele>2598.1</ele>
        <time>2022-08-20T06:39:48Z</time>
      </trkpt>
      <trkpt lat="44.65018" lon="7.11305">
        <ele>2600.02</ele>
        <time>2022-08-20T06:40:29Z</time>
      </trkpt>
      <trkpt lat="44.65009" lon="7.11346">
        <ele>2600.98</ele>
        <time>2022-08-20T06:41:12Z</time>
      </trkpt>
      <trkpt lat="44.64986" lon="7.11365">
        <ele>2604.35</ele>
        <time>2022-08-20T06:41:47Z</time>
      </trkpt>
      <trkpt lat="44.6498" lon="7.11397">
        <ele>2605.31</ele>
        <time>2022-08-20T06:42:20Z</time>
      </trkpt>
      <trkpt lat="44.64962" lon="7.1145">
        <ele>2612.52</ele>
        <time>2022-08-20T06:43:46Z</time>
      </trkpt>
      <trkpt lat="44.64928" lon="7.11495">
        <ele>2614.44</ele>
        <time>2022-08-20T06:45:05Z</time>
      </trkpt>
      <trkpt lat="44.64909" lon="7.11526">
        <ele>2614.44</ele>
        <time>2022-08-20T06:45:37Z</time>
      </trkpt>
      <trkpt lat="44.64886" lon="7.11543">
        <ele>2615.4</ele>
        <time>2022-08-20T06:46:18Z</time>
      </trkpt>
      <trkpt lat="44.64856" lon="7.11564">
        <ele>2618.29</ele>
        <time>2022-08-20T06:46:54Z</time>
      </trkpt>
      <trkpt lat="44.64831" lon="7.11581">
        <ele>2620.21</ele>
        <time>2022-08-20T06:47:25Z</time>
      </trkpt>
      <trkpt lat="44.6481" lon="7.11598">
        <ele>2621.17</ele>
        <time>2022-08-20T06:48:05Z</time>
      </trkpt>
      <trkpt lat="44.64777" lon="7.11602">
        <ele>2618.29</ele>
        <time>2022-08-20T06:48:43Z</time>
      </trkpt>
      <trkpt lat="44.6475" lon="7.11603">
        <ele>2622.61</ele>
        <time>2022-08-20T06:49:13Z</time>
      </trkpt>
      <trkpt lat="44.6474" lon="7.11632">
        <ele>2624.54</ele>
        <time>2022-08-20T06:49:41Z</time>
      </trkpt>
      <trkpt lat="44.64709" lon="7.11647">
        <ele>2626.94</ele>
        <time>2022-08-20T06:50:17Z</time>
      </trkpt>
      <trkpt lat="44.64695" lon="7.11683">
        <ele>2628.86</ele>
        <time>2022-08-20T06:50:58Z</time>
      </trkpt>
      <trkpt lat="44.64685" lon="7.11714">
        <ele>2629.34</ele>
        <time>2022-08-20T06:51:26Z</time>
      </trkpt>
      <trkpt lat="44.64643" lon="7.11759">
        <ele>2634.15</ele>
        <time>2022-08-20T06:52:34Z</time>
      </trkpt>
      <trkpt lat="44.64617" lon="7.1176">
        <ele>2637.51</ele>
        <time>2022-08-20T06:53:12Z</time>
      </trkpt>
      <trkpt lat="44.6459" lon="7.11766">
        <ele>2633.67</ele>
        <time>2022-08-20T06:53:51Z</time>
      </trkpt>
      <trkpt lat="44.64565" lon="7.11771">
        <ele>2635.11</ele>
        <time>2022-08-20T06:54:21Z</time>
      </trkpt>
      <trkpt lat="44.6454" lon="7.11764">
        <ele>2638.48</ele>
        <time>2022-08-20T06:54:56Z</time>
      </trkpt>
      <trkpt lat="44.64516" lon="7.11738">
        <ele>2649.05</ele>
        <time>2022-08-20T06:56:40Z</time>
      </trkpt>
      <trkpt lat="44.64494" lon="7.11713">
        <ele>2661.55</ele>
        <time>2022-08-20T06:58:18Z</time>
      </trkpt>
      <trkpt lat="44.64468" lon="7.1172">
        <ele>2669.24</ele>
        <time>2022-08-20T06:59:18Z</time>
      </trkpt>
      <trkpt lat="44.64438" lon="7.11719">
        <ele>2683.66</ele>
        <time>2022-08-20T07:01:04Z</time>
      </trkpt>
      <trkpt lat="44.64412" lon="7.11708">
        <ele>2691.83</ele>
        <time>2022-08-20T07:01:59Z</time>
      </trkpt>
      <trkpt lat="44.64384" lon="7.11677">
        <ele>2703.85</ele>
        <time>2022-08-20T07:03:33Z</time>
      </trkpt>
      <trkpt lat="44.6436" lon="7.11681">
        <ele>2706.25</ele>
        <time>2022-08-20T07:04:08Z</time>
      </trkpt>
      <trkpt lat="44.64332" lon="7.11684">
        <ele>2706.73</ele>
        <time>2022-08-20T07:04:43Z</time>
      </trkpt>
      <trkpt lat="44.64309" lon="7.11692">
        <ele>2707.69</ele>
        <time>2022-08-20T07:05:14Z</time>
      </trkpt>
      <trkpt lat="44.64266" lon="7.11678">
        <ele>2720.67</ele>
        <time>2022-08-20T07:06:39Z</time>
      </trkpt>
      <trkpt lat="44.64255" lon="7.11725">
        <ele>2721.15</ele>
        <time>2022-08-20T07:08:16Z</time>
      </trkpt>
      <trkpt lat="44.64269" lon="7.1176">
        <ele>2726.92</ele>
        <time>2022-08-20T07:08:57Z</time>
      </trkpt>
      <trkpt lat="44.6428" lon="7.11793">
        <ele>2729.32</ele>
        <time>2022-08-20T07:09:59Z</time>
      </trkpt>
      <trkpt lat="44.64287" lon="7.11825">
        <ele>2729.32</ele>
        <time>2022-08-20T07:10:55Z</time>
      </trkpt>
      <trkpt lat="44.64293" lon="7.11859">
        <ele>2730.76</ele>
        <time>2022-08-20T07:11:25Z</time>
      </trkpt>
      <trkpt lat="44.64308" lon="7.11896">
        <ele>2734.61</ele>
        <time>2022-08-20T07:12:05Z</time>
      </trkpt>
      <trkpt lat="44.64309" lon="7.11929">
        <ele>2737.97</ele>
        <time>2022-08-20T07:12:49Z</time>
      </trkpt>
      <trkpt lat="44.64326" lon="7.11958">
        <ele>2739.89</ele>
        <time>2022-08-20T07:13:29Z</time>
      </trkpt>
      <trkpt lat="44.64342" lon="7.11988">
        <ele>2737.49</ele>
        <time>2022-08-20T07:14:17Z</time>
      </trkpt>
      <trkpt lat="44.64356" lon="7.12014">
        <ele>2735.09</ele>
        <time>2022-08-20T07:14:45Z</time>
      </trkpt>
      <trkpt lat="44.6438" lon="7.12073">
        <ele>2733.17</ele>
        <time>2022-08-20T07:15:48Z</time>
      </trkpt>
      <trkpt lat="44.64393" lon="7.12099">
        <ele>2734.61</ele>
        <time>2022-08-20T07:16:12Z</time>
      </trkpt>
      <trkpt lat="44.64402" lon="7.12137">
        <ele>2738.45</ele>
        <time>2022-08-20T07:16:52Z</time>
      </trkpt>
      <trkpt lat="44.64388" lon="7.12128">
        <ele>2743.74</ele>
        <time>2022-08-20T07:40:20Z</time>
      </trkpt>
      <trkpt lat="44.64378" lon="7.12098">
        <ele>2740.86</ele>
        <time>2022-08-20T07:40:49Z</time>
      </trkpt>
      <trkpt lat="44.64353" lon="7.12065">
        <ele>2739.41</ele>
        <time>2022-08-20T07:41:45Z</time>
      </trkpt>
      <trkpt lat="44.6433" lon="7.12036">
        <ele>2740.38</ele>
        <time>2022-08-20T07:42:18Z</time>
      </trkpt>
      <trkpt lat="44.64302" lon="7.11984">
        <ele>2741.34</ele>
        <time>2022-08-20T07:43:09Z</time>
      </trkpt>
      <trkpt lat="44.64288" lon="7.11921">
        <ele>2739.89</ele>
        <time>2022-08-20T07:44:16Z</time>
      </trkpt>
      <trkpt lat="44.64289" lon="7.11889">
        <ele>2739.41</ele>
        <time>2022-08-20T07:44:43Z</time>
      </trkpt>
      <trkpt lat="44.64286" lon="7.11838">
        <ele>2737.49</ele>
        <time>2022-08-20T07:45:23Z</time>
      </trkpt>
      <trkpt lat="44.6428" lon="7.11802">
        <ele>2736.05</ele>
        <time>2022-08-20T07:45:51Z</time>
      </trkpt>
      <trkpt lat="44.64271" lon="7.11766">
        <ele>2735.57</ele>
        <time>2022-08-20T07:46:26Z</time>
      </trkpt>
      <trkpt lat="44.64265" lon="7.11731">
        <ele>2734.61</ele>
        <time>2022-08-20T07:47:00Z</time>
      </trkpt>
      <trkpt lat="44.64266" lon="7.11673">
        <ele>2729.8</ele>
        <time>2022-08-20T07:48:23Z</time>
      </trkpt>
      <trkpt lat="44.64246" lon="7.11652">
        <ele>2737.01</ele>
        <time>2022-08-20T07:49:40Z</time>
      </trkpt>
      <trkpt lat="44.64229" lon="7.11623">
        <ele>2742.3</ele>
        <time>2022-08-20T07:50:29Z</time>
      </trkpt>
      <trkpt lat="44.64216" lon="7.11594">
        <ele>2743.26</ele>
        <time>2022-08-20T07:50:58Z</time>
      </trkpt>
      <trkpt lat="44.64192" lon="7.11566">
        <ele>2744.7</ele>
        <time>2022-08-20T07:51:31Z</time>
      </trkpt>
      <trkpt lat="44.64174" lon="7.11516">
        <ele>2744.22</ele>
        <time>2022-08-20T07:52:09Z</time>
      </trkpt>
      <trkpt lat="44.64179" lon="7.1147">
        <ele>2747.1</ele>
        <time>2022-08-20T07:52:44Z</time>
      </trkpt>
      <trkpt lat="44.64189" lon="7.11422">
        <ele>2746.14</ele>
        <time>2022-08-20T07:53:20Z</time>
      </trkpt>
      <trkpt lat="44.64191" lon="7.11387">
        <ele>2746.14</ele>
        <time>2022-08-20T07:53:54Z</time>
      </trkpt>
      <trkpt lat="44.64191" lon="7.11351">
        <ele>2743.74</ele>
        <time>2022-08-20T07:54:28Z</time>
      </trkpt>
      <trkpt lat="44.64193" lon="7.11317">
        <ele>2749.03</ele>
        <time>2022-08-20T07:55:32Z</time>
      </trkpt>
      <trkpt lat="44.64191" lon="7.11284">
        <ele>2747.59</ele>
        <time>2022-08-20T07:56:05Z</time>
      </trkpt>
      <trkpt lat="44.6419" lon="7.11249">
        <ele>2750.95</ele>
        <time>2022-08-20T07:57:01Z</time>
      </trkpt>
      <trkpt lat="44.64182" lon="7.11213">
        <ele>2751.91</ele>
        <time>2022-08-20T07:58:02Z</time>
      </trkpt>
      <trkpt lat="44.64166" lon="7.11154">
        <ele>2755.28</ele>
        <time>2022-08-20T07:59:36Z</time>
      </trkpt>
      <trkpt lat="44.64152" lon="7.11122">
        <ele>2757.68</ele>
        <time>2022-08-20T08:00:05Z</time>
      </trkpt>
      <trkpt lat="44.64142" lon="7.11093">
        <ele>2760.08</ele>
        <time>2022-08-20T08:00:36Z</time>
      </trkpt>
      <trkpt lat="44.64134" lon="7.11062">
        <ele>2762.49</ele>
        <time>2022-08-20T08:01:01Z</time>
      </trkpt>
      <trkpt lat="44.64146" lon="7.11003">
        <ele>2762</ele>
        <time>2022-08-20T08:01:47Z</time>
      </trkpt>
      <trkpt lat="44.64162" lon="7.10937">
        <ele>2756.72</ele>
        <time>2022-08-20T08:03:37Z</time>
      </trkpt>
      <trkpt lat="44.64178" lon="7.10909">
        <ele>2758.16</ele>
        <time>2022-08-20T08:04:05Z</time>
      </trkpt>
      <trkpt lat="44.6419" lon="7.10881">
        <ele>2760.08</ele>
        <time>2022-08-20T08:04:32Z</time>
      </trkpt>
      <trkpt lat="44.6419" lon="7.10843">
        <ele>2760.08</ele>
        <time>2022-08-20T08:04:57Z</time>
      </trkpt>
      <trkpt lat="44.64186" lon="7.1078">
        <ele>2767.29</ele>
        <time>2022-08-20T08:05:54Z</time>
      </trkpt>
      <trkpt lat="44.64175" lon="7.1073">
        <ele>2769.7</ele>
        <time>2022-08-20T08:09:14Z</time>
      </trkpt>
      <trkpt lat="44.64147" lon="7.1067">
        <ele>2769.21</ele>
        <time>2022-08-20T08:10:17Z</time>
      </trkpt>
      <trkpt lat="44.64132" lon="7.10639">
        <ele>2769.21</ele>
        <time>2022-08-20T08:10:47Z</time>
      </trkpt>
      <trkpt lat="44.64105" lon="7.10585">
        <ele>2761.52</ele>
        <time>2022-08-20T08:11:53Z</time>
      </trkpt>
      <trkpt lat="44.64098" lon="7.10548">
        <ele>2757.2</ele>
        <time>2022-08-20T08:12:21Z</time>
      </trkpt>
      <trkpt lat="44.64082" lon="7.10521">
        <ele>2757.2</ele>
        <time>2022-08-20T08:12:45Z</time>
      </trkpt>
      <trkpt lat="44.64073" lon="7.10491">
        <ele>2756.24</ele>
        <time>2022-08-20T08:13:10Z</time>
      </trkpt>
      <trkpt lat="44.64065" lon="7.10437">
        <ele>2752.39</ele>
        <time>2022-08-20T08:13:51Z</time>
      </trkpt>
      <trkpt lat="44.64057" lon="7.10407">
        <ele>2754.8</ele>
        <time>2022-08-20T08:14:18Z</time>
      </trkpt>
      <trkpt lat="44.6405" lon="7.10376">
        <ele>2752.39</ele>
        <time>2022-08-20T08:14:40Z</time>
      </trkpt>
      <trkpt lat="44.64033" lon="7.10307">
        <ele>2757.68</ele>
        <time>2022-08-20T08:15:43Z</time>
      </trkpt>
      <trkpt lat="44.64036" lon="7.10274">
        <ele>2751.91</ele>
        <time>2022-08-20T08:16:15Z</time>
      </trkpt>
      <trkpt lat="44.64034" lon="7.10237">
        <ele>2751.43</ele>
        <time>2022-08-20T08:16:42Z</time>
      </trkpt>
      <trkpt lat="44.64015" lon="7.10177">
        <ele>2744.7</ele>
        <time>2022-08-20T08:18:07Z</time>
      </trkpt>
      <trkpt lat="44.64004" lon="7.10149">
        <ele>2739.89</ele>
        <time>2022-08-20T08:18:38Z</time>
      </trkpt>
      <trkpt lat="44.63998" lon="7.1011">
        <ele>2739.41</ele>
        <time>2022-08-20T08:19:08Z</time>
      </trkpt>
      <trkpt lat="44.64009" lon="7.10073">
        <ele>2735.57</ele>
        <time>2022-08-20T08:19:44Z</time>
      </trkpt>
      <trkpt lat="44.64002" lon="7.10042">
        <ele>2731.24</ele>
        <time>2022-08-20T08:20:17Z</time>
      </trkpt>
      <trkpt lat="44.63988" lon="7.1001">
        <ele>2728.36</ele>
        <time>2022-08-20T08:20:47Z</time>
      </trkpt>
      <trkpt lat="44.63975" lon="7.09976">
        <ele>2724.03</ele>
        <time>2022-08-20T08:21:17Z</time>
      </trkpt>
      <trkpt lat="44.63963" lon="7.09946">
        <ele>2722.59</ele>
        <time>2022-08-20T08:21:43Z</time>
      </trkpt>
      <trkpt lat="44.63944" lon="7.09928">
        <ele>2720.19</ele>
        <time>2022-08-20T08:22:06Z</time>
      </trkpt>
      <trkpt lat="44.63929" lon="7.09885">
        <ele>2717.3</ele>
        <time>2022-08-20T08:22:42Z</time>
      </trkpt>
      <trkpt lat="44.63923" lon="7.09846">
        <ele>2713.46</ele>
        <time>2022-08-20T08:23:13Z</time>
      </trkpt>
      <trkpt lat="44.63901" lon="7.0983">
        <ele>2712.5</ele>
        <time>2022-08-20T08:23:42Z</time>
      </trkpt>
      <trkpt lat="44.63885" lon="7.098">
        <ele>2711.06</ele>
        <time>2022-08-20T08:24:13Z</time>
      </trkpt>
      <trkpt lat="44.63871" lon="7.09768">
        <ele>2710.09</ele>
        <time>2022-08-20T08:24:46Z</time>
      </trkpt>
      <trkpt lat="44.63857" lon="7.09737">
        <ele>2709.61</ele>
        <time>2022-08-20T08:25:15Z</time>
      </trkpt>
      <trkpt lat="44.63859" lon="7.09705">
        <ele>2709.13</ele>
        <time>2022-08-20T08:25:56Z</time>
      </trkpt>
      <trkpt lat="44.63835" lon="7.09688">
        <ele>2708.65</ele>
        <time>2022-08-20T08:29:39Z</time>
      </trkpt>
      <trkpt lat="44.63812" lon="7.09677">
        <ele>2715.38</ele>
        <time>2022-08-20T08:30:46Z</time>
      </trkpt>
      <trkpt lat="44.63798" lon="7.0965">
        <ele>2712.98</ele>
        <time>2022-08-20T08:31:54Z</time>
      </trkpt>
      <trkpt lat="44.63788" lon="7.09613">
        <ele>2708.65</ele>
        <time>2022-08-20T08:32:31Z</time>
      </trkpt>
      <trkpt lat="44.63762" lon="7.09555">
        <ele>2695.19</ele>
        <time>2022-08-20T08:34:24Z</time>
      </trkpt>
      <trkpt lat="44.63743" lon="7.09531">
        <ele>2690.87</ele>
        <time>2022-08-20T08:35:04Z</time>
      </trkpt>
      <trkpt lat="44.63716" lon="7.09523">
        <ele>2685.58</ele>
        <time>2022-08-20T08:35:43Z</time>
      </trkpt>
      <trkpt lat="44.63696" lon="7.09505">
        <ele>2679.81</ele>
        <time>2022-08-20T08:36:25Z</time>
      </trkpt>
      <trkpt lat="44.63672" lon="7.09472">
        <ele>2669.72</ele>
        <time>2022-08-20T08:37:18Z</time>
      </trkpt>
      <trkpt lat="44.63662" lon="7.09438">
        <ele>2654.82</ele>
        <time>2022-08-20T08:38:56Z</time>
      </trkpt>
      <trkpt lat="44.63653" lon="7.09409">
        <ele>2646.17</ele>
        <time>2022-08-20T08:39:54Z</time>
      </trkpt>
      <trkpt lat="44.63624" lon="7.09374">
        <ele>2629.82</ele>
        <time>2022-08-20T08:41:35Z</time>
      </trkpt>
      <trkpt lat="44.63593" lon="7.09359">
        <ele>2613.48</ele>
        <time>2022-08-20T08:43:04Z</time>
      </trkpt>
      <trkpt lat="44.63561" lon="7.09317">
        <ele>2598.58</ele>
        <time>2022-08-20T08:45:11Z</time>
      </trkpt>
      <trkpt lat="44.6357" lon="7.09251">
        <ele>2599.06</ele>
        <time>2022-08-20T08:46:10Z</time>
      </trkpt>
      <trkpt lat="44.63567" lon="7.09194">
        <ele>2584.64</ele>
        <time>2022-08-20T08:47:30Z</time>
      </trkpt>
      <trkpt lat="44.63546" lon="7.09167">
        <ele>2578.39</ele>
        <time>2022-08-20T08:48:09Z</time>
      </trkpt>
      <trkpt lat="44.63526" lon="7.09145">
        <ele>2573.59</ele>
        <time>2022-08-20T08:54:15Z</time>
      </trkpt>
      <trkpt lat="44.63527" lon="7.09101">
        <ele>2569.74</ele>
        <time>2022-08-20T08:57:30Z</time>
      </trkpt>
      <trkpt lat="44.63522" lon="7.09067">
        <ele>2564.93</ele>
        <time>2022-08-20T08:58:03Z</time>
      </trkpt>
      <trkpt lat="44.63512" lon="7.09036">
        <ele>2558.69</ele>
        <time>2022-08-20T08:58:38Z</time>
      </trkpt>
      <trkpt lat="44.63486" lon="7.0899">
        <ele>2546.19</ele>
        <time>2022-08-20T08:59:48Z</time>
      </trkpt>
      <trkpt lat="44.6347" lon="7.0896">
        <ele>2539.94</ele>
        <time>2022-08-20T09:00:27Z</time>
      </trkpt>
      <trkpt lat="44.63454" lon="7.08937">
        <ele>2533.69</ele>
        <time>2022-08-20T09:01:00Z</time>
      </trkpt>
      <trkpt lat="44.6343" lon="7.08885">
        <ele>2524.56</ele>
        <time>2022-08-20T09:02:10Z</time>
      </trkpt>
      <trkpt lat="44.63412" lon="7.08855">
        <ele>2520.23</ele>
        <time>2022-08-20T09:02:44Z</time>
      </trkpt>
      <trkpt lat="44.63413" lon="7.08819">
        <ele>2511.58</ele>
        <time>2022-08-20T09:03:35Z</time>
      </trkpt>
      <trkpt lat="44.6342" lon="7.08764">
        <ele>2497.16</ele>
        <time>2022-08-20T09:05:14Z</time>
      </trkpt>
      <trkpt lat="44.63428" lon="7.08731">
        <ele>2488.03</ele>
        <time>2022-08-20T09:06:09Z</time>
      </trkpt>
      <trkpt lat="44.63435" lon="7.08696">
        <ele>2479.38</ele>
        <time>2022-08-20T09:07:16Z</time>
      </trkpt>
      <trkpt lat="44.63429" lon="7.08657">
        <ele>2468.32</ele>
        <time>2022-08-20T09:08:19Z</time>
      </trkpt>
      <trkpt lat="44.63433" lon="7.08621">
        <ele>2464</ele>
        <time>2022-08-20T09:08:49Z</time>
      </trkpt>
      <trkpt lat="44.63438" lon="7.08582">
        <ele>2459.19</ele>
        <time>2022-08-20T09:09:22Z</time>
      </trkpt>
      <trkpt lat="44.63444" lon="7.08546">
        <ele>2454.86</ele>
        <time>2022-08-20T09:09:50Z</time>
      </trkpt>
      <trkpt lat="44.63453" lon="7.08509">
        <ele>2452.46</ele>
        <time>2022-08-20T09:10:25Z</time>
      </trkpt>
      <trkpt lat="44.63459" lon="7.08467">
        <ele>2447.65</ele>
        <time>2022-08-20T09:11:08Z</time>
      </trkpt>
      <trkpt lat="44.63458" lon="7.08435">
        <ele>2441.89</ele>
        <time>2022-08-20T09:11:47Z</time>
      </trkpt>
      <trkpt lat="44.63428" lon="7.08406">
        <ele>2418.33</ele>
        <time>2022-08-20T09:13:48Z</time>
      </trkpt>
      <trkpt lat="44.63398" lon="7.08367">
        <ele>2397.67</ele>
        <time>2022-08-20T09:15:36Z</time>
      </trkpt>
      <trkpt lat="44.63387" lon="7.08305">
        <ele>2386.13</ele>
        <time>2022-08-20T09:16:55Z</time>
      </trkpt>
      <trkpt lat="44.63377" lon="7.0827">
        <ele>2378.44</ele>
        <time>2022-08-20T09:17:42Z</time>
      </trkpt>
      <trkpt lat="44.63363" lon="7.08236">
        <ele>2377</ele>
        <time>2022-08-20T09:18:14Z</time>
      </trkpt>
      <trkpt lat="44.63351" lon="7.08197">
        <ele>2378.92</ele>
        <time>2022-08-20T09:18:49Z</time>
      </trkpt>
      <trkpt lat="44.63334" lon="7.08151">
        <ele>2375.07</ele>
        <time>2022-08-20T09:19:56Z</time>
      </trkpt>
      <trkpt lat="44.63332" lon="7.08117">
        <ele>2373.15</ele>
        <time>2022-08-20T09:20:33Z</time>
      </trkpt>
      <trkpt lat="44.63318" lon="7.0809">
        <ele>2368.83</ele>
        <time>2022-08-20T09:21:11Z</time>
      </trkpt>
      <trkpt lat="44.63299" lon="7.08067">
        <ele>2363.54</ele>
        <time>2022-08-20T09:21:47Z</time>
      </trkpt>
      <trkpt lat="44.63279" lon="7.08041">
        <ele>2355.37</ele>
        <time>2022-08-20T09:22:27Z</time>
      </trkpt>
      <trkpt lat="44.6326" lon="7.08004">
        <ele>2346.72</ele>
        <time>2022-08-20T09:23:09Z</time>
      </trkpt>
      <trkpt lat="44.63242" lon="7.07982">
        <ele>2339.99</ele>
        <time>2022-08-20T09:23:47Z</time>
      </trkpt>
      <trkpt lat="44.63217" lon="7.07965">
        <ele>2333.26</ele>
        <time>2022-08-20T09:24:28Z</time>
      </trkpt>
      <trkpt lat="44.63193" lon="7.07935">
        <ele>2327.49</ele>
        <time>2022-08-20T09:25:06Z</time>
      </trkpt>
      <trkpt lat="44.63184" lon="7.07904">
        <ele>2324.12</ele>
        <time>2022-08-20T09:25:29Z</time>
      </trkpt>
      <trkpt lat="44.63165" lon="7.07834">
        <ele>2321.72</ele>
        <time>2022-08-20T09:26:29Z</time>
      </trkpt>
      <trkpt lat="44.63149" lon="7.0776">
        <ele>2314.03</ele>
        <time>2022-08-20T09:37:23Z</time>
      </trkpt>
      <trkpt lat="44.63144" lon="7.07729">
        <ele>2311.63</ele>
        <time>2022-08-20T09:37:48Z</time>
      </trkpt>
      <trkpt lat="44.63142" lon="7.07677">
        <ele>2308.74</ele>
        <time>2022-08-20T09:38:24Z</time>
      </trkpt>
      <trkpt lat="44.63144" lon="7.07642">
        <ele>2304.9</ele>
        <time>2022-08-20T09:38:57Z</time>
      </trkpt>
      <trkpt lat="44.63148" lon="7.07607">
        <ele>2300.09</ele>
        <time>2022-08-20T09:39:33Z</time>
      </trkpt>
      <trkpt lat="44.63137" lon="7.07575">
        <ele>2293.36</ele>
        <time>2022-08-20T09:40:23Z</time>
      </trkpt>
      <trkpt lat="44.63121" lon="7.07518">
        <ele>2278.46</ele>
        <time>2022-08-20T09:41:53Z</time>
      </trkpt>
      <trkpt lat="44.63109" lon="7.07458">
        <ele>2256.83</ele>
        <time>2022-08-20T09:43:47Z</time>
      </trkpt>
      <trkpt lat="44.63084" lon="7.07402">
        <ele>2241.93</ele>
        <time>2022-08-20T09:45:04Z</time>
      </trkpt>
      <trkpt lat="44.63068" lon="7.07374">
        <ele>2236.64</ele>
        <time>2022-08-20T09:45:37Z</time>
      </trkpt>
      <trkpt lat="44.63056" lon="7.07338">
        <ele>2230.88</ele>
        <time>2022-08-20T09:46:14Z</time>
      </trkpt>
      <trkpt lat="44.63061" lon="7.07303">
        <ele>2222.71</ele>
        <time>2022-08-20T09:46:57Z</time>
      </trkpt>
      <trkpt lat="44.63049" lon="7.07255">
        <ele>2205.88</ele>
        <time>2022-08-20T09:48:28Z</time>
      </trkpt>
      <trkpt lat="44.63039" lon="7.07226">
        <ele>2197.23</ele>
        <time>2022-08-20T09:49:15Z</time>
      </trkpt>
      <trkpt lat="44.63035" lon="7.07193">
        <ele>2189.06</ele>
        <time>2022-08-20T09:49:56Z</time>
      </trkpt>
      <trkpt lat="44.63001" lon="7.07165">
        <ele>2170.79</ele>
        <time>2022-08-20T09:51:33Z</time>
      </trkpt>
      <trkpt lat="44.62971" lon="7.07155">
        <ele>2162.62</ele>
        <time>2022-08-20T09:52:26Z</time>
      </trkpt>
      <trkpt lat="44.62947" lon="7.07181">
        <ele>2153.49</ele>
        <time>2022-08-20T09:53:17Z</time>
      </trkpt>
      <trkpt lat="44.62922" lon="7.07165">
        <ele>2147.24</ele>
        <time>2022-08-20T09:53:53Z</time>
      </trkpt>
      <trkpt lat="44.62898" lon="7.07159">
        <ele>2142.92</ele>
        <time>2022-08-20T09:54:36Z</time>
      </trkpt>
      <trkpt lat="44.62882" lon="7.07135">
        <ele>2140.03</ele>
        <time>2022-08-20T09:54:58Z</time>
      </trkpt>
      <trkpt lat="44.62869" lon="7.07104">
        <ele>2138.11</ele>
        <time>2022-08-20T09:55:25Z</time>
      </trkpt>
      <trkpt lat="44.62872" lon="7.07068">
        <ele>2128.98</ele>
        <time>2022-08-20T09:56:07Z</time>
      </trkpt>
      <trkpt lat="44.62865" lon="7.07039">
        <ele>2110.71</ele>
        <time>2022-08-20T09:57:53Z</time>
      </trkpt>
      <trkpt lat="44.62849" lon="7.07016">
        <ele>2094.37</ele>
        <time>2022-08-20T09:59:17Z</time>
      </trkpt>
      <trkpt lat="44.62825" lon="7.06967">
        <ele>2075.14</ele>
        <time>2022-08-20T10:00:44Z</time>
      </trkpt>
      <trkpt lat="44.62791" lon="7.06917">
        <ele>2058.8</ele>
        <time>2022-08-20T10:02:05Z</time>
      </trkpt>
      <trkpt lat="44.628" lon="7.06859">
        <ele>2048.71</ele>
        <time>2022-08-20T10:03:07Z</time>
      </trkpt>
      <trkpt lat="44.62781" lon="7.06804">
        <ele>2034.77</ele>
        <time>2022-08-20T10:04:30Z</time>
      </trkpt>
      <trkpt lat="44.62787" lon="7.06756">
        <ele>2032.36</ele>
        <time>2022-08-20T10:05:03Z</time>
      </trkpt>
      <trkpt lat="44.62791" lon="7.06717">
        <ele>2030.92</ele>
        <time>2022-08-20T10:05:30Z</time>
      </trkpt>
      <trkpt lat="44.62805" lon="7.06677">
        <ele>2027.56</ele>
        <time>2022-08-20T10:06:01Z</time>
      </trkpt>
      <trkpt lat="44.62821" lon="7.06653">
        <ele>2020.35</ele>
        <time>2022-08-20T10:06:43Z</time>
      </trkpt>
      <trkpt lat="44.62845" lon="7.06635">
        <ele>2014.1</ele>
        <time>2022-08-20T10:07:23Z</time>
      </trkpt>
      <trkpt lat="44.62872" lon="7.06633">
        <ele>2010.25</ele>
        <time>2022-08-20T10:07:48Z</time>
      </trkpt>
      <trkpt lat="44.62926" lon="7.06617">
        <ele>2004.01</ele>
        <time>2022-08-20T10:08:52Z</time>
      </trkpt>
      <trkpt lat="44.62953" lon="7.0661">
        <ele>2005.45</ele>
        <time>2022-08-20T10:09:19Z</time>
      </trkpt>
      <trkpt lat="44.62986" lon="7.06616">
        <ele>2006.89</ele>
        <time>2022-08-20T10:09:56Z</time>
      </trkpt>
      <trkpt lat="44.63019" lon="7.066">
        <ele>2004.49</ele>
        <time>2022-08-20T10:10:32Z</time>
      </trkpt>
      <trkpt lat="44.63043" lon="7.0659">
        <ele>2006.89</ele>
        <time>2022-08-20T10:10:57Z</time>
      </trkpt>
      <trkpt lat="44.63067" lon="7.06568">
        <ele>2005.45</ele>
        <time>2022-08-20T10:11:24Z</time>
      </trkpt>
      <trkpt lat="44.63095" lon="7.06551">
        <ele>2005.45</ele>
        <time>2022-08-20T10:11:54Z</time>
      </trkpt>
      <trkpt lat="44.63122" lon="7.06547">
        <ele>2002.56</ele>
        <time>2022-08-20T10:12:22Z</time>
      </trkpt>
      <trkpt lat="44.63146" lon="7.06522">
        <ele>2000.64</ele>
        <time>2022-08-20T10:12:53Z</time>
      </trkpt>
      <trkpt lat="44.63154" lon="7.06487">
        <ele>1995.83</ele>
        <time>2022-08-20T10:13:24Z</time>
      </trkpt>
      <trkpt lat="44.63168" lon="7.06453">
        <ele>1991.99</ele>
        <time>2022-08-20T10:13:54Z</time>
      </trkpt>
      <trkpt lat="44.63175" lon="7.0642">
        <ele>1987.66</ele>
        <time>2022-08-20T10:14:24Z</time>
      </trkpt>
      <trkpt lat="44.63212" lon="7.06372">
        <ele>1980.93</ele>
        <time>2022-08-20T10:15:16Z</time>
      </trkpt>
      <trkpt lat="44.63234" lon="7.06346">
        <ele>1975.65</ele>
        <time>2022-08-20T10:15:52Z</time>
      </trkpt>
      <trkpt lat="44.63253" lon="7.06326">
        <ele>1969.88</ele>
        <time>2022-08-20T10:16:20Z</time>
      </trkpt>
      <trkpt lat="44.63271" lon="7.06295">
        <ele>1966.51</ele>
        <time>2022-08-20T10:17:40Z</time>
      </trkpt>
      <trkpt lat="44.63306" lon="7.06291">
        <ele>1969.4</ele>
        <time>2022-08-20T10:19:57Z</time>
      </trkpt>
      <trkpt lat="44.6331" lon="7.06292">
        <ele>1962.67</ele>
        <time>2022-08-20T10:33:21Z</time>
      </trkpt>
      <trkpt lat="44.63308" lon="7.06303">
        <ele>1957.86</ele>
        <time>2022-08-20T10:53:48Z</time>
      </trkpt>
      <trkpt lat="44.6335" lon="7.06303">
        <ele>1955.94</ele>
        <time>2022-08-20T11:16:11Z</time>
      </trkpt>
      <trkpt lat="44.63377" lon="7.06308">
        <ele>1954.98</ele>
        <time>2022-08-20T11:16:48Z</time>
      </trkpt>
      <trkpt lat="44.634" lon="7.06317">
        <ele>1954.02</ele>
        <time>2022-08-20T11:17:20Z</time>
      </trkpt>
      <trkpt lat="44.63415" lon="7.06343">
        <ele>1951.13</ele>
        <time>2022-08-20T11:17:53Z</time>
      </trkpt>
      <trkpt lat="44.6344" lon="7.06344">
        <ele>1947.77</ele>
        <time>2022-08-20T11:18:33Z</time>
      </trkpt>
      <trkpt lat="44.63467" lon="7.06325">
        <ele>1941.52</ele>
        <time>2022-08-20T11:19:41Z</time>
      </trkpt>
      <trkpt lat="44.63498" lon="7.06319">
        <ele>1939.12</ele>
        <time>2022-08-20T11:20:16Z</time>
      </trkpt>
      <trkpt lat="44.63525" lon="7.06326">
        <ele>1937.67</ele>
        <time>2022-08-20T11:20:44Z</time>
      </trkpt>
      <trkpt lat="44.6355" lon="7.06312">
        <ele>1936.71</ele>
        <time>2022-08-20T11:21:29Z</time>
      </trkpt>
      <trkpt lat="44.63572" lon="7.06289">
        <ele>1935.75</ele>
        <time>2022-08-20T11:21:56Z</time>
      </trkpt>
      <trkpt lat="44.63587" lon="7.06264">
        <ele>1937.19</ele>
        <time>2022-08-20T11:22:28Z</time>
      </trkpt>
      <trkpt lat="44.63593" lon="7.06233">
        <ele>1939.6</ele>
        <time>2022-08-20T11:23:42Z</time>
      </trkpt>
      <trkpt lat="44.63616" lon="7.06217">
        <ele>1942.48</ele>
        <time>2022-08-20T11:24:22Z</time>
      </trkpt>
      <trkpt lat="44.63639" lon="7.06192">
        <ele>1948.73</ele>
        <time>2022-08-20T11:25:18Z</time>
      </trkpt>
      <trkpt lat="44.63663" lon="7.06173">
        <ele>1954.98</ele>
        <time>2022-08-20T11:26:13Z</time>
      </trkpt>
      <trkpt lat="44.63689" lon="7.06184">
        <ele>1960.27</ele>
        <time>2022-08-20T11:27:06Z</time>
      </trkpt>
      <trkpt lat="44.63725" lon="7.06193">
        <ele>1972.28</ele>
        <time>2022-08-20T11:28:51Z</time>
      </trkpt>
      <trkpt lat="44.63755" lon="7.06192">
        <ele>1979.97</ele>
        <time>2022-08-20T11:29:46Z</time>
      </trkpt>
      <trkpt lat="44.63783" lon="7.0618">
        <ele>1984.78</ele>
        <time>2022-08-20T11:30:24Z</time>
      </trkpt>
      <trkpt lat="44.63809" lon="7.06164">
        <ele>1985.26</ele>
        <time>2022-08-20T11:30:55Z</time>
      </trkpt>
      <trkpt lat="44.63839" lon="7.06153">
        <ele>1988.14</ele>
        <time>2022-08-20T11:31:31Z</time>
      </trkpt>
      <trkpt lat="44.63866" lon="7.0615">
        <ele>1993.43</ele>
        <time>2022-08-20T11:32:13Z</time>
      </trkpt>
      <trkpt lat="44.63903" lon="7.06152">
        <ele>1999.68</ele>
        <time>2022-08-20T11:33:14Z</time>
      </trkpt>
      <trkpt lat="44.63927" lon="7.06142">
        <ele>2002.56</ele>
        <time>2022-08-20T11:33:42Z</time>
      </trkpt>
      <trkpt lat="44.63974" lon="7.06148">
        <ele>2012.66</ele>
        <time>2022-08-20T11:35:05Z</time>
      </trkpt>
      <trkpt lat="44.64" lon="7.06161">
        <ele>2014.58</ele>
        <time>2022-08-20T11:35:35Z</time>
      </trkpt>
      <trkpt lat="44.64028" lon="7.06169">
        <ele>2013.62</ele>
        <time>2022-08-20T11:36:02Z</time>
      </trkpt>
      <trkpt lat="44.6405" lon="7.06193">
        <ele>2015.06</ele>
        <time>2022-08-20T11:36:31Z</time>
      </trkpt>
      <trkpt lat="44.64073" lon="7.0621">
        <ele>2018.43</ele>
        <time>2022-08-20T11:36:59Z</time>
      </trkpt>
      <trkpt lat="44.64096" lon="7.06209">
        <ele>2019.87</ele>
        <time>2022-08-20T11:37:21Z</time>
      </trkpt>
      <trkpt lat="44.64135" lon="7.06178">
        <ele>2022.75</ele>
        <time>2022-08-20T11:38:07Z</time>
      </trkpt>
      <trkpt lat="44.64166" lon="7.06174">
        <ele>2026.12</ele>
        <time>2022-08-20T11:38:41Z</time>
      </trkpt>
      <trkpt lat="44.64191" lon="7.06182">
        <ele>2029.48</ele>
        <time>2022-08-20T11:39:12Z</time>
      </trkpt>
      <trkpt lat="44.64203" lon="7.06152">
        <ele>2030.92</ele>
        <time>2022-08-20T11:39:40Z</time>
      </trkpt>
      <trkpt lat="44.64253" lon="7.06109">
        <ele>2034.29</ele>
        <time>2022-08-20T11:40:40Z</time>
      </trkpt>
      <trkpt lat="44.64277" lon="7.06079">
        <ele>2036.21</ele>
        <time>2022-08-20T11:41:13Z</time>
      </trkpt>
      <trkpt lat="44.64295" lon="7.06054">
        <ele>2039.57</ele>
        <time>2022-08-20T11:41:41Z</time>
      </trkpt>
      <trkpt lat="44.64323" lon="7.06057">
        <ele>2041.5</ele>
        <time>2022-08-20T11:42:14Z</time>
      </trkpt>
      <trkpt lat="44.64347" lon="7.06049">
        <ele>2048.23</ele>
        <time>2022-08-20T11:42:54Z</time>
      </trkpt>
      <trkpt lat="44.6438" lon="7.06043">
        <ele>2048.71</ele>
        <time>2022-08-20T11:43:27Z</time>
      </trkpt>
      <trkpt lat="44.64404" lon="7.0605">
        <ele>2053.99</ele>
        <time>2022-08-20T11:44:05Z</time>
      </trkpt>
      <trkpt lat="44.6443" lon="7.06067">
        <ele>2058.32</ele>
        <time>2022-08-20T11:44:47Z</time>
      </trkpt>
      <trkpt lat="44.64457" lon="7.06075">
        <ele>2062.17</ele>
        <time>2022-08-20T11:45:25Z</time>
      </trkpt>
      <trkpt lat="44.64481" lon="7.06095">
        <ele>2070.82</ele>
        <time>2022-08-20T11:46:24Z</time>
      </trkpt>
      <trkpt lat="44.64525" lon="7.06111">
        <ele>2081.39</ele>
        <time>2022-08-20T11:47:50Z</time>
      </trkpt>
      <trkpt lat="44.64561" lon="7.06101">
        <ele>2085.72</ele>
        <time>2022-08-20T11:48:28Z</time>
      </trkpt>
      <trkpt lat="44.64585" lon="7.06088">
        <ele>2087.16</ele>
        <time>2022-08-20T11:48:51Z</time>
      </trkpt>
      <trkpt lat="44.64608" lon="7.06099">
        <ele>2089.08</ele>
        <time>2022-08-20T11:49:20Z</time>
      </trkpt>
      <trkpt lat="44.64627" lon="7.06121">
        <ele>2093.89</ele>
        <time>2022-08-20T11:49:49Z</time>
      </trkpt>
      <trkpt lat="44.6466" lon="7.06128">
        <ele>2097.73</ele>
        <time>2022-08-20T11:50:27Z</time>
      </trkpt>
      <trkpt lat="44.64685" lon="7.06128">
        <ele>2103.02</ele>
        <time>2022-08-20T11:51:06Z</time>
      </trkpt>
      <trkpt lat="44.64708" lon="7.06123">
        <ele>2105.91</ele>
        <time>2022-08-20T11:51:34Z</time>
      </trkpt>
      <trkpt lat="44.64731" lon="7.06128">
        <ele>2108.31</ele>
        <time>2022-08-20T11:52:01Z</time>
      </trkpt>
      <trkpt lat="44.64765" lon="7.06113">
        <ele>2111.19</ele>
        <time>2022-08-20T11:52:35Z</time>
      </trkpt>
      <trkpt lat="44.64788" lon="7.06112">
        <ele>2112.15</ele>
        <time>2022-08-20T11:53:00Z</time>
      </trkpt>
      <trkpt lat="44.64811" lon="7.06117">
        <ele>2114.08</ele>
        <time>2022-08-20T11:53:23Z</time>
      </trkpt>
      <trkpt lat="44.64839" lon="7.06112">
        <ele>2115.04</ele>
        <time>2022-08-20T11:53:47Z</time>
      </trkpt>
      <trkpt lat="44.64876" lon="7.06102">
        <ele>2116</ele>
        <time>2022-08-20T11:54:21Z</time>
      </trkpt>
      <trkpt lat="44.64908" lon="7.06085">
        <ele>2116</ele>
        <time>2022-08-20T11:54:51Z</time>
      </trkpt>
      <trkpt lat="44.64944" lon="7.06062">
        <ele>2116</ele>
        <time>2022-08-20T11:55:23Z</time>
      </trkpt>
      <trkpt lat="44.64986" lon="7.06048">
        <ele>2116</ele>
        <time>2022-08-20T11:56:01Z</time>
      </trkpt>
      <trkpt lat="44.65021" lon="7.06036">
        <ele>2116.48</ele>
        <time>2022-08-20T11:56:30Z</time>
      </trkpt>
      <trkpt lat="44.65056" lon="7.06022">
        <ele>2119.36</ele>
        <time>2022-08-20T11:57:03Z</time>
      </trkpt>
      <trkpt lat="44.65094" lon="7.06019">
        <ele>2119.84</ele>
        <time>2022-08-20T11:57:37Z</time>
      </trkpt>
      <trkpt lat="44.65128" lon="7.06009">
        <ele>2122.73</ele>
        <time>2022-08-20T11:58:09Z</time>
      </trkpt>
      <trkpt lat="44.6516" lon="7.06012">
        <ele>2126.57</ele>
        <time>2022-08-20T11:58:44Z</time>
      </trkpt>
      <trkpt lat="44.6519" lon="7.06013">
        <ele>2129.46</ele>
        <time>2022-08-20T11:59:13Z</time>
      </trkpt>
      <trkpt lat="44.65214" lon="7.06018">
        <ele>2130.9</ele>
        <time>2022-08-20T11:59:37Z</time>
      </trkpt>
      <trkpt lat="44.65243" lon="7.06021">
        <ele>2133.3</ele>
        <time>2022-08-20T12:00:05Z</time>
      </trkpt>
      <trkpt lat="44.65274" lon="7.06025">
        <ele>2134.26</ele>
        <time>2022-08-20T12:00:32Z</time>
      </trkpt>
      <trkpt lat="44.6531" lon="7.0602">
        <ele>2136.19</ele>
        <time>2022-08-20T12:01:04Z</time>
      </trkpt>
      <trkpt lat="44.6534" lon="7.0602">
        <ele>2140.03</ele>
        <time>2022-08-20T12:01:33Z</time>
      </trkpt>
      <trkpt lat="44.65364" lon="7.06022">
        <ele>2142.92</ele>
        <time>2022-08-20T12:01:58Z</time>
      </trkpt>
      <trkpt lat="44.65388" lon="7.06025">
        <ele>2145.8</ele>
        <time>2022-08-20T12:02:25Z</time>
      </trkpt>
      <trkpt lat="44.65418" lon="7.06026">
        <ele>2151.57</ele>
        <time>2022-08-20T12:03:06Z</time>
      </trkpt>
      <trkpt lat="44.65444" lon="7.06019">
        <ele>2157.34</ele>
        <time>2022-08-20T12:03:45Z</time>
      </trkpt>
      <trkpt lat="44.6547" lon="7.05996">
        <ele>2164.55</ele>
        <time>2022-08-20T12:04:35Z</time>
      </trkpt>
      <trkpt lat="44.65493" lon="7.05991">
        <ele>2169.35</ele>
        <time>2022-08-20T12:05:15Z</time>
      </trkpt>
      <trkpt lat="44.65517" lon="7.05992">
        <ele>2174.16</ele>
        <time>2022-08-20T12:05:51Z</time>
      </trkpt>
      <trkpt lat="44.65546" lon="7.05998">
        <ele>2180.89</ele>
        <time>2022-08-20T12:06:37Z</time>
      </trkpt>
      <trkpt lat="44.65574" lon="7.06009">
        <ele>2185.69</ele>
        <time>2022-08-20T12:07:16Z</time>
      </trkpt>
      <trkpt lat="44.65607" lon="7.06017">
        <ele>2190.02</ele>
        <time>2022-08-20T12:07:54Z</time>
      </trkpt>
      <trkpt lat="44.65603" lon="7.0598">
        <ele>2193.87</ele>
        <time>2022-08-20T12:08:29Z</time>
      </trkpt>
      <trkpt lat="44.6564" lon="7.05984">
        <ele>2205.88</ele>
        <time>2022-08-20T12:09:54Z</time>
      </trkpt>
      <trkpt lat="44.65662" lon="7.06011">
        <ele>2211.17</ele>
        <time>2022-08-20T12:10:30Z</time>
      </trkpt>
      <trkpt lat="44.65688" lon="7.06017">
        <ele>2215.98</ele>
        <time>2022-08-20T12:11:05Z</time>
      </trkpt>
      <trkpt lat="44.65715" lon="7.06022">
        <ele>2220.3</ele>
        <time>2022-08-20T12:11:38Z</time>
      </trkpt>
      <trkpt lat="44.6574" lon="7.06032">
        <ele>2225.11</ele>
        <time>2022-08-20T12:12:09Z</time>
      </trkpt>
      <trkpt lat="44.65768" lon="7.0604">
        <ele>2230.4</ele>
        <time>2022-08-20T12:12:49Z</time>
      </trkpt>
      <trkpt lat="44.65792" lon="7.06037">
        <ele>2235.68</ele>
        <time>2022-08-20T12:13:24Z</time>
      </trkpt>
      <trkpt lat="44.65817" lon="7.06023">
        <ele>2241.45</ele>
        <time>2022-08-20T12:14:03Z</time>
      </trkpt>
      <trkpt lat="44.65842" lon="7.06019">
        <ele>2249.14</ele>
        <time>2022-08-20T12:14:56Z</time>
      </trkpt>
      <trkpt lat="44.65864" lon="7.06027">
        <ele>2254.91</ele>
        <time>2022-08-20T12:15:37Z</time>
      </trkpt>
      <trkpt lat="44.65887" lon="7.06032">
        <ele>2262.12</ele>
        <time>2022-08-20T12:16:22Z</time>
      </trkpt>
      <trkpt lat="44.65913" lon="7.06037">
        <ele>2267.41</ele>
        <time>2022-08-20T12:16:59Z</time>
      </trkpt>
      <trkpt lat="44.65939" lon="7.06029">
        <ele>2280.38</ele>
        <time>2022-08-20T12:18:24Z</time>
      </trkpt>
      <trkpt lat="44.65967" lon="7.06027">
        <ele>2291.92</ele>
        <time>2022-08-20T12:19:40Z</time>
      </trkpt>
      <trkpt lat="44.66007" lon="7.06056">
        <ele>2304.42</ele>
        <time>2022-08-20T12:21:03Z</time>
      </trkpt>
      <trkpt lat="44.66052" lon="7.06049">
        <ele>2314.51</ele>
        <time>2022-08-20T12:22:10Z</time>
      </trkpt>
      <trkpt lat="44.66078" lon="7.06058">
        <ele>2317.88</ele>
        <time>2022-08-20T12:22:45Z</time>
      </trkpt>
      <trkpt lat="44.66107" lon="7.06074">
        <ele>2320.76</ele>
        <time>2022-08-20T12:23:19Z</time>
      </trkpt>
      <trkpt lat="44.66133" lon="7.06089">
        <ele>2323.64</ele>
        <time>2022-08-20T12:23:49Z</time>
      </trkpt>
      <trkpt lat="44.6616" lon="7.06099">
        <ele>2328.93</ele>
        <time>2022-08-20T12:24:20Z</time>
      </trkpt>
      <trkpt lat="44.66182" lon="7.06098">
        <ele>2332.3</ele>
        <time>2022-08-20T12:24:49Z</time>
      </trkpt>
      <trkpt lat="44.66209" lon="7.06106">
        <ele>2335.18</ele>
        <time>2022-08-20T12:25:17Z</time>
      </trkpt>
      <trkpt lat="44.6624" lon="7.0611">
        <ele>2339.51</ele>
        <time>2022-08-20T12:25:54Z</time>
      </trkpt>
      <trkpt lat="44.66276" lon="7.06116">
        <ele>2342.87</ele>
        <time>2022-08-20T12:26:35Z</time>
      </trkpt>
      <trkpt lat="44.66306" lon="7.0612">
        <ele>2346.72</ele>
        <time>2022-08-20T12:27:09Z</time>
      </trkpt>
      <trkpt lat="44.66332" lon="7.06129">
        <ele>2349.6</ele>
        <time>2022-08-20T12:27:39Z</time>
      </trkpt>
      <trkpt lat="44.66356" lon="7.06133">
        <ele>2350.56</ele>
        <time>2022-08-20T12:27:59Z</time>
      </trkpt>
      <trkpt lat="44.66376" lon="7.06148">
        <ele>2353.44</ele>
        <time>2022-08-20T12:28:30Z</time>
      </trkpt>
      <trkpt lat="44.66396" lon="7.06167">
        <ele>2357.77</ele>
        <time>2022-08-20T12:29:09Z</time>
      </trkpt>
      <trkpt lat="44.66413" lon="7.06189">
        <ele>2364.5</ele>
        <time>2022-08-20T12:29:58Z</time>
      </trkpt>
      <trkpt lat="44.66426" lon="7.06218">
        <ele>2372.67</ele>
        <time>2022-08-20T12:30:49Z</time>
      </trkpt>
      <trkpt lat="44.66452" lon="7.06215">
        <ele>2382.76</ele>
        <time>2022-08-20T12:31:56Z</time>
      </trkpt>
      <trkpt lat="44.66478" lon="7.0622">
        <ele>2388.05</ele>
        <time>2022-08-20T12:32:46Z</time>
      </trkpt>
      <trkpt lat="44.66506" lon="7.06234">
        <ele>2395.74</ele>
        <time>2022-08-20T12:33:43Z</time>
      </trkpt>
      <trkpt lat="44.6653" lon="7.06249">
        <ele>2398.63</ele>
        <time>2022-08-20T12:34:18Z</time>
      </trkpt>
      <trkpt lat="44.66551" lon="7.0627">
        <ele>2403.91</ele>
        <time>2022-08-20T12:35:02Z</time>
      </trkpt>
      <trkpt lat="44.66571" lon="7.06297">
        <ele>2408.72</ele>
        <time>2022-08-20T12:35:38Z</time>
      </trkpt>
      <trkpt lat="44.6659" lon="7.06335">
        <ele>2411.12</ele>
        <time>2022-08-20T12:36:09Z</time>
      </trkpt>
      <trkpt lat="44.666" lon="7.06368">
        <ele>2414.49</ele>
        <time>2022-08-20T12:36:36Z</time>
      </trkpt>
      <trkpt lat="44.66586" lon="7.06405">
        <ele>2421.22</ele>
        <time>2022-08-20T12:37:24Z</time>
      </trkpt>
      <trkpt lat="44.66563" lon="7.06442">
        <ele>2432.75</ele>
        <time>2022-08-20T12:47:24Z</time>
      </trkpt>
      <trkpt lat="44.66592" lon="7.06427">
        <ele>2451.02</ele>
        <time>2022-08-21T05:45:56Z</time>
      </trkpt>
      <trkpt lat="44.66611" lon="7.06408">
        <ele>2449.58</ele>
        <time>2022-08-21T05:46:27Z</time>
      </trkpt>
      <trkpt lat="44.66629" lon="7.06388">
        <ele>2450.06</ele>
        <time>2022-08-21T05:47:02Z</time>
      </trkpt>
      <trkpt lat="44.66651" lon="7.06399">
        <ele>2454.38</ele>
        <time>2022-08-21T05:47:33Z</time>
      </trkpt>
      <trkpt lat="44.66678" lon="7.06407">
        <ele>2457.27</ele>
        <time>2022-08-21T05:48:11Z</time>
      </trkpt>
      <trkpt lat="44.66709" lon="7.06402">
        <ele>2462.55</ele>
        <time>2022-08-21T05:49:04Z</time>
      </trkpt>
      <trkpt lat="44.66738" lon="7.06403">
        <ele>2468.32</ele>
        <time>2022-08-21T05:49:48Z</time>
      </trkpt>
      <trkpt lat="44.66768" lon="7.06401">
        <ele>2472.17</ele>
        <time>2022-08-21T05:50:30Z</time>
      </trkpt>
      <trkpt lat="44.66797" lon="7.06404">
        <ele>2475.53</ele>
        <time>2022-08-21T05:51:09Z</time>
      </trkpt>
      <trkpt lat="44.66824" lon="7.06406">
        <ele>2481.78</ele>
        <time>2022-08-21T05:51:54Z</time>
      </trkpt>
      <trkpt lat="44.66849" lon="7.0641">
        <ele>2485.63</ele>
        <time>2022-08-21T05:52:31Z</time>
      </trkpt>
      <trkpt lat="44.66877" lon="7.06413">
        <ele>2488.51</ele>
        <time>2022-08-21T05:53:07Z</time>
      </trkpt>
      <trkpt lat="44.66903" lon="7.06417">
        <ele>2493.32</ele>
        <time>2022-08-21T05:53:46Z</time>
      </trkpt>
      <trkpt lat="44.6693" lon="7.06419">
        <ele>2497.64</ele>
        <time>2022-08-21T05:54:27Z</time>
      </trkpt>
      <trkpt lat="44.66954" lon="7.06428">
        <ele>2502.93</ele>
        <time>2022-08-21T05:55:07Z</time>
      </trkpt>
      <trkpt lat="44.66981" lon="7.06438">
        <ele>2508.7</ele>
        <time>2022-08-21T05:56:02Z</time>
      </trkpt>
      <trkpt lat="44.67005" lon="7.06447">
        <ele>2516.39</ele>
        <time>2022-08-21T05:56:53Z</time>
      </trkpt>
      <trkpt lat="44.67024" lon="7.06471">
        <ele>2522.64</ele>
        <time>2022-08-21T05:57:40Z</time>
      </trkpt>
      <trkpt lat="44.67052" lon="7.06479">
        <ele>2529.85</ele>
        <time>2022-08-21T05:58:40Z</time>
      </trkpt>
      <trkpt lat="44.67081" lon="7.06484">
        <ele>2534.65</ele>
        <time>2022-08-21T05:59:26Z</time>
      </trkpt>
      <trkpt lat="44.6711" lon="7.06497">
        <ele>2537.06</ele>
        <time>2022-08-21T06:00:05Z</time>
      </trkpt>
      <trkpt lat="44.67136" lon="7.06515">
        <ele>2537.54</ele>
        <time>2022-08-21T06:00:49Z</time>
      </trkpt>
      <trkpt lat="44.6716" lon="7.06531">
        <ele>2542.34</ele>
        <time>2022-08-21T06:01:25Z</time>
      </trkpt>
      <trkpt lat="44.67168" lon="7.0656">
        <ele>2545.23</ele>
        <time>2022-08-21T06:02:00Z</time>
      </trkpt>
      <trkpt lat="44.6718" lon="7.06591">
        <ele>2550.03</ele>
        <time>2022-08-21T06:02:40Z</time>
      </trkpt>
      <trkpt lat="44.672" lon="7.06605">
        <ele>2557.73</ele>
        <time>2022-08-21T06:03:29Z</time>
      </trkpt>
      <trkpt lat="44.67225" lon="7.06617">
        <ele>2567.82</ele>
        <time>2022-08-21T06:04:40Z</time>
      </trkpt>
      <trkpt lat="44.67242" lon="7.06639">
        <ele>2575.03</ele>
        <time>2022-08-21T06:05:40Z</time>
      </trkpt>
      <trkpt lat="44.67266" lon="7.06651">
        <ele>2590.89</ele>
        <time>2022-08-21T06:07:51Z</time>
      </trkpt>
      <trkpt lat="44.67281" lon="7.06624">
        <ele>2602.91</ele>
        <time>2022-08-21T06:09:37Z</time>
      </trkpt>
      <trkpt lat="44.67297" lon="7.0668">
        <ele>2612.52</ele>
        <time>2022-08-21T06:11:10Z</time>
      </trkpt>
      <trkpt lat="44.6731" lon="7.0665">
        <ele>2621.65</ele>
        <time>2022-08-21T06:12:38Z</time>
      </trkpt>
      <trkpt lat="44.67334" lon="7.06679">
        <ele>2634.63</ele>
        <time>2022-08-21T06:14:21Z</time>
      </trkpt>
      <trkpt lat="44.67353" lon="7.06678">
        <ele>2649.05</ele>
        <time>2022-08-21T06:16:14Z</time>
      </trkpt>
      <trkpt lat="44.67392" lon="7.06686">
        <ele>2668.76</ele>
        <time>2022-08-21T06:18:37Z</time>
      </trkpt>
      <trkpt lat="44.67413" lon="7.06701">
        <ele>2676.45</ele>
        <time>2022-08-21T06:19:35Z</time>
      </trkpt>
      <trkpt lat="44.67452" lon="7.06738">
        <ele>2688.94</ele>
        <time>2022-08-21T06:21:09Z</time>
      </trkpt>
      <trkpt lat="44.6747" lon="7.06762">
        <ele>2694.71</ele>
        <time>2022-08-21T06:21:58Z</time>
      </trkpt>
      <trkpt lat="44.67491" lon="7.06788">
        <ele>2703.36</ele>
        <time>2022-08-21T06:22:58Z</time>
      </trkpt>
      <trkpt lat="44.67524" lon="7.06772">
        <ele>2721.63</ele>
        <time>2022-08-21T06:25:11Z</time>
      </trkpt>
      <trkpt lat="44.67559" lon="7.06809">
        <ele>2732.2</ele>
        <time>2022-08-21T06:26:44Z</time>
      </trkpt>
      <trkpt lat="44.6758" lon="7.06827">
        <ele>2737.97</ele>
        <time>2022-08-21T06:27:30Z</time>
      </trkpt>
      <trkpt lat="44.67602" lon="7.06845">
        <ele>2745.18</ele>
        <time>2022-08-21T06:28:19Z</time>
      </trkpt>
      <trkpt lat="44.67622" lon="7.06862">
        <ele>2749.03</ele>
        <time>2022-08-21T06:28:59Z</time>
      </trkpt>
      <trkpt lat="44.67645" lon="7.06862">
        <ele>2754.8</ele>
        <time>2022-08-21T06:29:43Z</time>
      </trkpt>
      <trkpt lat="44.67668" lon="7.06862">
        <ele>2759.12</ele>
        <time>2022-08-21T06:30:21Z</time>
      </trkpt>
      <trkpt lat="44.67659" lon="7.06832">
        <ele>2770.18</ele>
        <time>2022-08-21T06:31:56Z</time>
      </trkpt>
      <trkpt lat="44.67684" lon="7.06825">
        <ele>2775.94</ele>
        <time>2022-08-21T06:32:44Z</time>
      </trkpt>
      <trkpt lat="44.67707" lon="7.06818">
        <ele>2782.67</ele>
        <time>2022-08-21T06:33:30Z</time>
      </trkpt>
      <trkpt lat="44.67731" lon="7.06819">
        <ele>2789.4</ele>
        <time>2022-08-21T06:34:18Z</time>
      </trkpt>
      <trkpt lat="44.67754" lon="7.06821">
        <ele>2794.69</ele>
        <time>2022-08-21T06:34:56Z</time>
      </trkpt>
      <trkpt lat="44.67789" lon="7.06831">
        <ele>2798.54</ele>
        <time>2022-08-21T06:35:38Z</time>
      </trkpt>
      <trkpt lat="44.67814" lon="7.06832">
        <ele>2800.94</ele>
        <time>2022-08-21T06:36:04Z</time>
      </trkpt>
      <trkpt lat="44.67837" lon="7.06833">
        <ele>2804.3</ele>
        <time>2022-08-21T06:36:34Z</time>
      </trkpt>
      <trkpt lat="44.67866" lon="7.06836">
        <ele>2811.51</ele>
        <time>2022-08-21T06:37:21Z</time>
      </trkpt>
      <trkpt lat="44.67905" lon="7.06871">
        <ele>2827.37</ele>
        <time>2022-08-21T06:39:26Z</time>
      </trkpt>
      <trkpt lat="44.67923" lon="7.06891">
        <ele>2833.14</ele>
        <time>2022-08-21T06:40:32Z</time>
      </trkpt>
      <trkpt lat="44.67906" lon="7.06838">
        <ele>2835.06</ele>
        <time>2022-08-21T06:43:38Z</time>
      </trkpt>
      <trkpt lat="44.67914" lon="7.06856">
        <ele>2836.99</ele>
        <time>2022-08-21T06:47:41Z</time>
      </trkpt>
      <trkpt lat="44.67923" lon="7.06898">
        <ele>2834.1</ele>
        <time>2022-08-21T06:48:15Z</time>
      </trkpt>
      <trkpt lat="44.67944" lon="7.06933">
        <ele>2836.51</ele>
        <time>2022-08-21T06:48:56Z</time>
      </trkpt>
      <trkpt lat="44.67959" lon="7.06965">
        <ele>2832.18</ele>
        <time>2022-08-21T06:49:32Z</time>
      </trkpt>
      <trkpt lat="44.67965" lon="7.07002">
        <ele>2828.34</ele>
        <time>2022-08-21T06:50:09Z</time>
      </trkpt>
      <trkpt lat="44.6798" lon="7.07012">
        <ele>2826.41</ele>
        <time>2022-08-21T06:56:55Z</time>
      </trkpt>
      <trkpt lat="44.68001" lon="7.07002">
        <ele>2826.41</ele>
        <time>2022-08-21T07:05:27Z</time>
      </trkpt>
      <trkpt lat="44.68024" lon="7.06986">
        <ele>2821.61</ele>
        <time>2022-08-21T07:06:05Z</time>
      </trkpt>
      <trkpt lat="44.68046" lon="7.06961">
        <ele>2817.76</ele>
        <time>2022-08-21T07:06:43Z</time>
      </trkpt>
      <trkpt lat="44.68065" lon="7.06943">
        <ele>2815.84</ele>
        <time>2022-08-21T07:07:19Z</time>
      </trkpt>
      <trkpt lat="44.68085" lon="7.0692">
        <ele>2805.26</ele>
        <time>2022-08-21T07:08:33Z</time>
      </trkpt>
      <trkpt lat="44.68104" lon="7.06897">
        <ele>2794.69</ele>
        <time>2022-08-21T07:09:26Z</time>
      </trkpt>
      <trkpt lat="44.68126" lon="7.06838">
        <ele>2782.67</ele>
        <time>2022-08-21T07:10:39Z</time>
      </trkpt>
      <trkpt lat="44.68141" lon="7.06813">
        <ele>2774.98</ele>
        <time>2022-08-21T07:11:15Z</time>
      </trkpt>
      <trkpt lat="44.68152" lon="7.06785">
        <ele>2773.06</ele>
        <time>2022-08-21T07:11:39Z</time>
      </trkpt>
      <trkpt lat="44.68169" lon="7.06762">
        <ele>2768.25</ele>
        <time>2022-08-21T07:12:17Z</time>
      </trkpt>
      <trkpt lat="44.68182" lon="7.06734">
        <ele>2765.85</ele>
        <time>2022-08-21T07:13:09Z</time>
      </trkpt>
      <trkpt lat="44.68197" lon="7.06708">
        <ele>2763.45</ele>
        <time>2022-08-21T07:13:47Z</time>
      </trkpt>
      <trkpt lat="44.68216" lon="7.0665">
        <ele>2760.56</ele>
        <time>2022-08-21T07:14:53Z</time>
      </trkpt>
      <trkpt lat="44.68232" lon="7.06603">
        <ele>2752.87</ele>
        <time>2022-08-21T07:16:59Z</time>
      </trkpt>
      <trkpt lat="44.68249" lon="7.06579">
        <ele>2742.78</ele>
        <time>2022-08-21T07:18:04Z</time>
      </trkpt>
      <trkpt lat="44.68279" lon="7.06568">
        <ele>2731.24</ele>
        <time>2022-08-21T07:20:40Z</time>
      </trkpt>
      <trkpt lat="44.68306" lon="7.06569">
        <ele>2720.67</ele>
        <time>2022-08-21T07:21:27Z</time>
      </trkpt>
      <trkpt lat="44.68319" lon="7.06543">
        <ele>2715.86</ele>
        <time>2022-08-21T07:22:06Z</time>
      </trkpt>
      <trkpt lat="44.68317" lon="7.06507">
        <ele>2713.94</ele>
        <time>2022-08-21T07:22:41Z</time>
      </trkpt>
      <trkpt lat="44.68331" lon="7.06443">
        <ele>2711.06</ele>
        <time>2022-08-21T07:23:43Z</time>
      </trkpt>
      <trkpt lat="44.68342" lon="7.06413">
        <ele>2707.69</ele>
        <time>2022-08-21T07:24:14Z</time>
      </trkpt>
      <trkpt lat="44.68358" lon="7.06383">
        <ele>2701.92</ele>
        <time>2022-08-21T07:24:45Z</time>
      </trkpt>
      <trkpt lat="44.68366" lon="7.06347">
        <ele>2695.67</ele>
        <time>2022-08-21T07:25:23Z</time>
      </trkpt>
      <trkpt lat="44.6837" lon="7.06311">
        <ele>2693.27</ele>
        <time>2022-08-21T07:25:48Z</time>
      </trkpt>
      <trkpt lat="44.68401" lon="7.06266">
        <ele>2677.41</ele>
        <time>2022-08-21T07:27:00Z</time>
      </trkpt>
      <trkpt lat="44.68422" lon="7.06244">
        <ele>2664.91</ele>
        <time>2022-08-21T07:27:57Z</time>
      </trkpt>
      <trkpt lat="44.68434" lon="7.06205">
        <ele>2659.14</ele>
        <time>2022-08-21T07:28:39Z</time>
      </trkpt>
      <trkpt lat="44.68477" lon="7.06172">
        <ele>2645.69</ele>
        <time>2022-08-21T07:29:58Z</time>
      </trkpt>
      <trkpt lat="44.68508" lon="7.06165">
        <ele>2627.9</ele>
        <time>2022-08-21T07:31:25Z</time>
      </trkpt>
      <trkpt lat="44.68512" lon="7.06197">
        <ele>2621.17</ele>
        <time>2022-08-21T07:31:56Z</time>
      </trkpt>
      <trkpt lat="44.68512" lon="7.06235">
        <ele>2614.44</ele>
        <time>2022-08-21T07:32:32Z</time>
      </trkpt>
      <trkpt lat="44.68547" lon="7.06212">
        <ele>2595.7</ele>
        <time>2022-08-21T07:34:03Z</time>
      </trkpt>
      <trkpt lat="44.68571" lon="7.06253">
        <ele>2581.76</ele>
        <time>2022-08-21T07:35:22Z</time>
      </trkpt>
      <trkpt lat="44.68576" lon="7.0629">
        <ele>2575.51</ele>
        <time>2022-08-21T07:35:57Z</time>
      </trkpt>
      <trkpt lat="44.68584" lon="7.06322">
        <ele>2569.74</ele>
        <time>2022-08-21T07:36:27Z</time>
      </trkpt>
      <trkpt lat="44.68581" lon="7.06362">
        <ele>2563.49</ele>
        <time>2022-08-21T07:37:04Z</time>
      </trkpt>
      <trkpt lat="44.68578" lon="7.06395">
        <ele>2557.73</ele>
        <time>2022-08-21T07:37:40Z</time>
      </trkpt>
      <trkpt lat="44.68581" lon="7.06436">
        <ele>2550.51</ele>
        <time>2022-08-21T07:38:17Z</time>
      </trkpt>
      <trkpt lat="44.68586" lon="7.06471">
        <ele>2545.23</ele>
        <time>2022-08-21T07:38:49Z</time>
      </trkpt>
      <trkpt lat="44.68601" lon="7.065">
        <ele>2538.5</ele>
        <time>2022-08-21T07:39:25Z</time>
      </trkpt>
      <trkpt lat="44.6862" lon="7.06474">
        <ele>2534.65</ele>
        <time>2022-08-21T07:39:54Z</time>
      </trkpt>
      <trkpt lat="44.68654" lon="7.06474">
        <ele>2530.81</ele>
        <time>2022-08-21T07:40:31Z</time>
      </trkpt>
      <trkpt lat="44.68682" lon="7.06469">
        <ele>2528.4</ele>
        <time>2022-08-21T07:40:59Z</time>
      </trkpt>
      <trkpt lat="44.68707" lon="7.06471">
        <ele>2527.92</ele>
        <time>2022-08-21T07:41:27Z</time>
      </trkpt>
      <trkpt lat="44.68729" lon="7.06473">
        <ele>2525.04</ele>
        <time>2022-08-21T07:51:43Z</time>
      </trkpt>
      <trkpt lat="44.68752" lon="7.06441">
        <ele>2521.19</ele>
        <time>2022-08-21T08:11:18Z</time>
      </trkpt>
      <trkpt lat="44.68754" lon="7.06406">
        <ele>2520.71</ele>
        <time>2022-08-21T08:11:51Z</time>
      </trkpt>
      <trkpt lat="44.68764" lon="7.06368">
        <ele>2518.31</ele>
        <time>2022-08-21T08:12:25Z</time>
      </trkpt>
      <trkpt lat="44.68776" lon="7.06329">
        <ele>2511.58</ele>
        <time>2022-08-21T08:13:19Z</time>
      </trkpt>
      <trkpt lat="44.68784" lon="7.06285">
        <ele>2507.74</ele>
        <time>2022-08-21T08:13:44Z</time>
      </trkpt>
      <trkpt lat="44.68792" lon="7.06254">
        <ele>2502.93</ele>
        <time>2022-08-21T08:14:08Z</time>
      </trkpt>
      <trkpt lat="44.68808" lon="7.0621">
        <ele>2495.72</ele>
        <time>2022-08-21T08:14:42Z</time>
      </trkpt>
      <trkpt lat="44.68832" lon="7.06184">
        <ele>2488.51</ele>
        <time>2022-08-21T08:15:17Z</time>
      </trkpt>
      <trkpt lat="44.68859" lon="7.06152">
        <ele>2481.3</ele>
        <time>2022-08-21T08:15:57Z</time>
      </trkpt>
      <trkpt lat="44.6888" lon="7.06113">
        <ele>2478.42</ele>
        <time>2022-08-21T08:16:28Z</time>
      </trkpt>
      <trkpt lat="44.68895" lon="7.06085">
        <ele>2474.09</ele>
        <time>2022-08-21T08:17:01Z</time>
      </trkpt>
      <trkpt lat="44.68909" lon="7.06059">
        <ele>2472.65</ele>
        <time>2022-08-21T08:18:55Z</time>
      </trkpt>
      <trkpt lat="44.68921" lon="7.06025">
        <ele>2469.76</ele>
        <time>2022-08-21T08:19:25Z</time>
      </trkpt>
      <trkpt lat="44.68948" lon="7.06002">
        <ele>2463.04</ele>
        <time>2022-08-21T08:19:59Z</time>
      </trkpt>
      <trkpt lat="44.68962" lon="7.05964">
        <ele>2464</ele>
        <time>2022-08-21T08:20:29Z</time>
      </trkpt>
      <trkpt lat="44.68973" lon="7.05905">
        <ele>2462.07</ele>
        <time>2022-08-21T08:21:49Z</time>
      </trkpt>
      <trkpt lat="44.68975" lon="7.05864">
        <ele>2463.52</ele>
        <time>2022-08-21T08:22:13Z</time>
      </trkpt>
      <trkpt lat="44.68974" lon="7.05827">
        <ele>2461.59</ele>
        <time>2022-08-21T08:22:37Z</time>
      </trkpt>
      <trkpt lat="44.68989" lon="7.05791">
        <ele>2454.38</ele>
        <time>2022-08-21T08:23:11Z</time>
      </trkpt>
      <trkpt lat="44.68996" lon="7.05759">
        <ele>2452.46</ele>
        <time>2022-08-21T08:23:34Z</time>
      </trkpt>
      <trkpt lat="44.69002" lon="7.05721">
        <ele>2446.21</ele>
        <time>2022-08-21T08:24:17Z</time>
      </trkpt>
      <trkpt lat="44.69015" lon="7.0569">
        <ele>2441.41</ele>
        <time>2022-08-21T08:25:08Z</time>
      </trkpt>
      <trkpt lat="44.69029" lon="7.05658">
        <ele>2437.08</ele>
        <time>2022-08-21T08:25:51Z</time>
      </trkpt>
      <trkpt lat="44.69042" lon="7.05611">
        <ele>2432.75</ele>
        <time>2022-08-21T08:26:26Z</time>
      </trkpt>
      <trkpt lat="44.6905" lon="7.05579">
        <ele>2431.79</ele>
        <time>2022-08-21T08:26:48Z</time>
      </trkpt>
      <trkpt lat="44.69054" lon="7.05547">
        <ele>2432.27</ele>
        <time>2022-08-21T08:27:11Z</time>
      </trkpt>
      <trkpt lat="44.69063" lon="7.05497">
        <ele>2428.43</ele>
        <time>2022-08-21T08:27:43Z</time>
      </trkpt>
      <trkpt lat="44.69083" lon="7.05462">
        <ele>2425.06</ele>
        <time>2022-08-21T08:28:14Z</time>
      </trkpt>
      <trkpt lat="44.69096" lon="7.05414">
        <ele>2417.85</ele>
        <time>2022-08-21T08:29:19Z</time>
      </trkpt>
      <trkpt lat="44.69109" lon="7.05383">
        <ele>2412.57</ele>
        <time>2022-08-21T08:29:44Z</time>
      </trkpt>
      <trkpt lat="44.69124" lon="7.0535">
        <ele>2408.72</ele>
        <time>2022-08-21T08:30:12Z</time>
      </trkpt>
      <trkpt lat="44.69142" lon="7.05329">
        <ele>2406.32</ele>
        <time>2022-08-21T08:30:39Z</time>
      </trkpt>
      <trkpt lat="44.69181" lon="7.05294">
        <ele>2400.07</ele>
        <time>2022-08-21T08:31:39Z</time>
      </trkpt>
      <trkpt lat="44.69212" lon="7.05247">
        <ele>2392.86</ele>
        <time>2022-08-21T08:32:51Z</time>
      </trkpt>
      <trkpt lat="44.69232" lon="7.05213">
        <ele>2384.69</ele>
        <time>2022-08-21T08:33:27Z</time>
      </trkpt>
      <trkpt lat="44.69273" lon="7.05194">
        <ele>2375.55</ele>
        <time>2022-08-21T08:34:14Z</time>
      </trkpt>
      <trkpt lat="44.69313" lon="7.05159">
        <ele>2360.65</ele>
        <time>2022-08-21T08:35:22Z</time>
      </trkpt>
      <trkpt lat="44.69354" lon="7.05137">
        <ele>2349.6</ele>
        <time>2022-08-21T08:36:20Z</time>
      </trkpt>
      <trkpt lat="44.69385" lon="7.0507">
        <ele>2331.81</ele>
        <time>2022-08-21T08:37:40Z</time>
      </trkpt>
      <trkpt lat="44.694" lon="7.0504">
        <ele>2325.57</ele>
        <time>2022-08-21T08:38:09Z</time>
      </trkpt>
      <trkpt lat="44.69415" lon="7.04996">
        <ele>2318.36</ele>
        <time>2022-08-21T08:38:43Z</time>
      </trkpt>
      <trkpt lat="44.69428" lon="7.04964">
        <ele>2313.07</ele>
        <time>2022-08-21T08:39:08Z</time>
      </trkpt>
      <trkpt lat="44.69445" lon="7.0493">
        <ele>2305.86</ele>
        <time>2022-08-21T08:39:44Z</time>
      </trkpt>
      <trkpt lat="44.69472" lon="7.04885">
        <ele>2288.56</ele>
        <time>2022-08-21T08:40:59Z</time>
      </trkpt>
      <trkpt lat="44.69513" lon="7.04852">
        <ele>2277.02</ele>
        <time>2022-08-21T08:42:09Z</time>
      </trkpt>
      <trkpt lat="44.69534" lon="7.04823">
        <ele>2270.77</ele>
        <time>2022-08-21T08:42:39Z</time>
      </trkpt>
      <trkpt lat="44.69552" lon="7.048">
        <ele>2269.81</ele>
        <time>2022-08-21T08:43:03Z</time>
      </trkpt>
      <trkpt lat="44.6957" lon="7.0478">
        <ele>2267.41</ele>
        <time>2022-08-21T08:43:24Z</time>
      </trkpt>
      <trkpt lat="44.69599" lon="7.0475">
        <ele>2264.04</ele>
        <time>2022-08-21T08:44:02Z</time>
      </trkpt>
      <trkpt lat="44.69617" lon="7.04725">
        <ele>2262.6</ele>
        <time>2022-08-21T08:44:25Z</time>
      </trkpt>
      <trkpt lat="44.69644" lon="7.04696">
        <ele>2259.24</ele>
        <time>2022-08-21T08:45:00Z</time>
      </trkpt>
      <trkpt lat="44.69662" lon="7.04673">
        <ele>2255.87</ele>
        <time>2022-08-21T08:45:25Z</time>
      </trkpt>
      <trkpt lat="44.69683" lon="7.04646">
        <ele>2252.03</ele>
        <time>2022-08-21T08:45:51Z</time>
      </trkpt>
      <trkpt lat="44.69708" lon="7.04616">
        <ele>2246.74</ele>
        <time>2022-08-21T08:46:23Z</time>
      </trkpt>
      <trkpt lat="44.69735" lon="7.04606">
        <ele>2242.41</ele>
        <time>2022-08-21T08:46:52Z</time>
      </trkpt>
      <trkpt lat="44.69747" lon="7.04575">
        <ele>2239.05</ele>
        <time>2022-08-21T08:47:17Z</time>
      </trkpt>
      <trkpt lat="44.69773" lon="7.04549">
        <ele>2236.16</ele>
        <time>2022-08-21T08:47:49Z</time>
      </trkpt>
      <trkpt lat="44.69788" lon="7.04514">
        <ele>2233.28</ele>
        <time>2022-08-21T08:48:17Z</time>
      </trkpt>
      <trkpt lat="44.69815" lon="7.04487">
        <ele>2227.99</ele>
        <time>2022-08-21T08:48:58Z</time>
      </trkpt>
      <trkpt lat="44.69832" lon="7.04461">
        <ele>2227.99</ele>
        <time>2022-08-21T08:49:25Z</time>
      </trkpt>
      <trkpt lat="44.69852" lon="7.04441">
        <ele>2226.07</ele>
        <time>2022-08-21T08:50:08Z</time>
      </trkpt>
      <trkpt lat="44.69879" lon="7.04423">
        <ele>2221.74</ele>
        <time>2022-08-21T08:50:45Z</time>
      </trkpt>
      <trkpt lat="44.69902" lon="7.04398">
        <ele>2215.98</ele>
        <time>2022-08-21T08:51:16Z</time>
      </trkpt>
      <trkpt lat="44.69925" lon="7.04358">
        <ele>2207.32</ele>
        <time>2022-08-21T08:51:57Z</time>
      </trkpt>
      <trkpt lat="44.69949" lon="7.04338">
        <ele>2207.32</ele>
        <time>2022-08-21T08:52:23Z</time>
      </trkpt>
      <trkpt lat="44.69971" lon="7.04322">
        <ele>2203.48</ele>
        <time>2022-08-21T08:52:47Z</time>
      </trkpt>
      <trkpt lat="44.69987" lon="7.04285">
        <ele>2200.59</ele>
        <time>2022-08-21T08:53:15Z</time>
      </trkpt>
      <trkpt lat="44.70009" lon="7.04273">
        <ele>2198.67</ele>
        <time>2022-08-21T08:53:37Z</time>
      </trkpt>
      <trkpt lat="44.70029" lon="7.04256">
        <ele>2197.23</ele>
        <time>2022-08-21T08:53:56Z</time>
      </trkpt>
      <trkpt lat="44.70054" lon="7.04248">
        <ele>2195.31</ele>
        <time>2022-08-21T08:54:18Z</time>
      </trkpt>
      <trkpt lat="44.70078" lon="7.04227">
        <ele>2194.35</ele>
        <time>2022-08-21T08:54:44Z</time>
      </trkpt>
      <trkpt lat="44.70101" lon="7.0421">
        <ele>2193.39</ele>
        <time>2022-08-21T08:55:09Z</time>
      </trkpt>
      <trkpt lat="44.70131" lon="7.04185">
        <ele>2187.14</ele>
        <time>2022-08-21T08:59:55Z</time>
      </trkpt>
      <trkpt lat="44.70156" lon="7.04173">
        <ele>2185.21</ele>
        <time>2022-08-21T09:00:29Z</time>
      </trkpt>
      <trkpt lat="44.70181" lon="7.04163">
        <ele>2182.33</ele>
        <time>2022-08-21T09:00:54Z</time>
      </trkpt>
      <trkpt lat="44.70211" lon="7.04153">
        <ele>2179.93</ele>
        <time>2022-08-21T09:01:20Z</time>
      </trkpt>
      <trkpt lat="44.70255" lon="7.04134">
        <ele>2177.52</ele>
        <time>2022-08-21T09:01:57Z</time>
      </trkpt>
      <trkpt lat="44.70286" lon="7.04125">
        <ele>2176.08</ele>
        <time>2022-08-21T09:02:24Z</time>
      </trkpt>
      <trkpt lat="44.70307" lon="7.04111">
        <ele>2176.08</ele>
        <time>2022-08-21T09:03:08Z</time>
      </trkpt>
      <trkpt lat="44.70326" lon="7.04095">
        <ele>2175.6</ele>
        <time>2022-08-21T09:03:31Z</time>
      </trkpt>
      <trkpt lat="44.70348" lon="7.04072">
        <ele>2173.68</ele>
        <time>2022-08-21T09:03:54Z</time>
      </trkpt>
      <trkpt lat="44.70374" lon="7.04041">
        <ele>2173.2</ele>
        <time>2022-08-21T09:04:23Z</time>
      </trkpt>
      <trkpt lat="44.70407" lon="7.04017">
        <ele>2173.2</ele>
        <time>2022-08-21T09:04:54Z</time>
      </trkpt>
      <trkpt lat="44.70445" lon="7.0399">
        <ele>2175.6</ele>
        <time>2022-08-21T09:05:42Z</time>
      </trkpt>
      <trkpt lat="44.70465" lon="7.03972">
        <ele>2174.64</ele>
        <time>2022-08-21T09:06:06Z</time>
      </trkpt>
      <trkpt lat="44.70484" lon="7.03949">
        <ele>2172.72</ele>
        <time>2022-08-21T09:06:32Z</time>
      </trkpt>
      <trkpt lat="44.70491" lon="7.03919">
        <ele>2174.16</ele>
        <time>2022-08-21T09:06:53Z</time>
      </trkpt>
      <trkpt lat="44.70503" lon="7.0389">
        <ele>2170.31</ele>
        <time>2022-08-21T09:07:15Z</time>
      </trkpt>
      <trkpt lat="44.70523" lon="7.03851">
        <ele>2165.99</ele>
        <time>2022-08-21T09:07:48Z</time>
      </trkpt>
      <trkpt lat="44.70542" lon="7.03828">
        <ele>2165.51</ele>
        <time>2022-08-21T09:08:08Z</time>
      </trkpt>
      <trkpt lat="44.70564" lon="7.03808">
        <ele>2165.03</ele>
        <time>2022-08-21T09:08:29Z</time>
      </trkpt>
      <trkpt lat="44.70585" lon="7.03794">
        <ele>2165.03</ele>
        <time>2022-08-21T09:08:48Z</time>
      </trkpt>
      <trkpt lat="44.70621" lon="7.03774">
        <ele>2163.58</ele>
        <time>2022-08-21T09:09:21Z</time>
      </trkpt>
      <trkpt lat="44.70646" lon="7.03777">
        <ele>2165.99</ele>
        <time>2022-08-21T09:09:47Z</time>
      </trkpt>
      <trkpt lat="44.70677" lon="7.03759">
        <ele>2165.03</ele>
        <time>2022-08-21T09:10:24Z</time>
      </trkpt>
      <trkpt lat="44.70707" lon="7.03723">
        <ele>2161.66</ele>
        <time>2022-08-21T09:11:02Z</time>
      </trkpt>
      <trkpt lat="44.70724" lon="7.03669">
        <ele>2161.18</ele>
        <time>2022-08-21T09:11:36Z</time>
      </trkpt>
      <trkpt lat="44.70732" lon="7.03634">
        <ele>2162.62</ele>
        <time>2022-08-21T09:12:02Z</time>
      </trkpt>
      <trkpt lat="44.70739" lon="7.03589">
        <ele>2164.55</ele>
        <time>2022-08-21T09:12:31Z</time>
      </trkpt>
      <trkpt lat="44.70743" lon="7.03554">
        <ele>2164.06</ele>
        <time>2022-08-21T09:12:54Z</time>
      </trkpt>
      <trkpt lat="44.70757" lon="7.03501">
        <ele>2165.03</ele>
        <time>2022-08-21T09:13:30Z</time>
      </trkpt>
      <trkpt lat="44.70772" lon="7.03468">
        <ele>2165.51</ele>
        <time>2022-08-21T09:13:54Z</time>
      </trkpt>
      <trkpt lat="44.70787" lon="7.03443">
        <ele>2168.87</ele>
        <time>2022-08-21T09:14:18Z</time>
      </trkpt>
      <trkpt lat="44.70798" lon="7.03403">
        <ele>2165.03</ele>
        <time>2022-08-21T09:15:04Z</time>
      </trkpt>
      <trkpt lat="44.70814" lon="7.03361">
        <ele>2164.06</ele>
        <time>2022-08-21T09:15:33Z</time>
      </trkpt>
      <trkpt lat="44.7084" lon="7.03343">
        <ele>2169.35</ele>
        <time>2022-08-21T09:16:03Z</time>
      </trkpt>
      <trkpt lat="44.70861" lon="7.03326">
        <ele>2174.64</ele>
        <time>2022-08-21T09:16:33Z</time>
      </trkpt>
      <trkpt lat="44.70881" lon="7.03293">
        <ele>2179.45</ele>
        <time>2022-08-21T09:17:13Z</time>
      </trkpt>
      <trkpt lat="44.70904" lon="7.0325">
        <ele>2178</ele>
        <time>2022-08-21T09:18:50Z</time>
      </trkpt>
      <trkpt lat="44.70904" lon="7.03194">
        <ele>2165.03</ele>
        <time>2022-08-21T09:20:02Z</time>
      </trkpt>
      <trkpt lat="44.70909" lon="7.03147">
        <ele>2153.49</ele>
        <time>2022-08-21T09:21:16Z</time>
      </trkpt>
      <trkpt lat="44.70889" lon="7.03177">
        <ele>2154.45</ele>
        <time>2022-08-21T09:22:06Z</time>
      </trkpt>
      <trkpt lat="44.70888" lon="7.03123">
        <ele>2147.24</ele>
        <time>2022-08-21T09:25:03Z</time>
      </trkpt>
      <trkpt lat="44.70881" lon="7.03082">
        <ele>2138.59</ele>
        <time>2022-08-21T09:25:41Z</time>
      </trkpt>
      <trkpt lat="44.70886" lon="7.03013">
        <ele>2122.73</ele>
        <time>2022-08-21T09:26:50Z</time>
      </trkpt>
      <trkpt lat="44.70893" lon="7.02978">
        <ele>2117.44</ele>
        <time>2022-08-21T09:27:15Z</time>
      </trkpt>
      <trkpt lat="44.70904" lon="7.02944">
        <ele>2113.12</ele>
        <time>2022-08-21T09:27:40Z</time>
      </trkpt>
      <trkpt lat="44.70912" lon="7.02907">
        <ele>2105.42</ele>
        <time>2022-08-21T09:28:19Z</time>
      </trkpt>
      <trkpt lat="44.7092" lon="7.02858">
        <ele>2083.31</ele>
        <time>2022-08-21T09:30:00Z</time>
      </trkpt>
      <trkpt lat="44.70932" lon="7.02825">
        <ele>2079.95</ele>
        <time>2022-08-21T09:30:23Z</time>
      </trkpt>
      <trkpt lat="44.7096" lon="7.02792">
        <ele>2079.47</ele>
        <time>2022-08-21T09:30:59Z</time>
      </trkpt>
      <trkpt lat="44.70973" lon="7.02764">
        <ele>2078.03</ele>
        <time>2022-08-21T09:31:27Z</time>
      </trkpt>
      <trkpt lat="44.70994" lon="7.02733">
        <ele>2077.55</ele>
        <time>2022-08-21T09:31:54Z</time>
      </trkpt>
      <trkpt lat="44.71013" lon="7.02705">
        <ele>2078.51</ele>
        <time>2022-08-21T09:32:17Z</time>
      </trkpt>
      <trkpt lat="44.71031" lon="7.02673">
        <ele>2074.66</ele>
        <time>2022-08-21T09:32:49Z</time>
      </trkpt>
      <trkpt lat="44.71046" lon="7.02648">
        <ele>2069.38</ele>
        <time>2022-08-21T09:33:13Z</time>
      </trkpt>
      <trkpt lat="44.71068" lon="7.02623">
        <ele>2063.61</ele>
        <time>2022-08-21T09:33:47Z</time>
      </trkpt>
      <trkpt lat="44.71093" lon="7.02606">
        <ele>2054.96</ele>
        <time>2022-08-21T09:34:24Z</time>
      </trkpt>
      <trkpt lat="44.7111" lon="7.02585">
        <ele>2049.67</ele>
        <time>2022-08-21T09:34:50Z</time>
      </trkpt>
      <trkpt lat="44.71125" lon="7.02561">
        <ele>2047.26</ele>
        <time>2022-08-21T09:35:11Z</time>
      </trkpt>
      <trkpt lat="44.71152" lon="7.02539">
        <ele>2044.38</ele>
        <time>2022-08-21T09:35:38Z</time>
      </trkpt>
      <trkpt lat="44.71177" lon="7.02503">
        <ele>2041.5</ele>
        <time>2022-08-21T09:36:06Z</time>
      </trkpt>
      <trkpt lat="44.71191" lon="7.02476">
        <ele>2040.54</ele>
        <time>2022-08-21T09:36:25Z</time>
      </trkpt>
      <trkpt lat="44.71196" lon="7.02442">
        <ele>2039.57</ele>
        <time>2022-08-21T09:36:43Z</time>
      </trkpt>
      <trkpt lat="44.71214" lon="7.02387">
        <ele>2037.65</ele>
        <time>2022-08-21T09:37:19Z</time>
      </trkpt>
      <trkpt lat="44.71229" lon="7.02359">
        <ele>2036.69</ele>
        <time>2022-08-21T09:37:38Z</time>
      </trkpt>
      <trkpt lat="44.71245" lon="7.02333">
        <ele>2035.73</ele>
        <time>2022-08-21T09:37:56Z</time>
      </trkpt>
      <trkpt lat="44.71265" lon="7.02281">
        <ele>2034.29</ele>
        <time>2022-08-21T09:38:28Z</time>
      </trkpt>
      <trkpt lat="44.71277" lon="7.02251">
        <ele>2034.29</ele>
        <time>2022-08-21T09:38:46Z</time>
      </trkpt>
      <trkpt lat="44.7129" lon="7.02222">
        <ele>2033.81</ele>
        <time>2022-08-21T09:39:04Z</time>
      </trkpt>
      <trkpt lat="44.71312" lon="7.02206">
        <ele>2033.33</ele>
        <time>2022-08-21T09:39:21Z</time>
      </trkpt>
      <trkpt lat="44.71337" lon="7.02203">
        <ele>2032.36</ele>
        <time>2022-08-21T09:39:39Z</time>
      </trkpt>
      <trkpt lat="44.71366" lon="7.02201">
        <ele>2031.4</ele>
        <time>2022-08-21T09:40:00Z</time>
      </trkpt>
      <trkpt lat="44.71412" lon="7.02186">
        <ele>2028.52</ele>
        <time>2022-08-21T09:40:37Z</time>
      </trkpt>
      <trkpt lat="44.71438" lon="7.02169">
        <ele>2026.6</ele>
        <time>2022-08-21T09:40:59Z</time>
      </trkpt>
      <trkpt lat="44.71458" lon="7.02152">
        <ele>2025.15</ele>
        <time>2022-08-21T09:41:18Z</time>
      </trkpt>
      <trkpt lat="44.71479" lon="7.02126">
        <ele>2024.67</ele>
        <time>2022-08-21T09:41:40Z</time>
      </trkpt>
      <trkpt lat="44.71509" lon="7.02094">
        <ele>2023.71</ele>
        <time>2022-08-21T09:42:09Z</time>
      </trkpt>
      <trkpt lat="44.71533" lon="7.02086">
        <ele>2022.75</ele>
        <time>2022-08-21T09:42:28Z</time>
      </trkpt>
      <trkpt lat="44.71562" lon="7.02071">
        <ele>2025.15</ele>
        <time>2022-08-21T09:42:54Z</time>
      </trkpt>
      <trkpt lat="44.71589" lon="7.02042">
        <ele>2025.15</ele>
        <time>2022-08-21T09:43:21Z</time>
      </trkpt>
      <trkpt lat="44.716" lon="7.01995">
        <ele>2025.64</ele>
        <time>2022-08-21T09:43:49Z</time>
      </trkpt>
      <trkpt lat="44.71625" lon="7.01964">
        <ele>2025.64</ele>
        <time>2022-08-21T09:44:17Z</time>
      </trkpt>
      <trkpt lat="44.71655" lon="7.0191">
        <ele>2025.15</ele>
        <time>2022-08-21T09:44:54Z</time>
      </trkpt>
      <trkpt lat="44.71671" lon="7.01881">
        <ele>2023.71</ele>
        <time>2022-08-21T09:45:14Z</time>
      </trkpt>
      <trkpt lat="44.71685" lon="7.0185">
        <ele>2023.23</ele>
        <time>2022-08-21T09:45:34Z</time>
      </trkpt>
      <trkpt lat="44.71698" lon="7.01806">
        <ele>2022.75</ele>
        <time>2022-08-21T09:46:00Z</time>
      </trkpt>
      <trkpt lat="44.71713" lon="7.01771">
        <ele>2021.79</ele>
        <time>2022-08-21T09:46:23Z</time>
      </trkpt>
      <trkpt lat="44.71743" lon="7.01738">
        <ele>2019.87</ele>
        <time>2022-08-21T09:46:55Z</time>
      </trkpt>
      <trkpt lat="44.71762" lon="7.01717">
        <ele>2018.43</ele>
        <time>2022-08-21T09:47:15Z</time>
      </trkpt>
      <trkpt lat="44.71782" lon="7.017">
        <ele>2017.94</ele>
        <time>2022-08-21T09:47:34Z</time>
      </trkpt>
      <trkpt lat="44.7181" lon="7.0166">
        <ele>2013.62</ele>
        <time>2022-08-21T09:48:06Z</time>
      </trkpt>
      <trkpt lat="44.71826" lon="7.01634">
        <ele>2011.7</ele>
        <time>2022-08-21T09:48:25Z</time>
      </trkpt>
      <trkpt lat="44.71864" lon="7.01593">
        <ele>2007.85</ele>
        <time>2022-08-21T09:49:04Z</time>
      </trkpt>
      <trkpt lat="44.71884" lon="7.01574">
        <ele>2005.45</ele>
        <time>2022-08-21T09:49:22Z</time>
      </trkpt>
      <trkpt lat="44.71912" lon="7.01531">
        <ele>2002.08</ele>
        <time>2022-08-21T09:49:57Z</time>
      </trkpt>
      <trkpt lat="44.71936" lon="7.01492">
        <ele>1999.2</ele>
        <time>2022-08-21T09:50:56Z</time>
      </trkpt>
      <trkpt lat="44.71967" lon="7.01465">
        <ele>1997.28</ele>
        <time>2022-08-21T09:52:00Z</time>
      </trkpt>
      <trkpt lat="44.72005" lon="7.01448">
        <ele>1996.8</ele>
        <time>2022-08-21T09:52:32Z</time>
      </trkpt>
      <trkpt lat="44.72043" lon="7.01426">
        <ele>1998.24</ele>
        <time>2022-08-21T09:53:05Z</time>
      </trkpt>
      <trkpt lat="44.72075" lon="7.01394">
        <ele>2001.6</ele>
        <time>2022-08-21T09:53:39Z</time>
      </trkpt>
      <trkpt lat="44.72098" lon="7.01381">
        <ele>2002.08</ele>
        <time>2022-08-21T09:53:58Z</time>
      </trkpt>
      <trkpt lat="44.72134" lon="7.01354">
        <ele>1999.2</ele>
        <time>2022-08-21T09:54:31Z</time>
      </trkpt>
      <trkpt lat="44.72157" lon="7.01331">
        <ele>1999.2</ele>
        <time>2022-08-21T09:54:54Z</time>
      </trkpt>
      <trkpt lat="44.72177" lon="7.01315">
        <ele>1997.28</ele>
        <time>2022-08-21T09:55:30Z</time>
      </trkpt>
      <trkpt lat="44.72181" lon="7.01255">
        <ele>1991.03</ele>
        <time>2022-08-21T09:57:36Z</time>
      </trkpt>
      <trkpt lat="44.72191" lon="7.01224">
        <ele>1986.22</ele>
        <time>2022-08-21T09:58:04Z</time>
      </trkpt>
      <trkpt lat="44.72234" lon="7.01202">
        <ele>1982.86</ele>
        <time>2022-08-21T10:00:02Z</time>
      </trkpt>
      <trkpt lat="44.72255" lon="7.01189">
        <ele>1980.45</ele>
        <time>2022-08-21T10:01:11Z</time>
      </trkpt>
      <trkpt lat="44.72247" lon="7.01171">
        <ele>1974.2</ele>
        <time>2022-08-21T10:20:32Z</time>
      </trkpt>
      <trkpt lat="44.72277" lon="7.01185">
        <ele>1979.01</ele>
        <time>2022-08-21T10:39:54Z</time>
      </trkpt>
      <trkpt lat="44.723" lon="7.01185">
        <ele>1982.86</ele>
        <time>2022-08-21T10:40:40Z</time>
      </trkpt>
      <trkpt lat="44.72328" lon="7.01178">
        <ele>1986.7</ele>
        <time>2022-08-21T10:41:20Z</time>
      </trkpt>
      <trkpt lat="44.72353" lon="7.01161">
        <ele>1986.7</ele>
        <time>2022-08-21T10:41:49Z</time>
      </trkpt>
      <trkpt lat="44.72373" lon="7.01108">
        <ele>1982.86</ele>
        <time>2022-08-21T10:42:30Z</time>
      </trkpt>
      <trkpt lat="44.72392" lon="7.01062">
        <ele>1982.38</ele>
        <time>2022-08-21T10:43:04Z</time>
      </trkpt>
      <trkpt lat="44.724" lon="7.01032">
        <ele>1982.38</ele>
        <time>2022-08-21T10:43:23Z</time>
      </trkpt>
      <trkpt lat="44.72418" lon="7.0099">
        <ele>1981.41</ele>
        <time>2022-08-21T10:43:55Z</time>
      </trkpt>
      <trkpt lat="44.72437" lon="7.00951">
        <ele>1981.41</ele>
        <time>2022-08-21T10:44:25Z</time>
      </trkpt>
      <trkpt lat="44.72449" lon="7.00924">
        <ele>1981.9</ele>
        <time>2022-08-21T10:44:44Z</time>
      </trkpt>
      <trkpt lat="44.72476" lon="7.00877">
        <ele>1979.97</ele>
        <time>2022-08-21T10:45:21Z</time>
      </trkpt>
      <trkpt lat="44.7248" lon="7.00844">
        <ele>1979.97</ele>
        <time>2022-08-21T10:45:39Z</time>
      </trkpt>
      <trkpt lat="44.72478" lon="7.00808">
        <ele>1980.93</ele>
        <time>2022-08-21T10:45:57Z</time>
      </trkpt>
      <trkpt lat="44.72495" lon="7.0078">
        <ele>1980.45</ele>
        <time>2022-08-21T10:46:22Z</time>
      </trkpt>
      <trkpt lat="44.72519" lon="7.00769">
        <ele>1979.01</ele>
        <time>2022-08-21T10:46:43Z</time>
      </trkpt>
      <trkpt lat="44.72534" lon="7.00742">
        <ele>1977.57</ele>
        <time>2022-08-21T10:47:02Z</time>
      </trkpt>
      <trkpt lat="44.72552" lon="7.00721">
        <ele>1977.57</ele>
        <time>2022-08-21T10:47:21Z</time>
      </trkpt>
      <trkpt lat="44.72574" lon="7.00715">
        <ele>1977.09</ele>
        <time>2022-08-21T10:47:40Z</time>
      </trkpt>
      <trkpt lat="44.72607" lon="7.00719">
        <ele>1976.61</ele>
        <time>2022-08-21T10:48:09Z</time>
      </trkpt>
      <trkpt lat="44.72617" lon="7.00688">
        <ele>1975.17</ele>
        <time>2022-08-21T10:48:30Z</time>
      </trkpt>
      <trkpt lat="44.7263" lon="7.00649">
        <ele>1972.76</ele>
        <time>2022-08-21T10:48:57Z</time>
      </trkpt>
      <trkpt lat="44.72657" lon="7.00627">
        <ele>1969.4</ele>
        <time>2022-08-21T10:49:27Z</time>
      </trkpt>
      <trkpt lat="44.72681" lon="7.00638">
        <ele>1967.48</ele>
        <time>2022-08-21T10:50:04Z</time>
      </trkpt>
      <trkpt lat="44.72714" lon="7.00619">
        <ele>1965.55</ele>
        <time>2022-08-21T10:50:37Z</time>
      </trkpt>
      <trkpt lat="44.72749" lon="7.00595">
        <ele>1963.15</ele>
        <time>2022-08-21T10:51:09Z</time>
      </trkpt>
      <trkpt lat="44.72765" lon="7.00572">
        <ele>1959.3</ele>
        <time>2022-08-21T10:51:28Z</time>
      </trkpt>
      <trkpt lat="44.72781" lon="7.00549">
        <ele>1956.42</ele>
        <time>2022-08-21T10:51:47Z</time>
      </trkpt>
      <trkpt lat="44.72805" lon="7.00523">
        <ele>1955.94</ele>
        <time>2022-08-21T10:52:10Z</time>
      </trkpt>
      <trkpt lat="44.72828" lon="7.0048">
        <ele>1951.61</ele>
        <time>2022-08-21T10:52:45Z</time>
      </trkpt>
      <trkpt lat="44.72855" lon="7.00444">
        <ele>1948.25</ele>
        <time>2022-08-21T10:53:22Z</time>
      </trkpt>
      <trkpt lat="44.72876" lon="7.00419">
        <ele>1946.81</ele>
        <time>2022-08-21T10:53:45Z</time>
      </trkpt>
      <trkpt lat="44.72897" lon="7.00391">
        <ele>1943.92</ele>
        <time>2022-08-21T10:54:13Z</time>
      </trkpt>
      <trkpt lat="44.7292" lon="7.0036">
        <ele>1941.52</ele>
        <time>2022-08-21T10:54:50Z</time>
      </trkpt>
      <trkpt lat="44.72952" lon="7.00322">
        <ele>1938.16</ele>
        <time>2022-08-21T10:56:08Z</time>
      </trkpt>
      <trkpt lat="44.72984" lon="7.00285">
        <ele>1934.79</ele>
        <time>2022-08-21T10:56:41Z</time>
      </trkpt>
      <trkpt lat="44.73001" lon="7.00258">
        <ele>1932.87</ele>
        <time>2022-08-21T10:56:59Z</time>
      </trkpt>
      <trkpt lat="44.73022" lon="7.00237">
        <ele>1929.98</ele>
        <time>2022-08-21T10:57:22Z</time>
      </trkpt>
      <trkpt lat="44.73058" lon="7.0022">
        <ele>1924.7</ele>
        <time>2022-08-21T10:57:57Z</time>
      </trkpt>
      <trkpt lat="44.73085" lon="7.00204">
        <ele>1919.41</ele>
        <time>2022-08-21T10:58:24Z</time>
      </trkpt>
      <trkpt lat="44.73115" lon="7.00182">
        <ele>1915.08</ele>
        <time>2022-08-21T10:58:52Z</time>
      </trkpt>
      <trkpt lat="44.73139" lon="7.00172">
        <ele>1911.24</ele>
        <time>2022-08-21T10:59:12Z</time>
      </trkpt>
      <trkpt lat="44.73161" lon="7.00163">
        <ele>1908.35</ele>
        <time>2022-08-21T10:59:32Z</time>
      </trkpt>
      <trkpt lat="44.73199" lon="7.00164">
        <ele>1903.07</ele>
        <time>2022-08-21T11:00:08Z</time>
      </trkpt>
      <trkpt lat="44.73225" lon="7.00164">
        <ele>1900.18</ele>
        <time>2022-08-21T11:00:28Z</time>
      </trkpt>
      <trkpt lat="44.73267" lon="7.00153">
        <ele>1900.18</ele>
        <time>2022-08-21T11:01:02Z</time>
      </trkpt>
      <trkpt lat="44.73291" lon="7.00128">
        <ele>1899.7</ele>
        <time>2022-08-21T11:01:24Z</time>
      </trkpt>
      <trkpt lat="44.73325" lon="7.00121">
        <ele>1896.34</ele>
        <time>2022-08-21T11:01:57Z</time>
      </trkpt>
      <trkpt lat="44.73363" lon="7.00122">
        <ele>1892.97</ele>
        <time>2022-08-21T11:02:28Z</time>
      </trkpt>
      <trkpt lat="44.73386" lon="7.00119">
        <ele>1890.57</ele>
        <time>2022-08-21T11:02:48Z</time>
      </trkpt>
      <trkpt lat="44.73419" lon="7.00105">
        <ele>1885.76</ele>
        <time>2022-08-21T11:03:18Z</time>
      </trkpt>
      <trkpt lat="44.73474" lon="7.00085">
        <ele>1875.67</ele>
        <time>2022-08-21T11:04:13Z</time>
      </trkpt>
      <trkpt lat="44.73503" lon="7.00111">
        <ele>1872.3</ele>
        <time>2022-08-21T11:04:43Z</time>
      </trkpt>
      <trkpt lat="44.73544" lon="7.00107">
        <ele>1868.46</ele>
        <time>2022-08-21T11:05:19Z</time>
      </trkpt>
      <trkpt lat="44.73573" lon="7.00084">
        <ele>1864.61</ele>
        <time>2022-08-21T11:05:56Z</time>
      </trkpt>
      <trkpt lat="44.73609" lon="7.00083">
        <ele>1858.37</ele>
        <time>2022-08-21T11:06:29Z</time>
      </trkpt>
      <trkpt lat="44.73637" lon="7.00071">
        <ele>1856.44</ele>
        <time>2022-08-21T11:06:58Z</time>
      </trkpt>
      <trkpt lat="44.7364" lon="7.00007">
        <ele>1855.48</ele>
        <time>2022-08-21T11:07:56Z</time>
      </trkpt>
      <trkpt lat="44.73649" lon="6.99957">
        <ele>1851.64</ele>
        <time>2022-08-21T11:08:28Z</time>
      </trkpt>
      <trkpt lat="44.73664" lon="6.99921">
        <ele>1847.79</ele>
        <time>2022-08-21T11:08:55Z</time>
      </trkpt>
      <trkpt lat="44.73687" lon="6.99894">
        <ele>1843.47</ele>
        <time>2022-08-21T11:09:23Z</time>
      </trkpt>
      <trkpt lat="44.73715" lon="6.99884">
        <ele>1841.54</ele>
        <time>2022-08-21T11:09:50Z</time>
      </trkpt>
      <trkpt lat="44.73744" lon="6.9985">
        <ele>1838.18</ele>
        <time>2022-08-21T11:10:22Z</time>
      </trkpt>
      <trkpt lat="44.73777" lon="6.99825">
        <ele>1835.29</ele>
        <time>2022-08-21T11:10:55Z</time>
      </trkpt>
      <trkpt lat="44.73799" lon="6.99798">
        <ele>1832.41</ele>
        <time>2022-08-21T11:11:25Z</time>
      </trkpt>
      <trkpt lat="44.73825" lon="6.99765">
        <ele>1830.01</ele>
        <time>2022-08-21T11:11:58Z</time>
      </trkpt>
      <trkpt lat="44.73855" lon="6.99703">
        <ele>1825.68</ele>
        <time>2022-08-21T11:13:07Z</time>
      </trkpt>
      <trkpt lat="44.73871" lon="6.99667">
        <ele>1821.35</ele>
        <time>2022-08-21T11:14:21Z</time>
      </trkpt>
      <trkpt lat="44.73902" lon="6.99638">
        <ele>1818.95</ele>
        <time>2022-08-21T11:14:54Z</time>
      </trkpt>
      <trkpt lat="44.73927" lon="6.9961">
        <ele>1815.59</ele>
        <time>2022-08-21T11:15:23Z</time>
      </trkpt>
      <trkpt lat="44.73944" lon="6.9958">
        <ele>1813.66</ele>
        <time>2022-08-21T11:15:46Z</time>
      </trkpt>
      <trkpt lat="44.73972" lon="6.99545">
        <ele>1809.34</ele>
        <time>2022-08-21T11:16:19Z</time>
      </trkpt>
      <trkpt lat="44.73993" lon="6.99519">
        <ele>1805.49</ele>
        <time>2022-08-21T11:16:48Z</time>
      </trkpt>
      <trkpt lat="44.74022" lon="6.99504">
        <ele>1801.65</ele>
        <time>2022-08-21T11:17:20Z</time>
      </trkpt>
      <trkpt lat="44.74044" lon="6.99498">
        <ele>1799.24</ele>
        <time>2022-08-21T11:17:41Z</time>
      </trkpt>
      <trkpt lat="44.74081" lon="6.99494">
        <ele>1796.36</ele>
        <time>2022-08-21T11:18:12Z</time>
      </trkpt>
      <trkpt lat="44.74106" lon="6.99481">
        <ele>1794.44</ele>
        <time>2022-08-21T11:18:35Z</time>
      </trkpt>
      <trkpt lat="44.7414" lon="6.99464">
        <ele>1791.07</ele>
        <time>2022-08-21T11:19:06Z</time>
      </trkpt>
      <trkpt lat="44.74184" lon="6.99459">
        <ele>1787.23</ele>
        <time>2022-08-21T11:19:40Z</time>
      </trkpt>
      <trkpt lat="44.74231" lon="6.99458">
        <ele>1783.86</ele>
        <time>2022-08-21T11:20:18Z</time>
      </trkpt>
      <trkpt lat="44.74254" lon="6.9945">
        <ele>1781.94</ele>
        <time>2022-08-21T11:20:49Z</time>
      </trkpt>
      <trkpt lat="44.74291" lon="6.99438">
        <ele>1777.13</ele>
        <time>2022-08-21T11:21:22Z</time>
      </trkpt>
      <trkpt lat="44.74336" lon="6.99436">
        <ele>1775.21</ele>
        <time>2022-08-21T11:21:57Z</time>
      </trkpt>
      <trkpt lat="44.74365" lon="6.9944">
        <ele>1773.77</ele>
        <time>2022-08-21T11:22:20Z</time>
      </trkpt>
      <trkpt lat="44.7439" lon="6.99446">
        <ele>1772.33</ele>
        <time>2022-08-21T11:22:37Z</time>
      </trkpt>
      <trkpt lat="44.74418" lon="6.99451">
        <ele>1771.37</ele>
        <time>2022-08-21T11:22:57Z</time>
      </trkpt>
      <trkpt lat="44.74443" lon="6.99459">
        <ele>1770.89</ele>
        <time>2022-08-21T11:23:16Z</time>
      </trkpt>
      <trkpt lat="44.74473" lon="6.99471">
        <ele>1769.44</ele>
        <time>2022-08-21T11:23:43Z</time>
      </trkpt>
      <trkpt lat="44.74495" lon="6.99479">
        <ele>1768.96</ele>
        <time>2022-08-21T11:24:01Z</time>
      </trkpt>
      <trkpt lat="44.74522" lon="6.99487">
        <ele>1767.52</ele>
        <time>2022-08-21T11:24:21Z</time>
      </trkpt>
      <trkpt lat="44.74551" lon="6.99494">
        <ele>1765.6</ele>
        <time>2022-08-21T11:24:42Z</time>
      </trkpt>
      <trkpt lat="44.7459" lon="6.99491">
        <ele>1763.68</ele>
        <time>2022-08-21T11:25:16Z</time>
      </trkpt>
      <trkpt lat="44.74621" lon="6.99497">
        <ele>1761.75</ele>
        <time>2022-08-21T11:25:42Z</time>
      </trkpt>
      <trkpt lat="44.7466" lon="6.99507">
        <ele>1760.31</ele>
        <time>2022-08-21T11:26:13Z</time>
      </trkpt>
      <trkpt lat="44.74684" lon="6.99516">
        <ele>1759.35</ele>
        <time>2022-08-21T11:26:34Z</time>
      </trkpt>
      <trkpt lat="44.74724" lon="6.99532">
        <ele>1758.39</ele>
        <time>2022-08-21T11:27:08Z</time>
      </trkpt>
      <trkpt lat="44.74747" lon="6.99536">
        <ele>1757.91</ele>
        <time>2022-08-21T11:27:31Z</time>
      </trkpt>
      <trkpt lat="44.74781" lon="6.99538">
        <ele>1755.99</ele>
        <time>2022-08-21T11:27:57Z</time>
      </trkpt>
      <trkpt lat="44.7481" lon="6.99532">
        <ele>1754.06</ele>
        <time>2022-08-21T11:28:21Z</time>
      </trkpt>
      <trkpt lat="44.74833" lon="6.99523">
        <ele>1754.06</ele>
        <time>2022-08-21T11:28:39Z</time>
      </trkpt>
      <trkpt lat="44.7486" lon="6.99514">
        <ele>1752.14</ele>
        <time>2022-08-21T11:29:03Z</time>
      </trkpt>
      <trkpt lat="44.74901" lon="6.99503">
        <ele>1751.18</ele>
        <time>2022-08-21T11:29:37Z</time>
      </trkpt>
      <trkpt lat="44.74939" lon="6.99492">
        <ele>1750.22</ele>
        <time>2022-08-21T11:30:10Z</time>
      </trkpt>
      <trkpt lat="44.7497" lon="6.99486">
        <ele>1748.78</ele>
        <time>2022-08-21T11:30:33Z</time>
      </trkpt>
      <trkpt lat="44.74995" lon="6.99486">
        <ele>1747.33</ele>
        <time>2022-08-21T11:30:50Z</time>
      </trkpt>
      <trkpt lat="44.75039" lon="6.99474">
        <ele>1746.37</ele>
        <time>2022-08-21T11:31:25Z</time>
      </trkpt>
      <trkpt lat="44.75083" lon="6.99456">
        <ele>1744.45</ele>
        <time>2022-08-21T11:32:00Z</time>
      </trkpt>
      <trkpt lat="44.75108" lon="6.99443">
        <ele>1743.01</ele>
        <time>2022-08-21T11:32:20Z</time>
      </trkpt>
      <trkpt lat="44.75134" lon="6.99432">
        <ele>1742.53</ele>
        <time>2022-08-21T11:32:41Z</time>
      </trkpt>
      <trkpt lat="44.75157" lon="6.99417">
        <ele>1741.08</ele>
        <time>2022-08-21T11:33:00Z</time>
      </trkpt>
      <trkpt lat="44.75184" lon="6.99392">
        <ele>1740.12</ele>
        <time>2022-08-21T11:33:24Z</time>
      </trkpt>
      <trkpt lat="44.75202" lon="6.99366">
        <ele>1738.2</ele>
        <time>2022-08-21T11:33:44Z</time>
      </trkpt>
      <trkpt lat="44.75229" lon="6.99348">
        <ele>1737.24</ele>
        <time>2022-08-21T11:34:08Z</time>
      </trkpt>
      <trkpt lat="44.7527" lon="6.9933">
        <ele>1736.76</ele>
        <time>2022-08-21T11:34:42Z</time>
      </trkpt>
      <trkpt lat="44.75307" lon="6.99317">
        <ele>1734.84</ele>
        <time>2022-08-21T11:35:13Z</time>
      </trkpt>
      <trkpt lat="44.75329" lon="6.99307">
        <ele>1733.39</ele>
        <time>2022-08-21T11:35:30Z</time>
      </trkpt>
      <trkpt lat="44.75355" lon="6.99291">
        <ele>1732.43</ele>
        <time>2022-08-21T11:35:51Z</time>
      </trkpt>
      <trkpt lat="44.75394" lon="6.99263">
        <ele>1730.99</ele>
        <time>2022-08-21T11:36:26Z</time>
      </trkpt>
      <trkpt lat="44.75417" lon="6.9924">
        <ele>1729.07</ele>
        <time>2022-08-21T11:36:47Z</time>
      </trkpt>
      <trkpt lat="44.75438" lon="6.99226">
        <ele>1727.63</ele>
        <time>2022-08-21T11:37:05Z</time>
      </trkpt>
      <trkpt lat="44.75461" lon="6.99223">
        <ele>1726.67</ele>
        <time>2022-08-21T11:37:23Z</time>
      </trkpt>
      <trkpt lat="44.75486" lon="6.9922">
        <ele>1726.18</ele>
        <time>2022-08-21T11:37:42Z</time>
      </trkpt>
      <trkpt lat="44.75512" lon="6.99222">
        <ele>1724.74</ele>
        <time>2022-08-21T11:38:02Z</time>
      </trkpt>
      <trkpt lat="44.75538" lon="6.99218">
        <ele>1723.3</ele>
        <time>2022-08-21T11:38:22Z</time>
      </trkpt>
      <trkpt lat="44.75562" lon="6.99216">
        <ele>1721.38</ele>
        <time>2022-08-21T11:38:42Z</time>
      </trkpt>
      <trkpt lat="44.7559" lon="6.99218">
        <ele>1720.9</ele>
        <time>2022-08-21T11:39:03Z</time>
      </trkpt>
      <trkpt lat="44.75634" lon="6.99224">
        <ele>1718.97</ele>
        <time>2022-08-21T11:39:38Z</time>
      </trkpt>
      <trkpt lat="44.75657" lon="6.9923">
        <ele>1717.53</ele>
        <time>2022-08-21T11:39:56Z</time>
      </trkpt>
      <trkpt lat="44.7568" lon="6.99227">
        <ele>1716.57</ele>
        <time>2022-08-21T11:40:14Z</time>
      </trkpt>
      <trkpt lat="44.75724" lon="6.99227">
        <ele>1715.61</ele>
        <time>2022-08-21T11:40:50Z</time>
      </trkpt>
      <trkpt lat="44.75755" lon="6.99268">
        <ele>1714.65</ele>
        <time>2022-08-21T11:41:26Z</time>
      </trkpt>
      <trkpt lat="44.75783" lon="6.99273">
        <ele>1713.21</ele>
        <time>2022-08-21T11:41:47Z</time>
      </trkpt>
      <trkpt lat="44.75808" lon="6.99278">
        <ele>1712.73</ele>
        <time>2022-08-21T11:42:07Z</time>
      </trkpt>
      <trkpt lat="44.75837" lon="6.99277">
        <ele>1712.25</ele>
        <time>2022-08-21T11:42:29Z</time>
      </trkpt>
      <trkpt lat="44.75863" lon="6.99277">
        <ele>1711.76</ele>
        <time>2022-08-21T11:42:51Z</time>
      </trkpt>
      <trkpt lat="44.75887" lon="6.9927">
        <ele>1710.32</ele>
        <time>2022-08-21T11:43:21Z</time>
      </trkpt>
      <trkpt lat="44.75887" lon="6.99266">
        <ele>1707.44</ele>
        <time>2022-08-21T11:44:54Z</time>
      </trkpt>
    </trkseg>
  </trk>
</gpx>